<?xml version="1.0" encoding="UTF-8" standalone="no" ?>
<gpx xmlns="http://www.topografix.com/GPX/1/1" xmlns:xsi="http://www.w3.org/2001/XMLSchema-instance" xsi:schemaLocation="http://www.topografix.com/GPX/1/1 http://www.topografix.com/GPX/1/1/gpx.xsd" version="1.1" creator="VisuGPX - https://www.visugpx.com">
  <metadata>
    <name>cn 31 décembre 2017</name>
  </metadata>
  <trk>
    <name><![CDATA[20171231101632-U12Jg]]></name>
    <trkseg>
      <trkpt lat="48.61989" lon="6.37089">
        <ele>248</ele>
      </trkpt>
      <trkpt lat="48.61965" lon="6.37095">
        <ele>248</ele>
        <time>2017-12-23T17:49:03Z</time>
      </trkpt>
      <trkpt lat="48.6196" lon="6.37095">
        <ele>248</ele>
        <time>2017-12-23T17:49:04Z</time>
      </trkpt>
      <trkpt lat="48.61936" lon="6.37113">
        <ele>248</ele>
        <time>2017-12-23T17:50:49Z</time>
      </trkpt>
      <trkpt lat="48.61938" lon="6.37123">
        <ele>249</ele>
        <time>2017-12-23T17:50:52Z</time>
      </trkpt>
      <trkpt lat="48.61939" lon="6.37136">
        <ele>249</ele>
        <time>2017-12-23T17:50:55Z</time>
      </trkpt>
      <trkpt lat="48.6194" lon="6.37145">
        <ele>250</ele>
        <time>2017-12-23T17:50:57Z</time>
      </trkpt>
      <trkpt lat="48.61946" lon="6.37172">
        <ele>252</ele>
        <time>2017-12-23T17:51:03Z</time>
      </trkpt>
      <trkpt lat="48.61948" lon="6.37177">
        <ele>252</ele>
        <time>2017-12-23T17:51:04Z</time>
      </trkpt>
      <trkpt lat="48.6195" lon="6.37186">
        <ele>252</ele>
        <time>2017-12-23T17:51:06Z</time>
      </trkpt>
      <trkpt lat="48.61952" lon="6.37195">
        <ele>252</ele>
        <time>2017-12-23T17:51:08Z</time>
      </trkpt>
      <trkpt lat="48.61953" lon="6.372">
        <ele>253</ele>
        <time>2017-12-23T17:51:09Z</time>
      </trkpt>
      <trkpt lat="48.61954" lon="6.37204">
        <ele>253</ele>
        <time>2017-12-23T17:51:10Z</time>
      </trkpt>
      <trkpt lat="48.61955" lon="6.37209">
        <ele>253</ele>
        <time>2017-12-23T17:51:11Z</time>
      </trkpt>
      <trkpt lat="48.61958" lon="6.37217">
        <ele>253</ele>
        <time>2017-12-23T17:51:13Z</time>
      </trkpt>
      <trkpt lat="48.61959" lon="6.37221">
        <ele>253</ele>
        <time>2017-12-23T17:51:14Z</time>
      </trkpt>
      <trkpt lat="48.6196" lon="6.37225">
        <ele>253</ele>
        <time>2017-12-23T17:51:15Z</time>
      </trkpt>
      <trkpt lat="48.61961" lon="6.3723">
        <ele>253</ele>
        <time>2017-12-23T17:51:16Z</time>
      </trkpt>
      <trkpt lat="48.61963" lon="6.37238">
        <ele>253</ele>
        <time>2017-12-23T17:51:18Z</time>
      </trkpt>
      <trkpt lat="48.61966" lon="6.37251">
        <ele>256</ele>
        <time>2017-12-23T17:51:21Z</time>
      </trkpt>
      <trkpt lat="48.61971" lon="6.37269">
        <ele>256</ele>
        <time>2017-12-23T17:51:25Z</time>
      </trkpt>
      <trkpt lat="48.61973" lon="6.37277">
        <ele>256</ele>
        <time>2017-12-23T17:51:27Z</time>
      </trkpt>
      <trkpt lat="48.61977" lon="6.37294">
        <ele>256</ele>
        <time>2017-12-23T17:51:31Z</time>
      </trkpt>
      <trkpt lat="48.61979" lon="6.37303">
        <ele>257</ele>
        <time>2017-12-23T17:51:33Z</time>
      </trkpt>
      <trkpt lat="48.61981" lon="6.37311">
        <ele>257</ele>
        <time>2017-12-23T17:51:35Z</time>
      </trkpt>
      <trkpt lat="48.61982" lon="6.37314">
        <ele>257</ele>
        <time>2017-12-23T17:51:36Z</time>
      </trkpt>
      <trkpt lat="48.61981" lon="6.3732">
        <ele>257</ele>
        <time>2017-12-23T17:51:38Z</time>
      </trkpt>
      <trkpt lat="48.6198" lon="6.37322">
        <ele>257</ele>
        <time>2017-12-23T17:51:39Z</time>
      </trkpt>
      <trkpt lat="48.61977" lon="6.37323">
        <ele>257</ele>
        <time>2017-12-23T17:51:40Z</time>
      </trkpt>
      <trkpt lat="48.61946" lon="6.3733">
        <ele>257</ele>
        <time>2017-12-23T17:51:49Z</time>
      </trkpt>
      <trkpt lat="48.61939" lon="6.37333">
        <ele>258</ele>
        <time>2017-12-23T17:51:51Z</time>
      </trkpt>
      <trkpt lat="48.61928" lon="6.37338">
        <ele>259</ele>
        <time>2017-12-23T17:51:54Z</time>
      </trkpt>
      <trkpt lat="48.61914" lon="6.37344">
        <ele>260</ele>
        <time>2017-12-23T17:51:58Z</time>
      </trkpt>
      <trkpt lat="48.61899" lon="6.3735">
        <ele>260</ele>
        <time>2017-12-23T17:52:02Z</time>
      </trkpt>
      <trkpt lat="48.61849" lon="6.37375">
        <ele>261</ele>
        <time>2017-12-23T17:52:17Z</time>
      </trkpt>
      <trkpt lat="48.61843" lon="6.37379">
        <ele>261</ele>
        <time>2017-12-23T17:52:19Z</time>
      </trkpt>
      <trkpt lat="48.61802" lon="6.37417">
        <ele>263</ele>
        <time>2017-12-23T17:52:34Z</time>
      </trkpt>
      <trkpt lat="48.61799" lon="6.3742">
        <ele>263</ele>
        <time>2017-12-23T17:52:35Z</time>
      </trkpt>
      <trkpt lat="48.61796" lon="6.37421">
        <ele>263</ele>
        <time>2017-12-23T17:52:36Z</time>
      </trkpt>
      <trkpt lat="48.61785" lon="6.37417">
        <ele>262</ele>
        <time>2017-12-23T17:52:39Z</time>
      </trkpt>
      <trkpt lat="48.61781" lon="6.37416">
        <ele>261</ele>
        <time>2017-12-23T17:52:40Z</time>
      </trkpt>
      <trkpt lat="48.61769" lon="6.37423">
        <ele>262</ele>
        <time>2017-12-23T17:52:45Z</time>
      </trkpt>
      <trkpt lat="48.61753" lon="6.3744">
        <ele>262</ele>
        <time>2017-12-23T17:52:51Z</time>
      </trkpt>
      <trkpt lat="48.61737" lon="6.37456">
        <ele>261</ele>
        <time>2017-12-23T17:52:56Z</time>
      </trkpt>
      <trkpt lat="48.61694" lon="6.37499">
        <ele>260</ele>
        <time>2017-12-23T17:53:09Z</time>
      </trkpt>
      <trkpt lat="48.61684" lon="6.37509">
        <ele>261</ele>
        <time>2017-12-23T17:53:12Z</time>
      </trkpt>
      <trkpt lat="48.61671" lon="6.37524">
        <ele>261</ele>
        <time>2017-12-23T17:53:16Z</time>
      </trkpt>
      <trkpt lat="48.61648" lon="6.37548">
        <ele>258</ele>
        <time>2017-12-23T17:53:23Z</time>
      </trkpt>
      <trkpt lat="48.61632" lon="6.37566">
        <ele>257</ele>
        <time>2017-12-23T17:53:28Z</time>
      </trkpt>
      <trkpt lat="48.61622" lon="6.37566">
        <ele>257</ele>
        <time>2017-12-23T17:53:31Z</time>
      </trkpt>
      <trkpt lat="48.6162" lon="6.37562">
        <ele>257</ele>
        <time>2017-12-23T17:53:32Z</time>
      </trkpt>
      <trkpt lat="48.61617" lon="6.37558">
        <ele>256</ele>
        <time>2017-12-23T17:53:33Z</time>
      </trkpt>
      <trkpt lat="48.61616" lon="6.37553">
        <ele>256</ele>
        <time>2017-12-23T17:53:34Z</time>
      </trkpt>
      <trkpt lat="48.61614" lon="6.37548">
        <ele>256</ele>
        <time>2017-12-23T17:53:35Z</time>
      </trkpt>
      <trkpt lat="48.61612" lon="6.37544">
        <ele>256</ele>
        <time>2017-12-23T17:53:36Z</time>
      </trkpt>
      <trkpt lat="48.61606" lon="6.3754">
        <ele>256</ele>
        <time>2017-12-23T17:53:38Z</time>
      </trkpt>
      <trkpt lat="48.61589" lon="6.37545">
        <ele>255</ele>
        <time>2017-12-23T17:53:44Z</time>
      </trkpt>
      <trkpt lat="48.61564" lon="6.37554">
        <ele>250</ele>
        <time>2017-12-23T17:53:51Z</time>
      </trkpt>
      <trkpt lat="48.61547" lon="6.37559">
        <ele>249</ele>
        <time>2017-12-23T17:53:55Z</time>
      </trkpt>
      <trkpt lat="48.61523" lon="6.37565">
        <ele>247</ele>
        <time>2017-12-23T17:54:00Z</time>
      </trkpt>
      <trkpt lat="48.61519" lon="6.37566">
        <ele>246</ele>
        <time>2017-12-23T17:54:01Z</time>
      </trkpt>
      <trkpt lat="48.61516" lon="6.37567">
        <ele>246</ele>
        <time>2017-12-23T17:54:02Z</time>
      </trkpt>
      <trkpt lat="48.61513" lon="6.37566">
        <ele>246</ele>
        <time>2017-12-23T17:54:03Z</time>
      </trkpt>
      <trkpt lat="48.61511" lon="6.37564">
        <ele>246</ele>
        <time>2017-12-23T17:54:04Z</time>
      </trkpt>
      <trkpt lat="48.61509" lon="6.37562">
        <ele>246</ele>
        <time>2017-12-23T17:54:05Z</time>
      </trkpt>
      <trkpt lat="48.61506" lon="6.37554">
        <ele>246</ele>
        <time>2017-12-23T17:54:07Z</time>
      </trkpt>
      <trkpt lat="48.615" lon="6.37525">
        <ele>246</ele>
        <time>2017-12-23T17:54:12Z</time>
      </trkpt>
      <trkpt lat="48.61497" lon="6.37513">
        <ele>242</ele>
        <time>2017-12-23T17:54:14Z</time>
      </trkpt>
      <trkpt lat="48.61494" lon="6.37501">
        <ele>242</ele>
        <time>2017-12-23T17:54:16Z</time>
      </trkpt>
      <trkpt lat="48.61484" lon="6.37465">
        <ele>241</ele>
        <time>2017-12-23T17:54:22Z</time>
      </trkpt>
      <trkpt lat="48.61479" lon="6.37447">
        <ele>241</ele>
        <time>2017-12-23T17:54:25Z</time>
      </trkpt>
      <trkpt lat="48.61475" lon="6.37429">
        <ele>241</ele>
        <time>2017-12-23T17:54:28Z</time>
      </trkpt>
      <trkpt lat="48.61454" lon="6.37365">
        <ele>239</ele>
        <time>2017-12-23T17:54:40Z</time>
      </trkpt>
      <trkpt lat="48.61448" lon="6.37367">
        <ele>239</ele>
        <time>2017-12-23T17:54:42Z</time>
      </trkpt>
      <trkpt lat="48.61438" lon="6.37369">
        <ele>239</ele>
        <time>2017-12-23T17:54:45Z</time>
      </trkpt>
      <trkpt lat="48.61433" lon="6.37361">
        <ele>238</ele>
        <time>2017-12-23T17:54:47Z</time>
      </trkpt>
      <trkpt lat="48.6143" lon="6.37348">
        <ele>238</ele>
        <time>2017-12-23T17:54:49Z</time>
      </trkpt>
      <trkpt lat="48.61428" lon="6.37342">
        <ele>237</ele>
        <time>2017-12-23T17:54:50Z</time>
      </trkpt>
      <trkpt lat="48.61412" lon="6.37296">
        <ele>236</ele>
        <time>2017-12-23T17:54:58Z</time>
      </trkpt>
      <trkpt lat="48.61398" lon="6.37255">
        <ele>236</ele>
        <time>2017-12-23T17:55:05Z</time>
      </trkpt>
      <trkpt lat="48.61396" lon="6.3725">
        <ele>237</ele>
        <time>2017-12-23T17:55:06Z</time>
      </trkpt>
      <trkpt lat="48.61385" lon="6.37223">
        <ele>237</ele>
        <time>2017-12-23T17:55:11Z</time>
      </trkpt>
      <trkpt lat="48.61372" lon="6.37194">
        <ele>238</ele>
        <time>2017-12-23T17:55:17Z</time>
      </trkpt>
      <trkpt lat="48.61368" lon="6.37189">
        <ele>238</ele>
        <time>2017-12-23T17:55:19Z</time>
      </trkpt>
      <trkpt lat="48.61364" lon="6.37195">
        <ele>237</ele>
        <time>2017-12-23T17:55:21Z</time>
      </trkpt>
      <trkpt lat="48.61362" lon="6.372">
        <ele>237</ele>
        <time>2017-12-23T17:55:22Z</time>
      </trkpt>
      <trkpt lat="48.61359" lon="6.37206">
        <ele>237</ele>
        <time>2017-12-23T17:55:23Z</time>
      </trkpt>
      <trkpt lat="48.61353" lon="6.37218">
        <ele>237</ele>
        <time>2017-12-23T17:55:25Z</time>
      </trkpt>
      <trkpt lat="48.6135" lon="6.37224">
        <ele>237</ele>
        <time>2017-12-23T17:55:26Z</time>
      </trkpt>
      <trkpt lat="48.61346" lon="6.37231">
        <ele>237</ele>
        <time>2017-12-23T17:55:27Z</time>
      </trkpt>
      <trkpt lat="48.61332" lon="6.37257">
        <ele>235</ele>
        <time>2017-12-23T17:55:31Z</time>
      </trkpt>
      <trkpt lat="48.61328" lon="6.37264">
        <ele>235</ele>
        <time>2017-12-23T17:55:32Z</time>
      </trkpt>
      <trkpt lat="48.6132" lon="6.37279">
        <ele>234</ele>
        <time>2017-12-23T17:55:34Z</time>
      </trkpt>
      <trkpt lat="48.61316" lon="6.37285">
        <ele>234</ele>
        <time>2017-12-23T17:55:35Z</time>
      </trkpt>
      <trkpt lat="48.61309" lon="6.37299">
        <ele>234</ele>
        <time>2017-12-23T17:55:37Z</time>
      </trkpt>
      <trkpt lat="48.61295" lon="6.37326">
        <ele>233</ele>
        <time>2017-12-23T17:55:41Z</time>
      </trkpt>
      <trkpt lat="48.61277" lon="6.37359">
        <ele>232</ele>
        <time>2017-12-23T17:55:46Z</time>
      </trkpt>
      <trkpt lat="48.6127" lon="6.37372">
        <ele>232</ele>
        <time>2017-12-23T17:55:48Z</time>
      </trkpt>
      <trkpt lat="48.61252" lon="6.37404">
        <ele>232</ele>
        <time>2017-12-23T17:55:53Z</time>
      </trkpt>
      <trkpt lat="48.61225" lon="6.37453">
        <ele>232</ele>
        <time>2017-12-23T17:56:01Z</time>
      </trkpt>
      <trkpt lat="48.61212" lon="6.37479">
        <ele>232</ele>
        <time>2017-12-23T17:56:05Z</time>
      </trkpt>
      <trkpt lat="48.61209" lon="6.37485">
        <ele>232</ele>
        <time>2017-12-23T17:56:06Z</time>
      </trkpt>
      <trkpt lat="48.61202" lon="6.37497">
        <ele>232</ele>
        <time>2017-12-23T17:56:08Z</time>
      </trkpt>
      <trkpt lat="48.61177" lon="6.37539">
        <ele>235</ele>
        <time>2017-12-23T17:56:16Z</time>
      </trkpt>
      <trkpt lat="48.61172" lon="6.37547">
        <ele>235</ele>
        <time>2017-12-23T17:56:18Z</time>
      </trkpt>
      <trkpt lat="48.61166" lon="6.37556">
        <ele>236</ele>
        <time>2017-12-23T17:56:20Z</time>
      </trkpt>
      <trkpt lat="48.61156" lon="6.37572">
        <ele>237</ele>
        <time>2017-12-23T17:56:24Z</time>
      </trkpt>
      <trkpt lat="48.61145" lon="6.37586">
        <ele>239</ele>
        <time>2017-12-23T17:56:28Z</time>
      </trkpt>
      <trkpt lat="48.61134" lon="6.37599">
        <ele>240</ele>
        <time>2017-12-23T17:56:32Z</time>
      </trkpt>
      <trkpt lat="48.61124" lon="6.37611">
        <ele>240</ele>
        <time>2017-12-23T17:56:36Z</time>
      </trkpt>
      <trkpt lat="48.61099" lon="6.3764">
        <ele>242</ele>
        <time>2017-12-23T17:56:46Z</time>
      </trkpt>
      <trkpt lat="48.61085" lon="6.37654">
        <ele>243</ele>
        <time>2017-12-23T17:56:51Z</time>
      </trkpt>
      <trkpt lat="48.61074" lon="6.37664">
        <ele>244</ele>
        <time>2017-12-23T17:56:55Z</time>
      </trkpt>
      <trkpt lat="48.61072" lon="6.37667">
        <ele>244</ele>
        <time>2017-12-23T17:56:56Z</time>
      </trkpt>
      <trkpt lat="48.61064" lon="6.37674">
        <ele>247</ele>
        <time>2017-12-23T17:56:59Z</time>
      </trkpt>
      <trkpt lat="48.61057" lon="6.37682">
        <ele>247</ele>
        <time>2017-12-23T17:57:02Z</time>
      </trkpt>
      <trkpt lat="48.6105" lon="6.37689">
        <ele>248</ele>
        <time>2017-12-23T17:57:05Z</time>
      </trkpt>
      <trkpt lat="48.61041" lon="6.37697">
        <ele>248</ele>
        <time>2017-12-23T17:57:09Z</time>
      </trkpt>
      <trkpt lat="48.61035" lon="6.37703">
        <ele>248</ele>
        <time>2017-12-23T17:57:12Z</time>
      </trkpt>
      <trkpt lat="48.61031" lon="6.37708">
        <ele>249</ele>
        <time>2017-12-23T17:57:14Z</time>
      </trkpt>
      <trkpt lat="48.61028" lon="6.37713">
        <ele>249</ele>
        <time>2017-12-23T17:57:16Z</time>
      </trkpt>
      <trkpt lat="48.61024" lon="6.37717">
        <ele>249</ele>
        <time>2017-12-23T17:57:18Z</time>
      </trkpt>
      <trkpt lat="48.6102" lon="6.37721">
        <ele>249</ele>
        <time>2017-12-23T17:57:20Z</time>
      </trkpt>
      <trkpt lat="48.61015" lon="6.37727">
        <ele>250</ele>
        <time>2017-12-23T17:57:23Z</time>
      </trkpt>
      <trkpt lat="48.61013" lon="6.37729">
        <ele>250</ele>
        <time>2017-12-23T17:57:24Z</time>
      </trkpt>
      <trkpt lat="48.61011" lon="6.37731">
        <ele>250</ele>
        <time>2017-12-23T17:57:25Z</time>
      </trkpt>
      <trkpt lat="48.61008" lon="6.37733">
        <ele>250</ele>
        <time>2017-12-23T17:57:26Z</time>
      </trkpt>
      <trkpt lat="48.61006" lon="6.37735">
        <ele>250</ele>
        <time>2017-12-23T17:57:27Z</time>
      </trkpt>
      <trkpt lat="48.60993" lon="6.37746">
        <ele>250</ele>
        <time>2017-12-23T17:57:33Z</time>
      </trkpt>
      <trkpt lat="48.60981" lon="6.37757">
        <ele>253</ele>
        <time>2017-12-23T17:57:38Z</time>
      </trkpt>
      <trkpt lat="48.60952" lon="6.37781">
        <ele>253</ele>
        <time>2017-12-23T17:57:49Z</time>
      </trkpt>
      <trkpt lat="48.60944" lon="6.37788">
        <ele>253</ele>
        <time>2017-12-23T17:57:52Z</time>
      </trkpt>
      <trkpt lat="48.60927" lon="6.37804">
        <ele>254</ele>
        <time>2017-12-23T17:57:58Z</time>
      </trkpt>
      <trkpt lat="48.60921" lon="6.37809">
        <ele>254</ele>
        <time>2017-12-23T17:58:00Z</time>
      </trkpt>
      <trkpt lat="48.60916" lon="6.37815">
        <ele>251</ele>
        <time>2017-12-23T17:58:02Z</time>
      </trkpt>
      <trkpt lat="48.60907" lon="6.37824">
        <ele>252</ele>
        <time>2017-12-23T17:58:05Z</time>
      </trkpt>
      <trkpt lat="48.609" lon="6.37829">
        <ele>251</ele>
        <time>2017-12-23T17:58:07Z</time>
      </trkpt>
      <trkpt lat="48.6086" lon="6.37861">
        <ele>254</ele>
        <time>2017-12-23T17:58:21Z</time>
      </trkpt>
      <trkpt lat="48.60855" lon="6.37863">
        <ele>254</ele>
        <time>2017-12-23T17:58:23Z</time>
      </trkpt>
      <trkpt lat="48.60851" lon="6.37854">
        <ele>253</ele>
        <time>2017-12-23T17:58:31Z</time>
      </trkpt>
      <trkpt lat="48.6085" lon="6.37852">
        <ele>252</ele>
        <time>2017-12-23T17:58:34Z</time>
      </trkpt>
      <trkpt lat="48.60845" lon="6.37849">
        <ele>252</ele>
        <time>2017-12-23T17:58:36Z</time>
      </trkpt>
      <trkpt lat="48.60838" lon="6.37852">
        <ele>252</ele>
        <time>2017-12-23T17:58:38Z</time>
      </trkpt>
      <trkpt lat="48.60835" lon="6.37855">
        <ele>252</ele>
        <time>2017-12-23T17:58:39Z</time>
      </trkpt>
      <trkpt lat="48.60832" lon="6.37857">
        <ele>250</ele>
        <time>2017-12-23T17:58:40Z</time>
      </trkpt>
      <trkpt lat="48.60825" lon="6.37864">
        <ele>250</ele>
        <time>2017-12-23T17:58:42Z</time>
      </trkpt>
      <trkpt lat="48.60814" lon="6.37872">
        <ele>250</ele>
        <time>2017-12-23T17:58:45Z</time>
      </trkpt>
      <trkpt lat="48.60798" lon="6.37884">
        <ele>251</ele>
        <time>2017-12-23T17:58:51Z</time>
      </trkpt>
      <trkpt lat="48.60798" lon="6.37884">
        <ele>251</ele>
        <time>2017-12-23T17:58:52Z</time>
      </trkpt>
      <trkpt lat="48.60798" lon="6.37887">
        <ele>251</ele>
        <time>2017-12-23T17:59:21Z</time>
      </trkpt>
      <trkpt lat="48.60797" lon="6.37887">
        <ele>251</ele>
        <time>2017-12-23T17:59:22Z</time>
      </trkpt>
      <trkpt lat="48.60796" lon="6.37885">
        <ele>251</ele>
        <time>2017-12-23T17:59:23Z</time>
      </trkpt>
      <trkpt lat="48.60795" lon="6.37883">
        <ele>251</ele>
        <time>2017-12-23T17:59:24Z</time>
      </trkpt>
      <trkpt lat="48.60792" lon="6.37873">
        <ele>250</ele>
        <time>2017-12-23T17:59:26Z</time>
      </trkpt>
      <trkpt lat="48.60789" lon="6.37866">
        <ele>250</ele>
        <time>2017-12-23T17:59:27Z</time>
      </trkpt>
      <trkpt lat="48.60787" lon="6.37859">
        <ele>249</ele>
        <time>2017-12-23T17:59:28Z</time>
      </trkpt>
      <trkpt lat="48.60784" lon="6.37851">
        <ele>249</ele>
        <time>2017-12-23T17:59:29Z</time>
      </trkpt>
      <trkpt lat="48.60781" lon="6.37844">
        <ele>249</ele>
        <time>2017-12-23T17:59:30Z</time>
      </trkpt>
      <trkpt lat="48.60777" lon="6.37831">
        <ele>245</ele>
        <time>2017-12-23T17:59:32Z</time>
      </trkpt>
      <trkpt lat="48.60775" lon="6.37824">
        <ele>245</ele>
        <time>2017-12-23T17:59:33Z</time>
      </trkpt>
      <trkpt lat="48.60775" lon="6.37816">
        <ele>244</ele>
        <time>2017-12-23T17:59:34Z</time>
      </trkpt>
      <trkpt lat="48.60776" lon="6.37808">
        <ele>244</ele>
        <time>2017-12-23T17:59:35Z</time>
      </trkpt>
      <trkpt lat="48.60784" lon="6.37789">
        <ele>244</ele>
        <time>2017-12-23T17:59:38Z</time>
      </trkpt>
      <trkpt lat="48.60788" lon="6.37778">
        <ele>244</ele>
        <time>2017-12-23T17:59:40Z</time>
      </trkpt>
      <trkpt lat="48.60793" lon="6.37768">
        <ele>243</ele>
        <time>2017-12-23T17:59:42Z</time>
      </trkpt>
      <trkpt lat="48.60795" lon="6.37762">
        <ele>243</ele>
        <time>2017-12-23T17:59:43Z</time>
      </trkpt>
      <trkpt lat="48.60798" lon="6.37757">
        <ele>243</ele>
        <time>2017-12-23T17:59:44Z</time>
      </trkpt>
      <trkpt lat="48.60803" lon="6.37746">
        <ele>241</ele>
        <time>2017-12-23T17:59:46Z</time>
      </trkpt>
      <trkpt lat="48.60805" lon="6.3774">
        <ele>240</ele>
        <time>2017-12-23T17:59:47Z</time>
      </trkpt>
      <trkpt lat="48.60801" lon="6.37715">
        <ele>240</ele>
        <time>2017-12-23T17:59:52Z</time>
      </trkpt>
      <trkpt lat="48.60799" lon="6.37709">
        <ele>240</ele>
        <time>2017-12-23T17:59:53Z</time>
      </trkpt>
      <trkpt lat="48.60797" lon="6.37704">
        <ele>240</ele>
        <time>2017-12-23T17:59:54Z</time>
      </trkpt>
      <trkpt lat="48.60794" lon="6.37698">
        <ele>240</ele>
        <time>2017-12-23T17:59:55Z</time>
      </trkpt>
      <trkpt lat="48.60788" lon="6.3768">
        <ele>239</ele>
        <time>2017-12-23T17:59:58Z</time>
      </trkpt>
      <trkpt lat="48.60779" lon="6.37656">
        <ele>237</ele>
        <time>2017-12-23T18:00:02Z</time>
      </trkpt>
      <trkpt lat="48.60776" lon="6.3765">
        <ele>237</ele>
        <time>2017-12-23T18:00:03Z</time>
      </trkpt>
      <trkpt lat="48.60774" lon="6.37643">
        <ele>237</ele>
        <time>2017-12-23T18:00:04Z</time>
      </trkpt>
      <trkpt lat="48.60771" lon="6.37637">
        <ele>237</ele>
        <time>2017-12-23T18:00:05Z</time>
      </trkpt>
      <trkpt lat="48.60769" lon="6.3763">
        <ele>236</ele>
        <time>2017-12-23T18:00:06Z</time>
      </trkpt>
      <trkpt lat="48.60764" lon="6.37617">
        <ele>236</ele>
        <time>2017-12-23T18:00:08Z</time>
      </trkpt>
      <trkpt lat="48.60759" lon="6.37603">
        <ele>236</ele>
        <time>2017-12-23T18:00:10Z</time>
      </trkpt>
      <trkpt lat="48.60757" lon="6.37597">
        <ele>236</ele>
        <time>2017-12-23T18:00:11Z</time>
      </trkpt>
      <trkpt lat="48.60742" lon="6.37557">
        <ele>234</ele>
        <time>2017-12-23T18:00:17Z</time>
      </trkpt>
      <trkpt lat="48.60739" lon="6.37551">
        <ele>234</ele>
        <time>2017-12-23T18:00:18Z</time>
      </trkpt>
      <trkpt lat="48.60724" lon="6.3751">
        <ele>233</ele>
        <time>2017-12-23T18:00:24Z</time>
      </trkpt>
      <trkpt lat="48.60719" lon="6.37497">
        <ele>231</ele>
        <time>2017-12-23T18:00:26Z</time>
      </trkpt>
      <trkpt lat="48.60716" lon="6.37489">
        <ele>231</ele>
        <time>2017-12-23T18:00:27Z</time>
      </trkpt>
      <trkpt lat="48.6071" lon="6.37468">
        <ele>231</ele>
        <time>2017-12-23T18:00:30Z</time>
      </trkpt>
      <trkpt lat="48.60703" lon="6.37442">
        <ele>231</ele>
        <time>2017-12-23T18:00:34Z</time>
      </trkpt>
      <trkpt lat="48.60693" lon="6.37415">
        <ele>229</ele>
        <time>2017-12-23T18:00:39Z</time>
      </trkpt>
      <trkpt lat="48.60678" lon="6.37377">
        <ele>229</ele>
        <time>2017-12-23T18:00:46Z</time>
      </trkpt>
      <trkpt lat="48.60669" lon="6.37357">
        <ele>229</ele>
        <time>2017-12-23T18:00:50Z</time>
      </trkpt>
      <trkpt lat="48.60656" lon="6.37327">
        <ele>229</ele>
        <time>2017-12-23T18:00:56Z</time>
      </trkpt>
      <trkpt lat="48.60644" lon="6.373">
        <ele>229</ele>
        <time>2017-12-23T18:01:02Z</time>
      </trkpt>
      <trkpt lat="48.60616" lon="6.37251">
        <ele>230</ele>
        <time>2017-12-23T18:01:16Z</time>
      </trkpt>
      <trkpt lat="48.60605" lon="6.37235">
        <ele>229</ele>
        <time>2017-12-23T18:01:20Z</time>
      </trkpt>
      <trkpt lat="48.60593" lon="6.37222">
        <ele>229</ele>
        <time>2017-12-23T18:01:24Z</time>
      </trkpt>
      <trkpt lat="48.60577" lon="6.37204">
        <ele>229</ele>
        <time>2017-12-23T18:01:29Z</time>
      </trkpt>
      <trkpt lat="48.60572" lon="6.37197">
        <ele>229</ele>
        <time>2017-12-23T18:01:31Z</time>
      </trkpt>
      <trkpt lat="48.60557" lon="6.37171">
        <ele>229</ele>
        <time>2017-12-23T18:01:38Z</time>
      </trkpt>
      <trkpt lat="48.60548" lon="6.37097">
        <ele>229</ele>
        <time>2017-12-23T18:01:53Z</time>
      </trkpt>
      <trkpt lat="48.60544" lon="6.37038">
        <ele>228</ele>
        <time>2017-12-23T18:02:03Z</time>
      </trkpt>
      <trkpt lat="48.60541" lon="6.36951">
        <ele>228</ele>
        <time>2017-12-23T18:02:16Z</time>
      </trkpt>
      <trkpt lat="48.60542" lon="6.36944">
        <ele>227</ele>
        <time>2017-12-23T18:02:17Z</time>
      </trkpt>
      <trkpt lat="48.60545" lon="6.36926">
        <ele>227</ele>
        <time>2017-12-23T18:02:20Z</time>
      </trkpt>
      <trkpt lat="48.6056" lon="6.36887">
        <ele>227</ele>
        <time>2017-12-23T18:02:27Z</time>
      </trkpt>
      <trkpt lat="48.60571" lon="6.36852">
        <ele>227</ele>
        <time>2017-12-23T18:02:33Z</time>
      </trkpt>
      <trkpt lat="48.60579" lon="6.36828">
        <ele>227</ele>
        <time>2017-12-23T18:02:37Z</time>
      </trkpt>
      <trkpt lat="48.60601" lon="6.36773">
        <ele>226</ele>
        <time>2017-12-23T18:02:47Z</time>
      </trkpt>
      <trkpt lat="48.60609" lon="6.36749">
        <ele>227</ele>
        <time>2017-12-23T18:02:51Z</time>
      </trkpt>
      <trkpt lat="48.60621" lon="6.36722">
        <ele>227</ele>
        <time>2017-12-23T18:02:56Z</time>
      </trkpt>
      <trkpt lat="48.60623" lon="6.36715">
        <ele>227</ele>
        <time>2017-12-23T18:02:58Z</time>
      </trkpt>
      <trkpt lat="48.60621" lon="6.36712">
        <ele>227</ele>
        <time>2017-12-23T18:03:00Z</time>
      </trkpt>
      <trkpt lat="48.60575" lon="6.36736">
        <ele>227</ele>
        <time>2017-12-23T18:03:18Z</time>
      </trkpt>
      <trkpt lat="48.60569" lon="6.36724">
        <ele>227</ele>
        <time>2017-12-23T18:03:21Z</time>
      </trkpt>
      <trkpt lat="48.60568" lon="6.36718">
        <ele>227</ele>
        <time>2017-12-23T18:03:22Z</time>
      </trkpt>
      <trkpt lat="48.60565" lon="6.36712">
        <ele>227</ele>
        <time>2017-12-23T18:03:23Z</time>
      </trkpt>
      <trkpt lat="48.60563" lon="6.36701">
        <ele>228</ele>
        <time>2017-12-23T18:03:25Z</time>
      </trkpt>
      <trkpt lat="48.60564" lon="6.36696">
        <ele>228</ele>
        <time>2017-12-23T18:03:26Z</time>
      </trkpt>
      <trkpt lat="48.60596" lon="6.36642">
        <ele>228</ele>
        <time>2017-12-23T18:03:39Z</time>
      </trkpt>
      <trkpt lat="48.60611" lon="6.36609">
        <ele>227</ele>
        <time>2017-12-23T18:03:45Z</time>
      </trkpt>
      <trkpt lat="48.60608" lon="6.36596">
        <ele>227</ele>
        <time>2017-12-23T18:03:47Z</time>
      </trkpt>
      <trkpt lat="48.60601" lon="6.36575">
        <ele>226</ele>
        <time>2017-12-23T18:03:50Z</time>
      </trkpt>
      <trkpt lat="48.60593" lon="6.36562">
        <ele>226</ele>
        <time>2017-12-23T18:03:53Z</time>
      </trkpt>
      <trkpt lat="48.60579" lon="6.36552">
        <ele>226</ele>
        <time>2017-12-23T18:03:56Z</time>
      </trkpt>
      <trkpt lat="48.60574" lon="6.36548">
        <ele>226</ele>
        <time>2017-12-23T18:03:57Z</time>
      </trkpt>
      <trkpt lat="48.6056" lon="6.36533">
        <ele>226</ele>
        <time>2017-12-23T18:04:01Z</time>
      </trkpt>
      <trkpt lat="48.60556" lon="6.36519">
        <ele>226</ele>
        <time>2017-12-23T18:04:03Z</time>
      </trkpt>
      <trkpt lat="48.60562" lon="6.36486">
        <ele>224</ele>
        <time>2017-12-23T18:04:08Z</time>
      </trkpt>
      <trkpt lat="48.60565" lon="6.36458">
        <ele>224</ele>
        <time>2017-12-23T18:04:11Z</time>
      </trkpt>
      <trkpt lat="48.60576" lon="6.36417">
        <ele>223</ele>
        <time>2017-12-23T18:04:17Z</time>
      </trkpt>
      <trkpt lat="48.60587" lon="6.364">
        <ele>221</ele>
        <time>2017-12-23T18:04:20Z</time>
      </trkpt>
      <trkpt lat="48.60599" lon="6.36381">
        <ele>220</ele>
        <time>2017-12-23T18:04:23Z</time>
      </trkpt>
      <trkpt lat="48.60607" lon="6.36368">
        <ele>220</ele>
        <time>2017-12-23T18:04:26Z</time>
      </trkpt>
      <trkpt lat="48.60603" lon="6.36336">
        <ele>219</ele>
        <time>2017-12-23T18:04:31Z</time>
      </trkpt>
      <trkpt lat="48.60601" lon="6.36321">
        <ele>217</ele>
        <time>2017-12-23T18:04:33Z</time>
      </trkpt>
      <trkpt lat="48.60595" lon="6.36256">
        <ele>215</ele>
        <time>2017-12-23T18:04:41Z</time>
      </trkpt>
      <trkpt lat="48.60591" lon="6.36233">
        <ele>214</ele>
        <time>2017-12-23T18:04:44Z</time>
      </trkpt>
      <trkpt lat="48.60582" lon="6.36198">
        <ele>215</ele>
        <time>2017-12-23T18:04:51Z</time>
      </trkpt>
      <trkpt lat="48.60575" lon="6.36176">
        <ele>215</ele>
        <time>2017-12-23T18:04:58Z</time>
      </trkpt>
      <trkpt lat="48.60571" lon="6.36126">
        <ele>215</ele>
        <time>2017-12-23T18:05:13Z</time>
      </trkpt>
      <trkpt lat="48.60569" lon="6.36113">
        <ele>215</ele>
        <time>2017-12-23T18:06:46Z</time>
      </trkpt>
      <trkpt lat="48.60567" lon="6.3611">
        <ele>215</ele>
        <time>2017-12-23T18:06:47Z</time>
      </trkpt>
      <trkpt lat="48.60545" lon="6.3608">
        <ele>215</ele>
        <time>2017-12-23T18:06:56Z</time>
      </trkpt>
      <trkpt lat="48.60539" lon="6.36058">
        <ele>214</ele>
        <time>2017-12-23T18:07:00Z</time>
      </trkpt>
      <trkpt lat="48.60538" lon="6.36045">
        <ele>214</ele>
        <time>2017-12-23T18:07:02Z</time>
      </trkpt>
      <trkpt lat="48.60538" lon="6.36019">
        <ele>214</ele>
        <time>2017-12-23T18:07:06Z</time>
      </trkpt>
      <trkpt lat="48.60538" lon="6.36013">
        <ele>214</ele>
        <time>2017-12-23T18:07:07Z</time>
      </trkpt>
      <trkpt lat="48.60538" lon="6.36006">
        <ele>214</ele>
        <time>2017-12-23T18:07:08Z</time>
      </trkpt>
      <trkpt lat="48.60538" lon="6.36">
        <ele>215</ele>
        <time>2017-12-23T18:07:09Z</time>
      </trkpt>
      <trkpt lat="48.60538" lon="6.35993">
        <ele>215</ele>
        <time>2017-12-23T18:07:10Z</time>
      </trkpt>
      <trkpt lat="48.60538" lon="6.35973">
        <ele>215</ele>
        <time>2017-12-23T18:07:13Z</time>
      </trkpt>
      <trkpt lat="48.60537" lon="6.35953">
        <ele>215</ele>
        <time>2017-12-23T18:07:16Z</time>
      </trkpt>
      <trkpt lat="48.60536" lon="6.35939">
        <ele>215</ele>
        <time>2017-12-23T18:07:18Z</time>
      </trkpt>
      <trkpt lat="48.60535" lon="6.35931">
        <ele>215</ele>
        <time>2017-12-23T18:07:19Z</time>
      </trkpt>
      <trkpt lat="48.60533" lon="6.35916">
        <ele>215</ele>
        <time>2017-12-23T18:07:21Z</time>
      </trkpt>
      <trkpt lat="48.60532" lon="6.35908">
        <ele>215</ele>
        <time>2017-12-23T18:07:22Z</time>
      </trkpt>
      <trkpt lat="48.60531" lon="6.35901">
        <ele>215</ele>
        <time>2017-12-23T18:07:23Z</time>
      </trkpt>
      <trkpt lat="48.60526" lon="6.35871">
        <ele>215</ele>
        <time>2017-12-23T18:07:27Z</time>
      </trkpt>
      <trkpt lat="48.60514" lon="6.35817">
        <ele>216</ele>
        <time>2017-12-23T18:07:34Z</time>
      </trkpt>
      <trkpt lat="48.60514" lon="6.3581">
        <ele>216</ele>
        <time>2017-12-23T18:07:35Z</time>
      </trkpt>
      <trkpt lat="48.60514" lon="6.35802">
        <ele>216</ele>
        <time>2017-12-23T18:07:36Z</time>
      </trkpt>
      <trkpt lat="48.60514" lon="6.35794">
        <ele>216</ele>
        <time>2017-12-23T18:07:37Z</time>
      </trkpt>
      <trkpt lat="48.60516" lon="6.35786">
        <ele>216</ele>
        <time>2017-12-23T18:07:38Z</time>
      </trkpt>
      <trkpt lat="48.60517" lon="6.35779">
        <ele>216</ele>
        <time>2017-12-23T18:07:39Z</time>
      </trkpt>
      <trkpt lat="48.60519" lon="6.35772">
        <ele>216</ele>
        <time>2017-12-23T18:07:40Z</time>
      </trkpt>
      <trkpt lat="48.60522" lon="6.35765">
        <ele>216</ele>
        <time>2017-12-23T18:07:41Z</time>
      </trkpt>
      <trkpt lat="48.60524" lon="6.35758">
        <ele>216</ele>
        <time>2017-12-23T18:07:42Z</time>
      </trkpt>
      <trkpt lat="48.60527" lon="6.35752">
        <ele>216</ele>
        <time>2017-12-23T18:07:43Z</time>
      </trkpt>
      <trkpt lat="48.60546" lon="6.35717">
        <ele>216</ele>
        <time>2017-12-23T18:07:49Z</time>
      </trkpt>
      <trkpt lat="48.60549" lon="6.35714">
        <ele>216</ele>
        <time>2017-12-23T18:07:50Z</time>
      </trkpt>
      <trkpt lat="48.60554" lon="6.357">
        <ele>216</ele>
        <time>2017-12-23T18:07:54Z</time>
      </trkpt>
      <trkpt lat="48.60544" lon="6.35687">
        <ele>216</ele>
        <time>2017-12-23T18:07:58Z</time>
      </trkpt>
      <trkpt lat="48.60531" lon="6.3568">
        <ele>216</ele>
        <time>2017-12-23T18:08:01Z</time>
      </trkpt>
      <trkpt lat="48.6052" lon="6.35666">
        <ele>214</ele>
        <time>2017-12-23T18:08:04Z</time>
      </trkpt>
      <trkpt lat="48.60507" lon="6.35639">
        <ele>214</ele>
        <time>2017-12-23T18:08:08Z</time>
      </trkpt>
      <trkpt lat="48.60497" lon="6.35606">
        <ele>214</ele>
        <time>2017-12-23T18:08:12Z</time>
      </trkpt>
      <trkpt lat="48.60487" lon="6.35574">
        <ele>213</ele>
        <time>2017-12-23T18:08:16Z</time>
      </trkpt>
      <trkpt lat="48.6047" lon="6.35502">
        <ele>212</ele>
        <time>2017-12-23T18:08:25Z</time>
      </trkpt>
      <trkpt lat="48.60465" lon="6.35469">
        <ele>211</ele>
        <time>2017-12-23T18:08:29Z</time>
      </trkpt>
      <trkpt lat="48.60463" lon="6.35418">
        <ele>211</ele>
        <time>2017-12-23T18:08:35Z</time>
      </trkpt>
      <trkpt lat="48.60468" lon="6.35403">
        <ele>210</ele>
        <time>2017-12-23T18:08:37Z</time>
      </trkpt>
      <trkpt lat="48.60476" lon="6.35393">
        <ele>210</ele>
        <time>2017-12-23T18:08:39Z</time>
      </trkpt>
      <trkpt lat="48.60496" lon="6.3538">
        <ele>210</ele>
        <time>2017-12-23T18:08:43Z</time>
      </trkpt>
      <trkpt lat="48.60549" lon="6.35354">
        <ele>211</ele>
        <time>2017-12-23T18:08:53Z</time>
      </trkpt>
      <trkpt lat="48.60604" lon="6.35329">
        <ele>212</ele>
        <time>2017-12-23T18:09:03Z</time>
      </trkpt>
      <trkpt lat="48.60644" lon="6.35309">
        <ele>211</ele>
        <time>2017-12-23T18:09:10Z</time>
      </trkpt>
      <trkpt lat="48.60679" lon="6.3529">
        <ele>212</ele>
        <time>2017-12-23T18:09:16Z</time>
      </trkpt>
      <trkpt lat="48.60711" lon="6.35276">
        <ele>212</ele>
        <time>2017-12-23T18:09:22Z</time>
      </trkpt>
      <trkpt lat="48.60719" lon="6.35271">
        <ele>211</ele>
        <time>2017-12-23T18:09:24Z</time>
      </trkpt>
      <trkpt lat="48.60726" lon="6.35263">
        <ele>211</ele>
        <time>2017-12-23T18:09:26Z</time>
      </trkpt>
      <trkpt lat="48.60729" lon="6.35258">
        <ele>211</ele>
        <time>2017-12-23T18:09:27Z</time>
      </trkpt>
      <trkpt lat="48.60743" lon="6.35231">
        <ele>210</ele>
        <time>2017-12-23T18:09:35Z</time>
      </trkpt>
      <trkpt lat="48.60745" lon="6.35226">
        <ele>210</ele>
        <time>2017-12-23T18:10:33Z</time>
      </trkpt>
      <trkpt lat="48.60746" lon="6.35224">
        <ele>210</ele>
        <time>2017-12-23T18:10:34Z</time>
      </trkpt>
      <trkpt lat="48.60747" lon="6.3522">
        <ele>210</ele>
        <time>2017-12-23T18:10:35Z</time>
      </trkpt>
      <trkpt lat="48.60748" lon="6.35208">
        <ele>210</ele>
        <time>2017-12-23T18:10:37Z</time>
      </trkpt>
      <trkpt lat="48.60745" lon="6.352">
        <ele>210</ele>
        <time>2017-12-23T18:10:39Z</time>
      </trkpt>
      <trkpt lat="48.60703" lon="6.35145">
        <ele>209</ele>
        <time>2017-12-23T18:10:50Z</time>
      </trkpt>
      <trkpt lat="48.60671" lon="6.35104">
        <ele>209</ele>
        <time>2017-12-23T18:10:59Z</time>
      </trkpt>
      <trkpt lat="48.60647" lon="6.35075">
        <ele>208</ele>
        <time>2017-12-23T18:11:06Z</time>
      </trkpt>
      <trkpt lat="48.60619" lon="6.35041">
        <ele>208</ele>
        <time>2017-12-23T18:11:14Z</time>
      </trkpt>
      <trkpt lat="48.60609" lon="6.35027">
        <ele>208</ele>
        <time>2017-12-23T18:11:17Z</time>
      </trkpt>
      <trkpt lat="48.60593" lon="6.35004">
        <ele>207</ele>
        <time>2017-12-23T18:11:22Z</time>
      </trkpt>
      <trkpt lat="48.60574" lon="6.34978">
        <ele>208</ele>
        <time>2017-12-23T18:11:27Z</time>
      </trkpt>
      <trkpt lat="48.60562" lon="6.34962">
        <ele>208</ele>
        <time>2017-12-23T18:11:30Z</time>
      </trkpt>
      <trkpt lat="48.60559" lon="6.34956">
        <ele>208</ele>
        <time>2017-12-23T18:11:31Z</time>
      </trkpt>
      <trkpt lat="48.60555" lon="6.3495">
        <ele>208</ele>
        <time>2017-12-23T18:11:32Z</time>
      </trkpt>
      <trkpt lat="48.60551" lon="6.34944">
        <ele>208</ele>
        <time>2017-12-23T18:11:33Z</time>
      </trkpt>
      <trkpt lat="48.60546" lon="6.34938">
        <ele>208</ele>
        <time>2017-12-23T18:11:34Z</time>
      </trkpt>
      <trkpt lat="48.60533" lon="6.3492">
        <ele>208</ele>
        <time>2017-12-23T18:11:37Z</time>
      </trkpt>
      <trkpt lat="48.60525" lon="6.34907">
        <ele>210</ele>
        <time>2017-12-23T18:11:39Z</time>
      </trkpt>
      <trkpt lat="48.60516" lon="6.34894">
        <ele>210</ele>
        <time>2017-12-23T18:11:41Z</time>
      </trkpt>
      <trkpt lat="48.60504" lon="6.34874">
        <ele>211</ele>
        <time>2017-12-23T18:11:44Z</time>
      </trkpt>
      <trkpt lat="48.60484" lon="6.34841">
        <ele>210</ele>
        <time>2017-12-23T18:11:49Z</time>
      </trkpt>
      <trkpt lat="48.60469" lon="6.34813">
        <ele>211</ele>
        <time>2017-12-23T18:11:53Z</time>
      </trkpt>
      <trkpt lat="48.60458" lon="6.34795">
        <ele>211</ele>
        <time>2017-12-23T18:11:56Z</time>
      </trkpt>
      <trkpt lat="48.60455" lon="6.34791">
        <ele>211</ele>
        <time>2017-12-23T18:11:57Z</time>
      </trkpt>
      <trkpt lat="48.60453" lon="6.34784">
        <ele>211</ele>
        <time>2017-12-23T18:11:59Z</time>
      </trkpt>
      <trkpt lat="48.60455" lon="6.34778">
        <ele>211</ele>
        <time>2017-12-23T18:12:02Z</time>
      </trkpt>
      <trkpt lat="48.6044" lon="6.34757">
        <ele>210</ele>
        <time>2017-12-23T18:12:08Z</time>
      </trkpt>
      <trkpt lat="48.60418" lon="6.3472">
        <ele>212</ele>
        <time>2017-12-23T18:12:15Z</time>
      </trkpt>
      <trkpt lat="48.60413" lon="6.34707">
        <ele>208</ele>
        <time>2017-12-23T18:12:17Z</time>
      </trkpt>
      <trkpt lat="48.60391" lon="6.3467">
        <ele>209</ele>
        <time>2017-12-23T18:12:23Z</time>
      </trkpt>
      <trkpt lat="48.60376" lon="6.34645">
        <ele>211</ele>
        <time>2017-12-23T18:12:27Z</time>
      </trkpt>
      <trkpt lat="48.60362" lon="6.34619">
        <ele>211</ele>
        <time>2017-12-23T18:12:31Z</time>
      </trkpt>
      <trkpt lat="48.60355" lon="6.34606">
        <ele>210</ele>
        <time>2017-12-23T18:12:33Z</time>
      </trkpt>
      <trkpt lat="48.60347" lon="6.34593">
        <ele>210</ele>
        <time>2017-12-23T18:12:35Z</time>
      </trkpt>
      <trkpt lat="48.60343" lon="6.34586">
        <ele>209</ele>
        <time>2017-12-23T18:12:36Z</time>
      </trkpt>
      <trkpt lat="48.60336" lon="6.34573">
        <ele>211</ele>
        <time>2017-12-23T18:12:38Z</time>
      </trkpt>
      <trkpt lat="48.6031" lon="6.34527">
        <ele>210</ele>
        <time>2017-12-23T18:12:45Z</time>
      </trkpt>
      <trkpt lat="48.60272" lon="6.34459">
        <ele>212</ele>
        <time>2017-12-23T18:12:55Z</time>
      </trkpt>
      <trkpt lat="48.60257" lon="6.34432">
        <ele>211</ele>
        <time>2017-12-23T18:12:59Z</time>
      </trkpt>
      <trkpt lat="48.60246" lon="6.34413">
        <ele>209</ele>
        <time>2017-12-23T18:13:02Z</time>
      </trkpt>
      <trkpt lat="48.60239" lon="6.34399">
        <ele>208</ele>
        <time>2017-12-23T18:13:04Z</time>
      </trkpt>
      <trkpt lat="48.60224" lon="6.34374">
        <ele>208</ele>
        <time>2017-12-23T18:13:08Z</time>
      </trkpt>
      <trkpt lat="48.60205" lon="6.34339">
        <ele>207</ele>
        <time>2017-12-23T18:13:15Z</time>
      </trkpt>
      <trkpt lat="48.60195" lon="6.34324">
        <ele>207</ele>
        <time>2017-12-23T18:13:19Z</time>
      </trkpt>
      <trkpt lat="48.60192" lon="6.34319">
        <ele>207</ele>
        <time>2017-12-23T18:13:20Z</time>
      </trkpt>
      <trkpt lat="48.60189" lon="6.34314">
        <ele>207</ele>
        <time>2017-12-23T18:13:21Z</time>
      </trkpt>
      <trkpt lat="48.60186" lon="6.34308">
        <ele>206</ele>
        <time>2017-12-23T18:13:22Z</time>
      </trkpt>
      <trkpt lat="48.6018" lon="6.34297">
        <ele>206</ele>
        <time>2017-12-23T18:13:24Z</time>
      </trkpt>
      <trkpt lat="48.60164" lon="6.34268">
        <ele>205</ele>
        <time>2017-12-23T18:13:29Z</time>
      </trkpt>
      <trkpt lat="48.60143" lon="6.34231">
        <ele>206</ele>
        <time>2017-12-23T18:13:36Z</time>
      </trkpt>
      <trkpt lat="48.60134" lon="6.34216">
        <ele>206</ele>
        <time>2017-12-23T18:13:40Z</time>
      </trkpt>
      <trkpt lat="48.6013" lon="6.3421">
        <ele>206</ele>
        <time>2017-12-23T18:13:42Z</time>
      </trkpt>
      <trkpt lat="48.60094" lon="6.34142">
        <ele>207</ele>
        <time>2017-12-23T18:13:54Z</time>
      </trkpt>
      <trkpt lat="48.60074" lon="6.34106">
        <ele>208</ele>
        <time>2017-12-23T18:14:00Z</time>
      </trkpt>
      <trkpt lat="48.6006" lon="6.34084">
        <ele>208</ele>
        <time>2017-12-23T18:14:04Z</time>
      </trkpt>
      <trkpt lat="48.6005" lon="6.34065">
        <ele>208</ele>
        <time>2017-12-23T18:14:07Z</time>
      </trkpt>
      <trkpt lat="48.60046" lon="6.34058">
        <ele>208</ele>
        <time>2017-12-23T18:14:08Z</time>
      </trkpt>
      <trkpt lat="48.60035" lon="6.34031">
        <ele>208</ele>
        <time>2017-12-23T18:14:12Z</time>
      </trkpt>
      <trkpt lat="48.6001" lon="6.33991">
        <ele>209</ele>
        <time>2017-12-23T18:14:18Z</time>
      </trkpt>
      <trkpt lat="48.60002" lon="6.33974">
        <ele>208</ele>
        <time>2017-12-23T18:14:21Z</time>
      </trkpt>
      <trkpt lat="48.59991" lon="6.33947">
        <ele>207</ele>
        <time>2017-12-23T18:14:26Z</time>
      </trkpt>
      <trkpt lat="48.59986" lon="6.33935">
        <ele>207</ele>
        <time>2017-12-23T18:14:28Z</time>
      </trkpt>
      <trkpt lat="48.59964" lon="6.33873">
        <ele>207</ele>
        <time>2017-12-23T18:14:37Z</time>
      </trkpt>
      <trkpt lat="48.59961" lon="6.33859">
        <ele>207</ele>
        <time>2017-12-23T18:14:39Z</time>
      </trkpt>
      <trkpt lat="48.59958" lon="6.33844">
        <ele>207</ele>
        <time>2017-12-23T18:14:41Z</time>
      </trkpt>
      <trkpt lat="48.59952" lon="6.33814">
        <ele>207</ele>
        <time>2017-12-23T18:14:45Z</time>
      </trkpt>
      <trkpt lat="48.59949" lon="6.33777">
        <ele>206</ele>
        <time>2017-12-23T18:14:52Z</time>
      </trkpt>
      <trkpt lat="48.59945" lon="6.33771">
        <ele>206</ele>
        <time>2017-12-23T18:14:54Z</time>
      </trkpt>
      <trkpt lat="48.59936" lon="6.3374">
        <ele>206</ele>
        <time>2017-12-23T18:15:00Z</time>
      </trkpt>
      <trkpt lat="48.59929" lon="6.33721">
        <ele>206</ele>
        <time>2017-12-23T18:15:03Z</time>
      </trkpt>
      <trkpt lat="48.59906" lon="6.33682">
        <ele>206</ele>
        <time>2017-12-23T18:15:10Z</time>
      </trkpt>
      <trkpt lat="48.5989" lon="6.33654">
        <ele>207</ele>
        <time>2017-12-23T18:15:15Z</time>
      </trkpt>
      <trkpt lat="48.5989" lon="6.33639">
        <ele>207</ele>
        <time>2017-12-23T18:15:17Z</time>
      </trkpt>
      <trkpt lat="48.59892" lon="6.33632">
        <ele>207</ele>
        <time>2017-12-23T18:15:18Z</time>
      </trkpt>
      <trkpt lat="48.59895" lon="6.33618">
        <ele>207</ele>
        <time>2017-12-23T18:15:20Z</time>
      </trkpt>
      <trkpt lat="48.59897" lon="6.33569">
        <ele>207</ele>
        <time>2017-12-23T18:15:27Z</time>
      </trkpt>
      <trkpt lat="48.59895" lon="6.33557">
        <ele>207</ele>
        <time>2017-12-23T18:15:29Z</time>
      </trkpt>
      <trkpt lat="48.59884" lon="6.33543">
        <ele>207</ele>
        <time>2017-12-23T18:15:32Z</time>
      </trkpt>
      <trkpt lat="48.59876" lon="6.33536">
        <ele>208</ele>
        <time>2017-12-23T18:15:34Z</time>
      </trkpt>
      <trkpt lat="48.59849" lon="6.33508">
        <ele>208</ele>
        <time>2017-12-23T18:15:41Z</time>
      </trkpt>
      <trkpt lat="48.5983" lon="6.33487">
        <ele>208</ele>
        <time>2017-12-23T18:15:46Z</time>
      </trkpt>
      <trkpt lat="48.59812" lon="6.33465">
        <ele>208</ele>
        <time>2017-12-23T18:15:51Z</time>
      </trkpt>
      <trkpt lat="48.59807" lon="6.33451">
        <ele>208</ele>
        <time>2017-12-23T18:15:53Z</time>
      </trkpt>
      <trkpt lat="48.59805" lon="6.33437">
        <ele>208</ele>
        <time>2017-12-23T18:15:55Z</time>
      </trkpt>
      <trkpt lat="48.59805" lon="6.33422">
        <ele>208</ele>
        <time>2017-12-23T18:15:57Z</time>
      </trkpt>
      <trkpt lat="48.59806" lon="6.33408">
        <ele>207</ele>
        <time>2017-12-23T18:15:59Z</time>
      </trkpt>
      <trkpt lat="48.5981" lon="6.33372">
        <ele>207</ele>
        <time>2017-12-23T18:16:04Z</time>
      </trkpt>
      <trkpt lat="48.59814" lon="6.33343">
        <ele>207</ele>
        <time>2017-12-23T18:16:08Z</time>
      </trkpt>
      <trkpt lat="48.59814" lon="6.33329">
        <ele>206</ele>
        <time>2017-12-23T18:16:10Z</time>
      </trkpt>
      <trkpt lat="48.59813" lon="6.33296">
        <ele>207</ele>
        <time>2017-12-23T18:16:16Z</time>
      </trkpt>
      <trkpt lat="48.59808" lon="6.33277">
        <ele>207</ele>
        <time>2017-12-23T18:16:44Z</time>
      </trkpt>
      <trkpt lat="48.59784" lon="6.33201">
        <ele>207</ele>
        <time>2017-12-23T18:16:59Z</time>
      </trkpt>
      <trkpt lat="48.59782" lon="6.33143">
        <ele>206</ele>
        <time>2017-12-23T18:17:08Z</time>
      </trkpt>
      <trkpt lat="48.5978" lon="6.33117">
        <ele>205</ele>
        <time>2017-12-23T18:17:12Z</time>
      </trkpt>
      <trkpt lat="48.59774" lon="6.33076">
        <ele>206</ele>
        <time>2017-12-23T18:17:19Z</time>
      </trkpt>
      <trkpt lat="48.59752" lon="6.33044">
        <ele>207</ele>
        <time>2017-12-23T18:17:30Z</time>
      </trkpt>
      <trkpt lat="48.59754" lon="6.33038">
        <ele>207</ele>
        <time>2017-12-23T18:17:32Z</time>
      </trkpt>
      <trkpt lat="48.59794" lon="6.33014">
        <ele>207</ele>
        <time>2017-12-23T18:17:44Z</time>
      </trkpt>
      <trkpt lat="48.59797" lon="6.33012">
        <ele>207</ele>
        <time>2017-12-23T18:17:45Z</time>
      </trkpt>
      <trkpt lat="48.59809" lon="6.33008">
        <ele>208</ele>
        <time>2017-12-23T18:17:49Z</time>
      </trkpt>
      <trkpt lat="48.59813" lon="6.33003">
        <ele>208</ele>
        <time>2017-12-23T18:17:51Z</time>
      </trkpt>
      <trkpt lat="48.59812" lon="6.32997">
        <ele>212</ele>
        <time>2017-12-23T18:17:53Z</time>
      </trkpt>
      <trkpt lat="48.59812" lon="6.32993">
        <ele>212</ele>
        <time>2017-12-23T18:17:56Z</time>
      </trkpt>
      <trkpt lat="48.59806" lon="6.32985">
        <ele>213</ele>
        <time>2017-12-23T18:18:22Z</time>
      </trkpt>
      <trkpt lat="48.59806" lon="6.32985">
        <ele>213</ele>
        <time>2017-12-23T18:18:23Z</time>
      </trkpt>
      <trkpt lat="48.59807" lon="6.32983">
        <ele>213</ele>
        <time>2017-12-23T18:18:26Z</time>
      </trkpt>
      <trkpt lat="48.59806" lon="6.32979">
        <ele>213</ele>
        <time>2017-12-23T18:18:28Z</time>
      </trkpt>
      <trkpt lat="48.59806" lon="6.32969">
        <ele>214</ele>
        <time>2017-12-23T18:18:32Z</time>
      </trkpt>
      <trkpt lat="48.59807" lon="6.32964">
        <ele>214</ele>
        <time>2017-12-23T18:18:35Z</time>
      </trkpt>
      <trkpt lat="48.59807" lon="6.32961">
        <ele>214</ele>
        <time>2017-12-23T18:18:37Z</time>
      </trkpt>
      <trkpt lat="48.59806" lon="6.32957">
        <ele>215</ele>
        <time>2017-12-23T18:18:39Z</time>
      </trkpt>
      <trkpt lat="48.59805" lon="6.32951">
        <ele>215</ele>
        <time>2017-12-23T18:18:42Z</time>
      </trkpt>
      <trkpt lat="48.59805" lon="6.32948">
        <ele>215</ele>
        <time>2017-12-23T18:18:44Z</time>
      </trkpt>
      <trkpt lat="48.59804" lon="6.32944">
        <ele>215</ele>
        <time>2017-12-23T18:18:46Z</time>
      </trkpt>
      <trkpt lat="48.59803" lon="6.32927">
        <ele>216</ele>
        <time>2017-12-23T18:18:52Z</time>
      </trkpt>
      <trkpt lat="48.59803" lon="6.32921">
        <ele>216</ele>
        <time>2017-12-23T18:18:54Z</time>
      </trkpt>
      <trkpt lat="48.59802" lon="6.32915">
        <ele>224</ele>
        <time>2017-12-23T18:18:56Z</time>
      </trkpt>
      <trkpt lat="48.59801" lon="6.32914">
        <ele>224</ele>
        <time>2017-12-23T18:18:57Z</time>
      </trkpt>
      <trkpt lat="48.598" lon="6.32913">
        <ele>224</ele>
        <time>2017-12-23T18:18:58Z</time>
      </trkpt>
      <trkpt lat="48.59796" lon="6.32911">
        <ele>224</ele>
        <time>2017-12-23T18:19:01Z</time>
      </trkpt>
      <trkpt lat="48.59805" lon="6.32906">
        <ele>224</ele>
        <time>2017-12-23T18:19:07Z</time>
      </trkpt>
      <trkpt lat="48.59814" lon="6.32905">
        <ele>224</ele>
        <time>2017-12-23T18:19:10Z</time>
      </trkpt>
      <trkpt lat="48.59817" lon="6.32904">
        <ele>223</ele>
        <time>2017-12-23T18:19:11Z</time>
      </trkpt>
      <trkpt lat="48.59821" lon="6.32904">
        <ele>223</ele>
        <time>2017-12-23T18:19:12Z</time>
      </trkpt>
      <trkpt lat="48.59825" lon="6.32904">
        <ele>223</ele>
        <time>2017-12-23T18:19:13Z</time>
      </trkpt>
      <trkpt lat="48.5984" lon="6.32904">
        <ele>222</ele>
        <time>2017-12-23T18:19:17Z</time>
      </trkpt>
      <trkpt lat="48.59844" lon="6.32904">
        <ele>222</ele>
        <time>2017-12-23T18:19:18Z</time>
      </trkpt>
      <trkpt lat="48.59862" lon="6.329">
        <ele>223</ele>
        <time>2017-12-23T18:19:22Z</time>
      </trkpt>
      <trkpt lat="48.59871" lon="6.32899">
        <ele>223</ele>
        <time>2017-12-23T18:19:24Z</time>
      </trkpt>
      <trkpt lat="48.59897" lon="6.32897">
        <ele>222</ele>
        <time>2017-12-23T18:19:30Z</time>
      </trkpt>
      <trkpt lat="48.59926" lon="6.32891">
        <ele>220</ele>
        <time>2017-12-23T18:19:39Z</time>
      </trkpt>
      <trkpt lat="48.59933" lon="6.32889">
        <ele>221</ele>
        <time>2017-12-23T18:19:41Z</time>
      </trkpt>
      <trkpt lat="48.59945" lon="6.32883">
        <ele>221</ele>
        <time>2017-12-23T18:19:45Z</time>
      </trkpt>
      <trkpt lat="48.59952" lon="6.32877">
        <ele>222</ele>
        <time>2017-12-23T18:19:48Z</time>
      </trkpt>
      <trkpt lat="48.59976" lon="6.32854">
        <ele>223</ele>
        <time>2017-12-23T18:19:56Z</time>
      </trkpt>
      <trkpt lat="48.59983" lon="6.32847">
        <ele>224</ele>
        <time>2017-12-23T18:19:58Z</time>
      </trkpt>
      <trkpt lat="48.60003" lon="6.32821">
        <ele>228</ele>
        <time>2017-12-23T18:20:05Z</time>
      </trkpt>
      <trkpt lat="48.60019" lon="6.32804">
        <ele>229</ele>
        <time>2017-12-23T18:20:10Z</time>
      </trkpt>
      <trkpt lat="48.60029" lon="6.32793">
        <ele>230</ele>
        <time>2017-12-23T18:20:14Z</time>
      </trkpt>
      <trkpt lat="48.60035" lon="6.32783">
        <ele>230</ele>
        <time>2017-12-23T18:20:17Z</time>
      </trkpt>
      <trkpt lat="48.60039" lon="6.32778">
        <ele>231</ele>
        <time>2017-12-23T18:20:19Z</time>
      </trkpt>
      <trkpt lat="48.60047" lon="6.32767">
        <ele>231</ele>
        <time>2017-12-23T18:20:23Z</time>
      </trkpt>
      <trkpt lat="48.60053" lon="6.32759">
        <ele>230</ele>
        <time>2017-12-23T18:20:26Z</time>
      </trkpt>
      <trkpt lat="48.60053" lon="6.32757">
        <ele>230</ele>
        <time>2017-12-23T18:20:27Z</time>
      </trkpt>
      <trkpt lat="48.60057" lon="6.32748">
        <ele>237</ele>
        <time>2017-12-23T18:20:30Z</time>
      </trkpt>
      <trkpt lat="48.60061" lon="6.32738">
        <ele>237</ele>
        <time>2017-12-23T18:20:33Z</time>
      </trkpt>
      <trkpt lat="48.60064" lon="6.32733">
        <ele>237</ele>
        <time>2017-12-23T18:20:35Z</time>
      </trkpt>
      <trkpt lat="48.60068" lon="6.32717">
        <ele>238</ele>
        <time>2017-12-23T18:20:40Z</time>
      </trkpt>
      <trkpt lat="48.60074" lon="6.32711">
        <ele>238</ele>
        <time>2017-12-23T18:20:43Z</time>
      </trkpt>
      <trkpt lat="48.60075" lon="6.32711">
        <ele>238</ele>
        <time>2017-12-23T18:20:44Z</time>
      </trkpt>
      <trkpt lat="48.60078" lon="6.32707">
        <ele>238</ele>
        <time>2017-12-23T18:21:12Z</time>
      </trkpt>
      <trkpt lat="48.60078" lon="6.32706">
        <ele>238</ele>
        <time>2017-12-23T18:21:13Z</time>
      </trkpt>
      <trkpt lat="48.60079" lon="6.32705">
        <ele>238</ele>
        <time>2017-12-23T18:21:14Z</time>
      </trkpt>
      <trkpt lat="48.60079" lon="6.327">
        <ele>238</ele>
        <time>2017-12-23T18:21:16Z</time>
      </trkpt>
      <trkpt lat="48.60077" lon="6.32679">
        <ele>237</ele>
        <time>2017-12-23T18:21:21Z</time>
      </trkpt>
      <trkpt lat="48.60075" lon="6.32673">
        <ele>237</ele>
        <time>2017-12-23T18:21:22Z</time>
      </trkpt>
      <trkpt lat="48.60072" lon="6.32641">
        <ele>239</ele>
        <time>2017-12-23T18:21:28Z</time>
      </trkpt>
      <trkpt lat="48.6007" lon="6.32615">
        <ele>239</ele>
        <time>2017-12-23T18:21:33Z</time>
      </trkpt>
      <trkpt lat="48.60064" lon="6.32551">
        <ele>238</ele>
        <time>2017-12-23T18:21:42Z</time>
      </trkpt>
      <trkpt lat="48.60069" lon="6.32523">
        <ele>238</ele>
        <time>2017-12-23T18:21:46Z</time>
      </trkpt>
      <trkpt lat="48.60079" lon="6.32489">
        <ele>238</ele>
        <time>2017-12-23T18:21:52Z</time>
      </trkpt>
      <trkpt lat="48.60082" lon="6.32471">
        <ele>240</ele>
        <time>2017-12-23T18:21:55Z</time>
      </trkpt>
      <trkpt lat="48.60084" lon="6.32447">
        <ele>241</ele>
        <time>2017-12-23T18:21:59Z</time>
      </trkpt>
      <trkpt lat="48.60085" lon="6.32432">
        <ele>242</ele>
        <time>2017-12-23T18:22:02Z</time>
      </trkpt>
      <trkpt lat="48.60085" lon="6.3241">
        <ele>245</ele>
        <time>2017-12-23T18:22:06Z</time>
      </trkpt>
      <trkpt lat="48.60085" lon="6.32387">
        <ele>248</ele>
        <time>2017-12-23T18:22:11Z</time>
      </trkpt>
      <trkpt lat="48.60086" lon="6.32374">
        <ele>249</ele>
        <time>2017-12-23T18:22:14Z</time>
      </trkpt>
      <trkpt lat="48.60091" lon="6.32356">
        <ele>251</ele>
        <time>2017-12-23T18:22:19Z</time>
      </trkpt>
      <trkpt lat="48.60094" lon="6.32345">
        <ele>251</ele>
        <time>2017-12-23T18:22:22Z</time>
      </trkpt>
      <trkpt lat="48.60098" lon="6.32336">
        <ele>252</ele>
        <time>2017-12-23T18:22:25Z</time>
      </trkpt>
      <trkpt lat="48.60102" lon="6.32325">
        <ele>256</ele>
        <time>2017-12-23T18:22:29Z</time>
      </trkpt>
      <trkpt lat="48.60105" lon="6.32316">
        <ele>256</ele>
        <time>2017-12-23T18:22:32Z</time>
      </trkpt>
      <trkpt lat="48.6011" lon="6.32301">
        <ele>257</ele>
        <time>2017-12-23T18:22:37Z</time>
      </trkpt>
      <trkpt lat="48.60113" lon="6.3229">
        <ele>258</ele>
        <time>2017-12-23T18:22:41Z</time>
      </trkpt>
      <trkpt lat="48.60115" lon="6.32282">
        <ele>258</ele>
        <time>2017-12-23T18:22:44Z</time>
      </trkpt>
      <trkpt lat="48.60119" lon="6.32259">
        <ele>259</ele>
        <time>2017-12-23T18:22:53Z</time>
      </trkpt>
      <trkpt lat="48.60122" lon="6.3225">
        <ele>259</ele>
        <time>2017-12-23T18:22:56Z</time>
      </trkpt>
      <trkpt lat="48.60125" lon="6.32238">
        <ele>263</ele>
        <time>2017-12-23T18:23:00Z</time>
      </trkpt>
      <trkpt lat="48.60128" lon="6.32232">
        <ele>264</ele>
        <time>2017-12-23T18:23:02Z</time>
      </trkpt>
      <trkpt lat="48.6013" lon="6.32225">
        <ele>264</ele>
        <time>2017-12-23T18:23:05Z</time>
      </trkpt>
      <trkpt lat="48.6013" lon="6.32222">
        <ele>264</ele>
        <time>2017-12-23T18:23:06Z</time>
      </trkpt>
      <trkpt lat="48.6013" lon="6.3222">
        <ele>264</ele>
        <time>2017-12-23T18:23:07Z</time>
      </trkpt>
      <trkpt lat="48.60133" lon="6.32213">
        <ele>264</ele>
        <time>2017-12-23T18:23:10Z</time>
      </trkpt>
      <trkpt lat="48.60135" lon="6.32209">
        <ele>264</ele>
        <time>2017-12-23T18:23:12Z</time>
      </trkpt>
      <trkpt lat="48.60137" lon="6.32205">
        <ele>264</ele>
        <time>2017-12-23T18:23:14Z</time>
      </trkpt>
      <trkpt lat="48.6014" lon="6.32196">
        <ele>265</ele>
        <time>2017-12-23T18:23:18Z</time>
      </trkpt>
      <trkpt lat="48.60145" lon="6.32187">
        <ele>265</ele>
        <time>2017-12-23T18:23:23Z</time>
      </trkpt>
      <trkpt lat="48.6015" lon="6.3218">
        <ele>265</ele>
        <time>2017-12-23T18:23:26Z</time>
      </trkpt>
      <trkpt lat="48.60151" lon="6.32177">
        <ele>265</ele>
        <time>2017-12-23T18:23:27Z</time>
      </trkpt>
      <trkpt lat="48.60153" lon="6.32173">
        <ele>265</ele>
        <time>2017-12-23T18:23:28Z</time>
      </trkpt>
      <trkpt lat="48.6016" lon="6.3216">
        <ele>268</ele>
        <time>2017-12-23T18:23:33Z</time>
      </trkpt>
      <trkpt lat="48.60164" lon="6.32151">
        <ele>269</ele>
        <time>2017-12-23T18:23:36Z</time>
      </trkpt>
      <trkpt lat="48.6017" lon="6.32137">
        <ele>270</ele>
        <time>2017-12-23T18:23:42Z</time>
      </trkpt>
      <trkpt lat="48.60179" lon="6.32123">
        <ele>272</ele>
        <time>2017-12-23T18:23:49Z</time>
      </trkpt>
      <trkpt lat="48.60185" lon="6.32108">
        <ele>273</ele>
        <time>2017-12-23T18:23:56Z</time>
      </trkpt>
      <trkpt lat="48.60188" lon="6.32097">
        <ele>273</ele>
        <time>2017-12-23T18:24:00Z</time>
      </trkpt>
      <trkpt lat="48.6019" lon="6.32087">
        <ele>273</ele>
        <time>2017-12-23T18:24:04Z</time>
      </trkpt>
      <trkpt lat="48.6019" lon="6.32084">
        <ele>273</ele>
        <time>2017-12-23T18:24:05Z</time>
      </trkpt>
      <trkpt lat="48.6019" lon="6.32076">
        <ele>277</ele>
        <time>2017-12-23T18:24:07Z</time>
      </trkpt>
      <trkpt lat="48.60189" lon="6.3207">
        <ele>277</ele>
        <time>2017-12-23T18:24:09Z</time>
      </trkpt>
      <trkpt lat="48.60189" lon="6.32053">
        <ele>278</ele>
        <time>2017-12-23T18:24:14Z</time>
      </trkpt>
      <trkpt lat="48.60189" lon="6.32044">
        <ele>279</ele>
        <time>2017-12-23T18:24:17Z</time>
      </trkpt>
      <trkpt lat="48.60188" lon="6.3203">
        <ele>279</ele>
        <time>2017-12-23T18:24:21Z</time>
      </trkpt>
      <trkpt lat="48.60187" lon="6.32012">
        <ele>280</ele>
        <time>2017-12-23T18:24:26Z</time>
      </trkpt>
      <trkpt lat="48.60186" lon="6.32002">
        <ele>280</ele>
        <time>2017-12-23T18:24:29Z</time>
      </trkpt>
      <trkpt lat="48.60185" lon="6.31997">
        <ele>283</ele>
        <time>2017-12-23T18:24:31Z</time>
      </trkpt>
      <trkpt lat="48.60185" lon="6.31991">
        <ele>283</ele>
        <time>2017-12-23T18:24:33Z</time>
      </trkpt>
      <trkpt lat="48.60185" lon="6.31977">
        <ele>284</ele>
        <time>2017-12-23T18:24:37Z</time>
      </trkpt>
      <trkpt lat="48.60186" lon="6.31954">
        <ele>285</ele>
        <time>2017-12-23T18:24:44Z</time>
      </trkpt>
      <trkpt lat="48.60186" lon="6.31938">
        <ele>286</ele>
        <time>2017-12-23T18:24:49Z</time>
      </trkpt>
      <trkpt lat="48.60186" lon="6.31933">
        <ele>286</ele>
        <time>2017-12-23T18:24:51Z</time>
      </trkpt>
      <trkpt lat="48.60185" lon="6.31913">
        <ele>289</ele>
        <time>2017-12-23T18:24:57Z</time>
      </trkpt>
      <trkpt lat="48.60185" lon="6.31902">
        <ele>290</ele>
        <time>2017-12-23T18:25:01Z</time>
      </trkpt>
      <trkpt lat="48.60185" lon="6.31897">
        <ele>290</ele>
        <time>2017-12-23T18:25:03Z</time>
      </trkpt>
      <trkpt lat="48.60182" lon="6.3189">
        <ele>290</ele>
        <time>2017-12-23T18:25:06Z</time>
      </trkpt>
      <trkpt lat="48.6018" lon="6.31883">
        <ele>291</ele>
        <time>2017-12-23T18:25:09Z</time>
      </trkpt>
      <trkpt lat="48.60178" lon="6.31881">
        <ele>291</ele>
        <time>2017-12-23T18:25:11Z</time>
      </trkpt>
      <trkpt lat="48.60165" lon="6.31893">
        <ele>288</ele>
        <time>2017-12-23T18:25:18Z</time>
      </trkpt>
      <trkpt lat="48.60151" lon="6.31918">
        <ele>285</ele>
        <time>2017-12-23T18:25:24Z</time>
      </trkpt>
      <trkpt lat="48.60141" lon="6.31933">
        <ele>284</ele>
        <time>2017-12-23T18:25:27Z</time>
      </trkpt>
      <trkpt lat="48.60136" lon="6.3194">
        <ele>284</ele>
        <time>2017-12-23T18:25:28Z</time>
      </trkpt>
      <trkpt lat="48.60131" lon="6.31946">
        <ele>283</ele>
        <time>2017-12-23T18:25:29Z</time>
      </trkpt>
      <trkpt lat="48.60126" lon="6.31952">
        <ele>283</ele>
        <time>2017-12-23T18:25:30Z</time>
      </trkpt>
      <trkpt lat="48.6012" lon="6.31957">
        <ele>283</ele>
        <time>2017-12-23T18:25:31Z</time>
      </trkpt>
      <trkpt lat="48.60115" lon="6.31963">
        <ele>283</ele>
        <time>2017-12-23T18:25:32Z</time>
      </trkpt>
      <trkpt lat="48.60109" lon="6.3197">
        <ele>283</ele>
        <time>2017-12-23T18:25:33Z</time>
      </trkpt>
      <trkpt lat="48.60103" lon="6.31977">
        <ele>282</ele>
        <time>2017-12-23T18:25:34Z</time>
      </trkpt>
      <trkpt lat="48.60092" lon="6.31991">
        <ele>281</ele>
        <time>2017-12-23T18:25:36Z</time>
      </trkpt>
      <trkpt lat="48.60076" lon="6.32012">
        <ele>278</ele>
        <time>2017-12-23T18:25:39Z</time>
      </trkpt>
      <trkpt lat="48.60042" lon="6.32047">
        <ele>276</ele>
        <time>2017-12-23T18:25:45Z</time>
      </trkpt>
      <trkpt lat="48.60032" lon="6.32052">
        <ele>276</ele>
        <time>2017-12-23T18:25:47Z</time>
      </trkpt>
      <trkpt lat="48.60023" lon="6.32057">
        <ele>276</ele>
        <time>2017-12-23T18:25:49Z</time>
      </trkpt>
      <trkpt lat="48.60007" lon="6.32067">
        <ele>275</ele>
        <time>2017-12-23T18:25:53Z</time>
      </trkpt>
      <trkpt lat="48.59984" lon="6.32077">
        <ele>275</ele>
        <time>2017-12-23T18:25:58Z</time>
      </trkpt>
      <trkpt lat="48.59967" lon="6.32086">
        <ele>273</ele>
        <time>2017-12-23T18:26:02Z</time>
      </trkpt>
      <trkpt lat="48.59959" lon="6.3209">
        <ele>273</ele>
        <time>2017-12-23T18:26:04Z</time>
      </trkpt>
      <trkpt lat="48.59926" lon="6.32099">
        <ele>273</ele>
        <time>2017-12-23T18:26:12Z</time>
      </trkpt>
      <trkpt lat="48.59921" lon="6.32089">
        <ele>274</ele>
        <time>2017-12-23T18:26:14Z</time>
      </trkpt>
      <trkpt lat="48.59921" lon="6.32082">
        <ele>274</ele>
        <time>2017-12-23T18:26:15Z</time>
      </trkpt>
      <trkpt lat="48.59919" lon="6.32062">
        <ele>275</ele>
        <time>2017-12-23T18:26:18Z</time>
      </trkpt>
      <trkpt lat="48.59919" lon="6.32055">
        <ele>275</ele>
        <time>2017-12-23T18:26:19Z</time>
      </trkpt>
      <trkpt lat="48.59906" lon="6.31972">
        <ele>277</ele>
        <time>2017-12-23T18:26:32Z</time>
      </trkpt>
      <trkpt lat="48.59903" lon="6.31959">
        <ele>277</ele>
        <time>2017-12-23T18:26:34Z</time>
      </trkpt>
      <trkpt lat="48.59892" lon="6.31887">
        <ele>277</ele>
        <time>2017-12-23T18:26:45Z</time>
      </trkpt>
      <trkpt lat="48.59885" lon="6.31855">
        <ele>277</ele>
        <time>2017-12-23T18:26:50Z</time>
      </trkpt>
      <trkpt lat="48.59878" lon="6.31796">
        <ele>278</ele>
        <time>2017-12-23T18:27:00Z</time>
      </trkpt>
      <trkpt lat="48.59878" lon="6.31789">
        <ele>278</ele>
        <time>2017-12-23T18:27:02Z</time>
      </trkpt>
      <trkpt lat="48.59878" lon="6.31786">
        <ele>278</ele>
        <time>2017-12-23T18:27:03Z</time>
      </trkpt>
      <trkpt lat="48.59872" lon="6.31728">
        <ele>279</ele>
        <time>2017-12-23T18:27:15Z</time>
      </trkpt>
      <trkpt lat="48.59872" lon="6.31716">
        <ele>279</ele>
        <time>2017-12-23T18:27:17Z</time>
      </trkpt>
      <trkpt lat="48.59871" lon="6.31704">
        <ele>279</ele>
        <time>2017-12-23T18:27:19Z</time>
      </trkpt>
      <trkpt lat="48.59868" lon="6.31681">
        <ele>279</ele>
        <time>2017-12-23T18:27:23Z</time>
      </trkpt>
      <trkpt lat="48.59864" lon="6.31668">
        <ele>279</ele>
      </trkpt>
      <trkpt lat="48.59753" lon="6.31696">
        <ele>272</ele>
      </trkpt>
      <trkpt lat="48.59764" lon="6.31667">
        <ele>271</ele>
      </trkpt>
      <trkpt lat="48.59753" lon="6.31695">
        <ele>272</ele>
      </trkpt>
      <trkpt lat="48.59767" lon="6.31715">
        <ele>272</ele>
      </trkpt>
      <trkpt lat="48.59753" lon="6.31696">
        <ele>272</ele>
      </trkpt>
      <trkpt lat="48.5982" lon="6.31678">
        <ele>275</ele>
      </trkpt>
      <trkpt lat="48.59862" lon="6.31669">
        <ele>279</ele>
      </trkpt>
      <trkpt lat="48.59862" lon="6.31623">
        <ele>279</ele>
      </trkpt>
      <trkpt lat="48.59867" lon="6.31577">
        <ele>277</ele>
        <time>2017-12-23T18:27:42Z</time>
      </trkpt>
      <trkpt lat="48.59871" lon="6.31548">
        <ele>277</ele>
        <time>2017-12-23T18:27:46Z</time>
      </trkpt>
      <trkpt lat="48.59872" lon="6.3154">
        <ele>277</ele>
        <time>2017-12-23T18:27:47Z</time>
      </trkpt>
      <trkpt lat="48.59878" lon="6.31487">
        <ele>276</ele>
        <time>2017-12-23T18:27:54Z</time>
      </trkpt>
      <trkpt lat="48.59886" lon="6.31415">
        <ele>276</ele>
        <time>2017-12-23T18:28:04Z</time>
      </trkpt>
      <trkpt lat="48.59887" lon="6.31409">
        <ele>276</ele>
        <time>2017-12-23T18:28:05Z</time>
      </trkpt>
      <trkpt lat="48.5989" lon="6.31385">
        <ele>275</ele>
        <time>2017-12-23T18:28:09Z</time>
      </trkpt>
      <trkpt lat="48.59892" lon="6.31372">
        <ele>275</ele>
        <time>2017-12-23T18:28:11Z</time>
      </trkpt>
      <trkpt lat="48.59916" lon="6.31298">
        <ele>273</ele>
        <time>2017-12-23T18:28:22Z</time>
      </trkpt>
      <trkpt lat="48.59927" lon="6.31264">
        <ele>275</ele>
        <time>2017-12-23T18:28:27Z</time>
      </trkpt>
      <trkpt lat="48.59951" lon="6.31188">
        <ele>272</ele>
        <time>2017-12-23T18:28:39Z</time>
      </trkpt>
      <trkpt lat="48.59977" lon="6.31114">
        <ele>269</ele>
        <time>2017-12-23T18:28:48Z</time>
      </trkpt>
      <trkpt lat="48.5998" lon="6.31104">
        <ele>268</ele>
        <time>2017-12-23T18:28:49Z</time>
      </trkpt>
      <trkpt lat="48.59982" lon="6.31093">
        <ele>268</ele>
        <time>2017-12-23T18:28:50Z</time>
      </trkpt>
      <trkpt lat="48.59984" lon="6.31082">
        <ele>266</ele>
        <time>2017-12-23T18:28:51Z</time>
      </trkpt>
      <trkpt lat="48.59986" lon="6.31071">
        <ele>266</ele>
        <time>2017-12-23T18:28:52Z</time>
      </trkpt>
      <trkpt lat="48.59988" lon="6.3106">
        <ele>265</ele>
        <time>2017-12-23T18:28:53Z</time>
      </trkpt>
      <trkpt lat="48.5999" lon="6.3105">
        <ele>265</ele>
        <time>2017-12-23T18:28:54Z</time>
      </trkpt>
      <trkpt lat="48.59993" lon="6.31028">
        <ele>264</ele>
        <time>2017-12-23T18:28:56Z</time>
      </trkpt>
      <trkpt lat="48.59996" lon="6.31005">
        <ele>262</ele>
        <time>2017-12-23T18:28:58Z</time>
      </trkpt>
      <trkpt lat="48.6" lon="6.30971">
        <ele>260</ele>
        <time>2017-12-23T18:29:01Z</time>
      </trkpt>
      <trkpt lat="48.60001" lon="6.3096">
        <ele>259</ele>
        <time>2017-12-23T18:29:02Z</time>
      </trkpt>
      <trkpt lat="48.60003" lon="6.30939">
        <ele>258</ele>
        <time>2017-12-23T18:29:04Z</time>
      </trkpt>
      <trkpt lat="48.60007" lon="6.30908">
        <ele>256</ele>
        <time>2017-12-23T18:29:07Z</time>
      </trkpt>
      <trkpt lat="48.60011" lon="6.30876">
        <ele>255</ele>
        <time>2017-12-23T18:29:10Z</time>
      </trkpt>
      <trkpt lat="48.60015" lon="6.3084">
        <ele>253</ele>
        <time>2017-12-23T18:29:13Z</time>
      </trkpt>
      <trkpt lat="48.60016" lon="6.30828">
        <ele>251</ele>
        <time>2017-12-23T18:29:14Z</time>
      </trkpt>
      <trkpt lat="48.60017" lon="6.30815">
        <ele>250</ele>
        <time>2017-12-23T18:29:15Z</time>
      </trkpt>
      <trkpt lat="48.60018" lon="6.30802">
        <ele>250</ele>
        <time>2017-12-23T18:29:16Z</time>
      </trkpt>
      <trkpt lat="48.60019" lon="6.30788">
        <ele>249</ele>
        <time>2017-12-23T18:29:17Z</time>
      </trkpt>
      <trkpt lat="48.6002" lon="6.30775">
        <ele>249</ele>
        <time>2017-12-23T18:29:18Z</time>
      </trkpt>
      <trkpt lat="48.60021" lon="6.30736">
        <ele>246</ele>
        <time>2017-12-23T18:29:21Z</time>
      </trkpt>
      <trkpt lat="48.60022" lon="6.30701">
        <ele>245</ele>
        <time>2017-12-23T18:29:24Z</time>
      </trkpt>
      <trkpt lat="48.60028" lon="6.30621">
        <ele>241</ele>
        <time>2017-12-23T18:29:32Z</time>
      </trkpt>
      <trkpt lat="48.60036" lon="6.30606">
        <ele>240</ele>
        <time>2017-12-23T18:29:34Z</time>
      </trkpt>
      <trkpt lat="48.60046" lon="6.30595">
        <ele>240</ele>
        <time>2017-12-23T18:29:36Z</time>
      </trkpt>
      <trkpt lat="48.60059" lon="6.30587">
        <ele>240</ele>
        <time>2017-12-23T18:29:38Z</time>
      </trkpt>
      <trkpt lat="48.60078" lon="6.30573">
        <ele>237</ele>
        <time>2017-12-23T18:29:41Z</time>
      </trkpt>
      <trkpt lat="48.60085" lon="6.30568">
        <ele>238</ele>
        <time>2017-12-23T18:29:42Z</time>
      </trkpt>
      <trkpt lat="48.60091" lon="6.30563">
        <ele>238</ele>
        <time>2017-12-23T18:29:43Z</time>
      </trkpt>
      <trkpt lat="48.60104" lon="6.30552">
        <ele>237</ele>
        <time>2017-12-23T18:29:45Z</time>
      </trkpt>
      <trkpt lat="48.60111" lon="6.30547">
        <ele>237</ele>
        <time>2017-12-23T18:29:46Z</time>
      </trkpt>
      <trkpt lat="48.60124" lon="6.30537">
        <ele>237</ele>
        <time>2017-12-23T18:29:48Z</time>
      </trkpt>
      <trkpt lat="48.60144" lon="6.30522">
        <ele>237</ele>
        <time>2017-12-23T18:29:51Z</time>
      </trkpt>
      <trkpt lat="48.60163" lon="6.30507">
        <ele>237</ele>
        <time>2017-12-23T18:29:54Z</time>
      </trkpt>
      <trkpt lat="48.60183" lon="6.30494">
        <ele>235</ele>
        <time>2017-12-23T18:29:57Z</time>
      </trkpt>
      <trkpt lat="48.60197" lon="6.30487">
        <ele>234</ele>
        <time>2017-12-23T18:29:59Z</time>
      </trkpt>
      <trkpt lat="48.60233" lon="6.30469">
        <ele>232</ele>
        <time>2017-12-23T18:30:04Z</time>
      </trkpt>
      <trkpt lat="48.60247" lon="6.30462">
        <ele>232</ele>
        <time>2017-12-23T18:30:06Z</time>
      </trkpt>
      <trkpt lat="48.60261" lon="6.30454">
        <ele>230</ele>
        <time>2017-12-23T18:30:08Z</time>
      </trkpt>
      <trkpt lat="48.60274" lon="6.30447">
        <ele>230</ele>
        <time>2017-12-23T18:30:10Z</time>
      </trkpt>
      <trkpt lat="48.60298" lon="6.30435">
        <ele>230</ele>
        <time>2017-12-23T18:30:14Z</time>
      </trkpt>
      <trkpt lat="48.60302" lon="6.30431">
        <ele>230</ele>
        <time>2017-12-23T18:30:15Z</time>
      </trkpt>
      <trkpt lat="48.60304" lon="6.30426">
        <ele>229</ele>
        <time>2017-12-23T18:30:16Z</time>
      </trkpt>
      <trkpt lat="48.60305" lon="6.30419">
        <ele>229</ele>
        <time>2017-12-23T18:30:17Z</time>
      </trkpt>
      <trkpt lat="48.60304" lon="6.30411">
        <ele>228</ele>
        <time>2017-12-23T18:30:18Z</time>
      </trkpt>
      <trkpt lat="48.60301" lon="6.30402">
        <ele>227</ele>
        <time>2017-12-23T18:30:19Z</time>
      </trkpt>
      <trkpt lat="48.60295" lon="6.30385">
        <ele>227</ele>
        <time>2017-12-23T18:30:21Z</time>
      </trkpt>
      <trkpt lat="48.60293" lon="6.30375">
        <ele>227</ele>
        <time>2017-12-23T18:30:22Z</time>
      </trkpt>
      <trkpt lat="48.6029" lon="6.30356">
        <ele>227</ele>
        <time>2017-12-23T18:30:24Z</time>
      </trkpt>
      <trkpt lat="48.60286" lon="6.30327">
        <ele>226</ele>
        <time>2017-12-23T18:30:27Z</time>
      </trkpt>
      <trkpt lat="48.6028" lon="6.30282">
        <ele>227</ele>
        <time>2017-12-23T18:30:32Z</time>
      </trkpt>
      <trkpt lat="48.60276" lon="6.30258">
        <ele>227</ele>
        <time>2017-12-23T18:30:35Z</time>
      </trkpt>
      <trkpt lat="48.60272" lon="6.30214">
        <ele>227</ele>
        <time>2017-12-23T18:30:41Z</time>
      </trkpt>
      <trkpt lat="48.6027" lon="6.30194">
        <ele>227</ele>
        <time>2017-12-23T18:30:44Z</time>
      </trkpt>
      <trkpt lat="48.60268" lon="6.30175">
        <ele>228</ele>
        <time>2017-12-23T18:30:47Z</time>
      </trkpt>
      <trkpt lat="48.60267" lon="6.30151">
        <ele>227</ele>
        <time>2017-12-23T18:30:51Z</time>
      </trkpt>
      <trkpt lat="48.60269" lon="6.30117">
        <ele>227</ele>
        <time>2017-12-23T18:30:57Z</time>
      </trkpt>
      <trkpt lat="48.60269" lon="6.30112">
        <ele>227</ele>
        <time>2017-12-23T18:30:58Z</time>
      </trkpt>
      <trkpt lat="48.60265" lon="6.30106">
        <ele>227</ele>
        <time>2017-12-23T18:31:00Z</time>
      </trkpt>
      <trkpt lat="48.60251" lon="6.301">
        <ele>227</ele>
        <time>2017-12-23T18:31:05Z</time>
      </trkpt>
      <trkpt lat="48.6024" lon="6.30093">
        <ele>229</ele>
        <time>2017-12-23T18:31:10Z</time>
      </trkpt>
      <trkpt lat="48.60211" lon="6.30076">
        <ele>230</ele>
        <time>2017-12-23T18:31:21Z</time>
      </trkpt>
      <trkpt lat="48.60203" lon="6.30071">
        <ele>230</ele>
        <time>2017-12-23T18:31:25Z</time>
      </trkpt>
      <trkpt lat="48.60198" lon="6.30068">
        <ele>230</ele>
        <time>2017-12-23T18:31:31Z</time>
      </trkpt>
      <trkpt lat="48.60192" lon="6.30064">
        <ele>230</ele>
        <time>2017-12-23T18:31:34Z</time>
      </trkpt>
      <trkpt lat="48.60173" lon="6.30051">
        <ele>230</ele>
        <time>2017-12-23T18:31:43Z</time>
      </trkpt>
      <trkpt lat="48.60159" lon="6.30041">
        <ele>233</ele>
        <time>2017-12-23T18:31:50Z</time>
      </trkpt>
      <trkpt lat="48.60134" lon="6.30025">
        <ele>233</ele>
        <time>2017-12-23T18:32:02Z</time>
      </trkpt>
      <trkpt lat="48.60124" lon="6.30018">
        <ele>234</ele>
        <time>2017-12-23T18:32:07Z</time>
      </trkpt>
      <trkpt lat="48.60115" lon="6.30012">
        <ele>234</ele>
        <time>2017-12-23T18:32:11Z</time>
      </trkpt>
      <trkpt lat="48.60113" lon="6.30011">
        <ele>234</ele>
        <time>2017-12-23T18:32:12Z</time>
      </trkpt>
      <trkpt lat="48.601" lon="6.3">
        <ele>233</ele>
        <time>2017-12-23T18:32:19Z</time>
      </trkpt>
      <trkpt lat="48.60099" lon="6.29999">
        <ele>234</ele>
        <time>2017-12-23T18:32:20Z</time>
      </trkpt>
      <trkpt lat="48.60082" lon="6.29987">
        <ele>235</ele>
        <time>2017-12-23T18:32:28Z</time>
      </trkpt>
      <trkpt lat="48.60068" lon="6.29978">
        <ele>236</ele>
        <time>2017-12-23T18:32:35Z</time>
      </trkpt>
      <trkpt lat="48.60035" lon="6.29955">
        <ele>236</ele>
        <time>2017-12-23T18:32:52Z</time>
      </trkpt>
      <trkpt lat="48.60009" lon="6.2994">
        <ele>237</ele>
        <time>2017-12-23T18:33:05Z</time>
      </trkpt>
      <trkpt lat="48.60003" lon="6.29939">
        <ele>237</ele>
        <time>2017-12-23T18:33:08Z</time>
      </trkpt>
      <trkpt lat="48.59998" lon="6.29939">
        <ele>241</ele>
        <time>2017-12-23T18:33:10Z</time>
      </trkpt>
      <trkpt lat="48.59983" lon="6.29938">
        <ele>241</ele>
        <time>2017-12-23T18:33:17Z</time>
      </trkpt>
      <trkpt lat="48.59972" lon="6.2994">
        <ele>242</ele>
        <time>2017-12-23T18:33:22Z</time>
      </trkpt>
      <trkpt lat="48.5997" lon="6.2994">
        <ele>242</ele>
        <time>2017-12-23T18:33:23Z</time>
      </trkpt>
      <trkpt lat="48.59939" lon="6.2994">
        <ele>244</ele>
        <time>2017-12-23T18:33:38Z</time>
      </trkpt>
      <trkpt lat="48.59936" lon="6.2994">
        <ele>244</ele>
        <time>2017-12-23T18:33:39Z</time>
      </trkpt>
      <trkpt lat="48.59927" lon="6.29935">
        <ele>244</ele>
        <time>2017-12-23T18:33:44Z</time>
      </trkpt>
      <trkpt lat="48.59921" lon="6.29937">
        <ele>244</ele>
        <time>2017-12-23T18:33:48Z</time>
      </trkpt>
      <trkpt lat="48.5992" lon="6.29942">
        <ele>244</ele>
        <time>2017-12-23T18:33:50Z</time>
      </trkpt>
      <trkpt lat="48.59919" lon="6.29944">
        <ele>244</ele>
        <time>2017-12-23T18:33:51Z</time>
      </trkpt>
      <trkpt lat="48.59919" lon="6.29958">
        <ele>245</ele>
        <time>2017-12-23T18:33:56Z</time>
      </trkpt>
      <trkpt lat="48.59915" lon="6.29975">
        <ele>250</ele>
        <time>2017-12-23T18:34:02Z</time>
      </trkpt>
      <trkpt lat="48.59915" lon="6.29985">
        <ele>250</ele>
        <time>2017-12-23T18:34:05Z</time>
      </trkpt>
      <trkpt lat="48.59915" lon="6.29987">
        <ele>250</ele>
        <time>2017-12-23T18:34:06Z</time>
      </trkpt>
      <trkpt lat="48.59919" lon="6.30008">
        <ele>249</ele>
        <time>2017-12-23T18:34:12Z</time>
      </trkpt>
      <trkpt lat="48.59919" lon="6.30015">
        <ele>249</ele>
        <time>2017-12-23T18:34:14Z</time>
      </trkpt>
      <trkpt lat="48.59917" lon="6.30024">
        <ele>249</ele>
        <time>2017-12-23T18:34:17Z</time>
      </trkpt>
      <trkpt lat="48.59912" lon="6.30034">
        <ele>253</ele>
        <time>2017-12-23T18:34:21Z</time>
      </trkpt>
      <trkpt lat="48.59912" lon="6.30039">
        <ele>254</ele>
        <time>2017-12-23T18:34:23Z</time>
      </trkpt>
      <trkpt lat="48.59912" lon="6.30051">
        <ele>254</ele>
        <time>2017-12-23T18:34:28Z</time>
      </trkpt>
      <trkpt lat="48.59924" lon="6.30076">
        <ele>252</ele>
        <time>2017-12-23T18:34:41Z</time>
      </trkpt>
      <trkpt lat="48.59928" lon="6.30083">
        <ele>252</ele>
        <time>2017-12-23T18:34:44Z</time>
      </trkpt>
      <trkpt lat="48.59931" lon="6.30095">
        <ele>251</ele>
        <time>2017-12-23T18:34:48Z</time>
      </trkpt>
      <trkpt lat="48.59926" lon="6.30128">
        <ele>248</ele>
        <time>2017-12-23T18:34:58Z</time>
      </trkpt>
      <trkpt lat="48.59914" lon="6.30145">
        <ele>252</ele>
        <time>2017-12-23T18:35:07Z</time>
      </trkpt>
      <trkpt lat="48.59904" lon="6.30149">
        <ele>252</ele>
        <time>2017-12-23T18:35:10Z</time>
      </trkpt>
      <trkpt lat="48.59892" lon="6.30162">
        <ele>252</ele>
        <time>2017-12-23T18:35:16Z</time>
      </trkpt>
      <trkpt lat="48.59889" lon="6.30165">
        <ele>252</ele>
        <time>2017-12-23T18:35:18Z</time>
      </trkpt>
      <trkpt lat="48.59886" lon="6.30166">
        <ele>252</ele>
        <time>2017-12-23T18:35:19Z</time>
      </trkpt>
      <trkpt lat="48.59844" lon="6.30184">
        <ele>249</ele>
        <time>2017-12-23T18:35:29Z</time>
      </trkpt>
      <trkpt lat="48.59832" lon="6.30196">
        <ele>249</ele>
        <time>2017-12-23T18:35:33Z</time>
      </trkpt>
      <trkpt lat="48.59806" lon="6.30215">
        <ele>247</ele>
        <time>2017-12-23T18:35:40Z</time>
      </trkpt>
      <trkpt lat="48.59795" lon="6.30223">
        <ele>246</ele>
        <time>2017-12-23T18:35:45Z</time>
      </trkpt>
      <trkpt lat="48.59791" lon="6.30223">
        <ele>246</ele>
        <time>2017-12-23T18:35:49Z</time>
      </trkpt>
      <trkpt lat="48.59789" lon="6.30223">
        <ele>246</ele>
        <time>2017-12-23T18:35:51Z</time>
      </trkpt>
      <trkpt lat="48.59787" lon="6.30221">
        <ele>247</ele>
        <time>2017-12-23T18:35:53Z</time>
      </trkpt>
      <trkpt lat="48.59783" lon="6.30223">
        <ele>247</ele>
        <time>2017-12-23T18:35:56Z</time>
      </trkpt>
      <trkpt lat="48.59779" lon="6.30224">
        <ele>246</ele>
        <time>2017-12-23T18:35:58Z</time>
      </trkpt>
      <trkpt lat="48.59772" lon="6.30224">
        <ele>246</ele>
        <time>2017-12-23T18:36:01Z</time>
      </trkpt>
      <trkpt lat="48.59761" lon="6.3022">
        <ele>247</ele>
        <time>2017-12-23T18:36:05Z</time>
      </trkpt>
      <trkpt lat="48.59751" lon="6.30209">
        <ele>248</ele>
        <time>2017-12-23T18:36:11Z</time>
      </trkpt>
      <trkpt lat="48.59748" lon="6.30201">
        <ele>248</ele>
        <time>2017-12-23T18:36:14Z</time>
      </trkpt>
      <trkpt lat="48.59748" lon="6.3019">
        <ele>249</ele>
        <time>2017-12-23T18:36:18Z</time>
      </trkpt>
      <trkpt lat="48.5975" lon="6.30182">
        <ele>251</ele>
        <time>2017-12-23T18:36:25Z</time>
      </trkpt>
      <trkpt lat="48.59747" lon="6.30167">
        <ele>253</ele>
        <time>2017-12-23T18:36:30Z</time>
      </trkpt>
      <trkpt lat="48.59745" lon="6.30159">
        <ele>253</ele>
        <time>2017-12-23T18:36:32Z</time>
      </trkpt>
      <trkpt lat="48.59742" lon="6.30154">
        <ele>252</ele>
        <time>2017-12-23T18:36:36Z</time>
      </trkpt>
      <trkpt lat="48.59741" lon="6.30151">
        <ele>252</ele>
        <time>2017-12-23T18:36:39Z</time>
      </trkpt>
      <trkpt lat="48.59739" lon="6.30147">
        <ele>252</ele>
        <time>2017-12-23T18:36:42Z</time>
      </trkpt>
      <trkpt lat="48.59737" lon="6.30142">
        <ele>252</ele>
        <time>2017-12-23T18:36:44Z</time>
      </trkpt>
      <trkpt lat="48.59737" lon="6.30134">
        <ele>252</ele>
        <time>2017-12-23T18:36:48Z</time>
      </trkpt>
      <trkpt lat="48.59738" lon="6.30129">
        <ele>252</ele>
        <time>2017-12-23T18:36:50Z</time>
      </trkpt>
      <trkpt lat="48.5974" lon="6.30111">
        <ele>253</ele>
        <time>2017-12-23T18:36:55Z</time>
      </trkpt>
      <trkpt lat="48.5974" lon="6.30108">
        <ele>254</ele>
        <time>2017-12-23T18:36:56Z</time>
      </trkpt>
      <trkpt lat="48.59738" lon="6.30098">
        <ele>254</ele>
        <time>2017-12-23T18:36:59Z</time>
      </trkpt>
      <trkpt lat="48.59736" lon="6.30091">
        <ele>254</ele>
        <time>2017-12-23T18:37:01Z</time>
      </trkpt>
      <trkpt lat="48.59731" lon="6.30069">
        <ele>256</ele>
        <time>2017-12-23T18:37:07Z</time>
      </trkpt>
      <trkpt lat="48.59728" lon="6.3006">
        <ele>256</ele>
        <time>2017-12-23T18:37:10Z</time>
      </trkpt>
      <trkpt lat="48.59725" lon="6.30043">
        <ele>256</ele>
        <time>2017-12-23T18:37:15Z</time>
      </trkpt>
      <trkpt lat="48.59723" lon="6.30036">
        <ele>256</ele>
        <time>2017-12-23T18:37:17Z</time>
      </trkpt>
      <trkpt lat="48.59715" lon="6.29998">
        <ele>256</ele>
        <time>2017-12-23T18:37:29Z</time>
      </trkpt>
      <trkpt lat="48.59715" lon="6.29989">
        <ele>256</ele>
        <time>2017-12-23T18:37:32Z</time>
      </trkpt>
      <trkpt lat="48.59714" lon="6.29987">
        <ele>256</ele>
        <time>2017-12-23T18:37:33Z</time>
      </trkpt>
      <trkpt lat="48.59693" lon="6.29908">
        <ele>255</ele>
        <time>2017-12-23T18:37:54Z</time>
      </trkpt>
      <trkpt lat="48.59685" lon="6.29871">
        <ele>254</ele>
        <time>2017-12-23T18:38:03Z</time>
      </trkpt>
      <trkpt lat="48.59682" lon="6.2987">
        <ele>254</ele>
        <time>2017-12-23T18:38:06Z</time>
      </trkpt>
      <trkpt lat="48.59674" lon="6.29869">
        <ele>254</ele>
        <time>2017-12-23T18:38:10Z</time>
      </trkpt>
      <trkpt lat="48.59653" lon="6.29867">
        <ele>257</ele>
        <time>2017-12-23T18:38:16Z</time>
      </trkpt>
      <trkpt lat="48.5965" lon="6.29868">
        <ele>257</ele>
        <time>2017-12-23T18:38:17Z</time>
      </trkpt>
      <trkpt lat="48.59604" lon="6.29886">
        <ele>257</ele>
        <time>2017-12-23T18:38:36Z</time>
      </trkpt>
      <trkpt lat="48.59591" lon="6.29896">
        <ele>256</ele>
        <time>2017-12-23T18:38:44Z</time>
      </trkpt>
      <trkpt lat="48.59589" lon="6.29898">
        <ele>256</ele>
        <time>2017-12-23T18:38:45Z</time>
      </trkpt>
      <trkpt lat="48.59582" lon="6.29901">
        <ele>256</ele>
        <time>2017-12-23T18:38:48Z</time>
      </trkpt>
      <trkpt lat="48.59578" lon="6.29905">
        <ele>256</ele>
        <time>2017-12-23T18:38:50Z</time>
      </trkpt>
      <trkpt lat="48.5957" lon="6.29913">
        <ele>256</ele>
        <time>2017-12-23T18:38:54Z</time>
      </trkpt>
      <trkpt lat="48.59568" lon="6.29915">
        <ele>256</ele>
        <time>2017-12-23T18:38:55Z</time>
      </trkpt>
      <trkpt lat="48.5956" lon="6.29929">
        <ele>253</ele>
        <time>2017-12-23T18:39:00Z</time>
      </trkpt>
      <trkpt lat="48.59555" lon="6.29935">
        <ele>253</ele>
        <time>2017-12-23T18:39:03Z</time>
      </trkpt>
      <trkpt lat="48.59551" lon="6.2994">
        <ele>252</ele>
        <time>2017-12-23T18:39:05Z</time>
      </trkpt>
      <trkpt lat="48.59533" lon="6.29954">
        <ele>252</ele>
        <time>2017-12-23T18:39:14Z</time>
      </trkpt>
      <trkpt lat="48.59524" lon="6.29963">
        <ele>252</ele>
        <time>2017-12-23T18:39:19Z</time>
      </trkpt>
      <trkpt lat="48.5951" lon="6.29974">
        <ele>251</ele>
        <time>2017-12-23T18:39:28Z</time>
      </trkpt>
      <trkpt lat="48.59507" lon="6.29977">
        <ele>251</ele>
        <time>2017-12-23T18:39:30Z</time>
      </trkpt>
      <trkpt lat="48.59502" lon="6.29983">
        <ele>251</ele>
        <time>2017-12-23T18:39:33Z</time>
      </trkpt>
      <trkpt lat="48.59484" lon="6.29995">
        <ele>253</ele>
        <time>2017-12-23T18:39:40Z</time>
      </trkpt>
      <trkpt lat="48.59482" lon="6.29995">
        <ele>253</ele>
        <time>2017-12-23T18:39:41Z</time>
      </trkpt>
      <trkpt lat="48.59471" lon="6.29984">
        <ele>255</ele>
        <time>2017-12-23T18:39:49Z</time>
      </trkpt>
      <trkpt lat="48.5947" lon="6.29982">
        <ele>255</ele>
        <time>2017-12-23T18:39:50Z</time>
      </trkpt>
      <trkpt lat="48.59467" lon="6.29978">
        <ele>256</ele>
        <time>2017-12-23T18:39:53Z</time>
      </trkpt>
      <trkpt lat="48.59455" lon="6.2997">
        <ele>257</ele>
        <time>2017-12-23T18:40:01Z</time>
      </trkpt>
      <trkpt lat="48.59453" lon="6.2997">
        <ele>257</ele>
        <time>2017-12-23T18:40:02Z</time>
      </trkpt>
      <trkpt lat="48.59448" lon="6.29968">
        <ele>257</ele>
        <time>2017-12-23T18:40:05Z</time>
      </trkpt>
      <trkpt lat="48.59441" lon="6.29966">
        <ele>257</ele>
        <time>2017-12-23T18:40:28Z</time>
      </trkpt>
      <trkpt lat="48.5944" lon="6.29963">
        <ele>258</ele>
        <time>2017-12-23T18:40:33Z</time>
      </trkpt>
      <trkpt lat="48.59439" lon="6.29962">
        <ele>258</ele>
        <time>2017-12-23T18:40:36Z</time>
      </trkpt>
      <trkpt lat="48.59434" lon="6.29964">
        <ele>258</ele>
        <time>2017-12-23T18:40:41Z</time>
      </trkpt>
      <trkpt lat="48.5943" lon="6.29968">
        <ele>258</ele>
        <time>2017-12-23T18:40:46Z</time>
      </trkpt>
      <trkpt lat="48.59425" lon="6.29969">
        <ele>258</ele>
        <time>2017-12-23T18:40:48Z</time>
      </trkpt>
      <trkpt lat="48.59409" lon="6.29966">
        <ele>261</ele>
        <time>2017-12-23T18:40:56Z</time>
      </trkpt>
      <trkpt lat="48.59399" lon="6.29957">
        <ele>262</ele>
        <time>2017-12-23T18:41:02Z</time>
      </trkpt>
      <trkpt lat="48.59394" lon="6.29952">
        <ele>262</ele>
        <time>2017-12-23T18:41:05Z</time>
      </trkpt>
      <trkpt lat="48.59385" lon="6.29952">
        <ele>262</ele>
        <time>2017-12-23T18:41:09Z</time>
      </trkpt>
      <trkpt lat="48.59382" lon="6.29952">
        <ele>262</ele>
        <time>2017-12-23T18:41:10Z</time>
      </trkpt>
      <trkpt lat="48.59379" lon="6.29952">
        <ele>262</ele>
        <time>2017-12-23T18:41:11Z</time>
      </trkpt>
      <trkpt lat="48.59377" lon="6.29952">
        <ele>262</ele>
        <time>2017-12-23T18:41:12Z</time>
      </trkpt>
      <trkpt lat="48.59372" lon="6.29951">
        <ele>262</ele>
        <time>2017-12-23T18:41:14Z</time>
      </trkpt>
      <trkpt lat="48.5937" lon="6.2995">
        <ele>262</ele>
        <time>2017-12-23T18:41:15Z</time>
      </trkpt>
      <trkpt lat="48.59368" lon="6.2995">
        <ele>263</ele>
        <time>2017-12-23T18:41:16Z</time>
      </trkpt>
      <trkpt lat="48.59367" lon="6.2995">
        <ele>263</ele>
        <time>2017-12-23T18:41:17Z</time>
      </trkpt>
      <trkpt lat="48.59364" lon="6.29951">
        <ele>263</ele>
        <time>2017-12-23T18:41:18Z</time>
      </trkpt>
      <trkpt lat="48.59361" lon="6.2995">
        <ele>263</ele>
        <time>2017-12-23T18:41:19Z</time>
      </trkpt>
      <trkpt lat="48.59354" lon="6.29951">
        <ele>263</ele>
        <time>2017-12-23T18:41:22Z</time>
      </trkpt>
      <trkpt lat="48.59349" lon="6.29956">
        <ele>263</ele>
        <time>2017-12-23T18:41:25Z</time>
      </trkpt>
      <trkpt lat="48.59347" lon="6.29957">
        <ele>263</ele>
        <time>2017-12-23T18:41:26Z</time>
      </trkpt>
      <trkpt lat="48.59341" lon="6.29961">
        <ele>263</ele>
        <time>2017-12-23T18:41:29Z</time>
      </trkpt>
      <trkpt lat="48.59337" lon="6.29964">
        <ele>263</ele>
        <time>2017-12-23T18:41:31Z</time>
      </trkpt>
      <trkpt lat="48.59334" lon="6.29967">
        <ele>263</ele>
        <time>2017-12-23T18:41:33Z</time>
      </trkpt>
      <trkpt lat="48.59332" lon="6.29968">
        <ele>263</ele>
        <time>2017-12-23T18:41:34Z</time>
      </trkpt>
      <trkpt lat="48.59323" lon="6.29973">
        <ele>263</ele>
        <time>2017-12-23T18:41:38Z</time>
      </trkpt>
      <trkpt lat="48.59319" lon="6.29974">
        <ele>263</ele>
        <time>2017-12-23T18:41:40Z</time>
      </trkpt>
      <trkpt lat="48.59316" lon="6.29977">
        <ele>263</ele>
        <time>2017-12-23T18:41:42Z</time>
      </trkpt>
      <trkpt lat="48.59309" lon="6.29978">
        <ele>263</ele>
        <time>2017-12-23T18:41:45Z</time>
      </trkpt>
      <trkpt lat="48.59303" lon="6.29976">
        <ele>263</ele>
        <time>2017-12-23T18:41:48Z</time>
      </trkpt>
      <trkpt lat="48.59301" lon="6.29975">
        <ele>263</ele>
        <time>2017-12-23T18:41:49Z</time>
      </trkpt>
      <trkpt lat="48.5928" lon="6.29976">
        <ele>263</ele>
        <time>2017-12-23T18:41:56Z</time>
      </trkpt>
      <trkpt lat="48.5925" lon="6.29976">
        <ele>262</ele>
        <time>2017-12-23T18:42:09Z</time>
      </trkpt>
      <trkpt lat="48.59246" lon="6.29976">
        <ele>262</ele>
        <time>2017-12-23T18:42:12Z</time>
      </trkpt>
      <trkpt lat="48.59242" lon="6.29978">
        <ele>262</ele>
        <time>2017-12-23T18:42:14Z</time>
      </trkpt>
      <trkpt lat="48.59225" lon="6.29981">
        <ele>262</ele>
        <time>2017-12-23T18:42:22Z</time>
      </trkpt>
      <trkpt lat="48.59221" lon="6.29987">
        <ele>262</ele>
        <time>2017-12-23T18:42:24Z</time>
      </trkpt>
      <trkpt lat="48.59247" lon="6.30059">
        <ele>257</ele>
        <time>2017-12-23T18:42:40Z</time>
      </trkpt>
      <trkpt lat="48.59252" lon="6.30071">
        <ele>256</ele>
        <time>2017-12-23T18:42:42Z</time>
      </trkpt>
      <trkpt lat="48.5926" lon="6.30088">
        <ele>255</ele>
        <time>2017-12-23T18:42:45Z</time>
      </trkpt>
      <trkpt lat="48.59262" lon="6.30094">
        <ele>255</ele>
        <time>2017-12-23T18:42:46Z</time>
      </trkpt>
      <trkpt lat="48.59267" lon="6.30107">
        <ele>255</ele>
        <time>2017-12-23T18:42:48Z</time>
      </trkpt>
      <trkpt lat="48.59277" lon="6.30131">
        <ele>255</ele>
        <time>2017-12-23T18:42:52Z</time>
      </trkpt>
      <trkpt lat="48.59283" lon="6.30141">
        <ele>255</ele>
        <time>2017-12-23T18:42:54Z</time>
      </trkpt>
      <trkpt lat="48.59292" lon="6.30159">
        <ele>255</ele>
        <time>2017-12-23T18:42:57Z</time>
      </trkpt>
      <trkpt lat="48.59297" lon="6.30172">
        <ele>254</ele>
        <time>2017-12-23T18:42:59Z</time>
      </trkpt>
      <trkpt lat="48.59303" lon="6.30184">
        <ele>254</ele>
        <time>2017-12-23T18:43:01Z</time>
      </trkpt>
      <trkpt lat="48.59313" lon="6.30209">
        <ele>254</ele>
        <time>2017-12-23T18:43:05Z</time>
      </trkpt>
      <trkpt lat="48.59318" lon="6.3022">
        <ele>254</ele>
        <time>2017-12-23T18:43:07Z</time>
      </trkpt>
      <trkpt lat="48.59335" lon="6.30264">
        <ele>254</ele>
        <time>2017-12-23T18:43:14Z</time>
      </trkpt>
      <trkpt lat="48.59354" lon="6.30316">
        <ele>253</ele>
        <time>2017-12-23T18:43:21Z</time>
      </trkpt>
      <trkpt lat="48.59358" lon="6.30323">
        <ele>253</ele>
        <time>2017-12-23T18:43:22Z</time>
      </trkpt>
      <trkpt lat="48.59363" lon="6.3033">
        <ele>253</ele>
        <time>2017-12-23T18:43:23Z</time>
      </trkpt>
      <trkpt lat="48.59375" lon="6.3034">
        <ele>254</ele>
        <time>2017-12-23T18:43:25Z</time>
      </trkpt>
      <trkpt lat="48.59387" lon="6.30349">
        <ele>254</ele>
        <time>2017-12-23T18:43:27Z</time>
      </trkpt>
      <trkpt lat="48.594" lon="6.30357">
        <ele>254</ele>
        <time>2017-12-23T18:43:29Z</time>
      </trkpt>
      <trkpt lat="48.59421" lon="6.30371">
        <ele>253</ele>
        <time>2017-12-23T18:43:32Z</time>
      </trkpt>
      <trkpt lat="48.59436" lon="6.30384">
        <ele>252</ele>
        <time>2017-12-23T18:43:34Z</time>
      </trkpt>
      <trkpt lat="48.59451" lon="6.30396">
        <ele>252</ele>
        <time>2017-12-23T18:43:36Z</time>
      </trkpt>
      <trkpt lat="48.59458" lon="6.30403">
        <ele>252</ele>
        <time>2017-12-23T18:43:37Z</time>
      </trkpt>
      <trkpt lat="48.59472" lon="6.3042">
        <ele>252</ele>
        <time>2017-12-23T18:43:39Z</time>
      </trkpt>
      <trkpt lat="48.59478" lon="6.30429">
        <ele>251</ele>
        <time>2017-12-23T18:43:40Z</time>
      </trkpt>
      <trkpt lat="48.59485" lon="6.30438">
        <ele>251</ele>
        <time>2017-12-23T18:43:41Z</time>
      </trkpt>
      <trkpt lat="48.59492" lon="6.30448">
        <ele>251</ele>
        <time>2017-12-23T18:43:42Z</time>
      </trkpt>
      <trkpt lat="48.59498" lon="6.30458">
        <ele>251</ele>
        <time>2017-12-23T18:43:43Z</time>
      </trkpt>
      <trkpt lat="48.59503" lon="6.30467">
        <ele>249</ele>
        <time>2017-12-23T18:43:44Z</time>
      </trkpt>
      <trkpt lat="48.59507" lon="6.30475">
        <ele>248</ele>
        <time>2017-12-23T18:43:45Z</time>
      </trkpt>
      <trkpt lat="48.59516" lon="6.3049">
        <ele>248</ele>
        <time>2017-12-23T18:43:47Z</time>
      </trkpt>
      <trkpt lat="48.59528" lon="6.30502">
        <ele>247</ele>
        <time>2017-12-23T18:43:49Z</time>
      </trkpt>
      <trkpt lat="48.59545" lon="6.30524">
        <ele>247</ele>
        <time>2017-12-23T18:43:52Z</time>
      </trkpt>
      <trkpt lat="48.59559" lon="6.30548">
        <ele>246</ele>
        <time>2017-12-23T18:43:55Z</time>
      </trkpt>
      <trkpt lat="48.59575" lon="6.30564">
        <ele>246</ele>
        <time>2017-12-23T18:43:58Z</time>
      </trkpt>
      <trkpt lat="48.59593" lon="6.3059">
        <ele>242</ele>
        <time>2017-12-23T18:44:02Z</time>
      </trkpt>
      <trkpt lat="48.59608" lon="6.30609">
        <ele>241</ele>
        <time>2017-12-23T18:44:05Z</time>
      </trkpt>
      <trkpt lat="48.59625" lon="6.30619">
        <ele>240</ele>
        <time>2017-12-23T18:44:08Z</time>
      </trkpt>
      <trkpt lat="48.59644" lon="6.30625">
        <ele>239</ele>
        <time>2017-12-23T18:44:11Z</time>
      </trkpt>
      <trkpt lat="48.59663" lon="6.30641">
        <ele>237</ele>
        <time>2017-12-23T18:44:15Z</time>
      </trkpt>
      <trkpt lat="48.59668" lon="6.30649">
        <ele>234</ele>
        <time>2017-12-23T18:44:17Z</time>
      </trkpt>
      <trkpt lat="48.59673" lon="6.30669">
        <ele>233</ele>
        <time>2017-12-23T18:44:19Z</time>
      </trkpt>
      <trkpt lat="48.59674" lon="6.30681">
        <ele>234</ele>
        <time>2017-12-23T18:44:20Z</time>
      </trkpt>
      <trkpt lat="48.59673" lon="6.3069">
        <ele>234</ele>
        <time>2017-12-23T18:44:21Z</time>
      </trkpt>
      <trkpt lat="48.59669" lon="6.30706">
        <ele>235</ele>
        <time>2017-12-23T18:44:23Z</time>
      </trkpt>
      <trkpt lat="48.5966" lon="6.30753">
        <ele>235</ele>
        <time>2017-12-23T18:44:29Z</time>
      </trkpt>
      <trkpt lat="48.59654" lon="6.30783">
        <ele>237</ele>
        <time>2017-12-23T18:44:33Z</time>
      </trkpt>
      <trkpt lat="48.59652" lon="6.30796">
        <ele>237</ele>
        <time>2017-12-23T18:44:35Z</time>
      </trkpt>
      <trkpt lat="48.59647" lon="6.30831">
        <ele>237</ele>
        <time>2017-12-23T18:44:40Z</time>
      </trkpt>
      <trkpt lat="48.59644" lon="6.30853">
        <ele>237</ele>
        <time>2017-12-23T18:44:43Z</time>
      </trkpt>
      <trkpt lat="48.5964" lon="6.3089">
        <ele>237</ele>
        <time>2017-12-23T18:44:48Z</time>
      </trkpt>
      <trkpt lat="48.5963" lon="6.30953">
        <ele>238</ele>
        <time>2017-12-23T18:44:57Z</time>
      </trkpt>
      <trkpt lat="48.59616" lon="6.31014">
        <ele>239</ele>
        <time>2017-12-23T18:45:06Z</time>
      </trkpt>
      <trkpt lat="48.59603" lon="6.3106">
        <ele>238</ele>
        <time>2017-12-23T18:45:13Z</time>
      </trkpt>
      <trkpt lat="48.59594" lon="6.31084">
        <ele>238</ele>
        <time>2017-12-23T18:45:17Z</time>
      </trkpt>
      <trkpt lat="48.59586" lon="6.31108">
        <ele>239</ele>
        <time>2017-12-23T18:45:21Z</time>
      </trkpt>
      <trkpt lat="48.59583" lon="6.31113">
        <ele>240</ele>
        <time>2017-12-23T18:45:22Z</time>
      </trkpt>
      <trkpt lat="48.59576" lon="6.31137">
        <ele>237</ele>
        <time>2017-12-23T18:45:26Z</time>
      </trkpt>
      <trkpt lat="48.59571" lon="6.31156">
        <ele>237</ele>
        <time>2017-12-23T18:45:29Z</time>
      </trkpt>
      <trkpt lat="48.5957" lon="6.31176">
        <ele>239</ele>
        <time>2017-12-23T18:45:32Z</time>
      </trkpt>
      <trkpt lat="48.5957" lon="6.31183">
        <ele>239</ele>
        <time>2017-12-23T18:45:33Z</time>
      </trkpt>
      <trkpt lat="48.59574" lon="6.3123">
        <ele>240</ele>
        <time>2017-12-23T18:45:40Z</time>
      </trkpt>
      <trkpt lat="48.59578" lon="6.3127">
        <ele>242</ele>
        <time>2017-12-23T18:45:47Z</time>
      </trkpt>
      <trkpt lat="48.5958" lon="6.31293">
        <ele>242</ele>
        <time>2017-12-23T18:45:51Z</time>
      </trkpt>
      <trkpt lat="48.59581" lon="6.3131">
        <ele>243</ele>
        <time>2017-12-23T18:45:54Z</time>
      </trkpt>
      <trkpt lat="48.59583" lon="6.31333">
        <ele>243</ele>
        <time>2017-12-23T18:45:58Z</time>
      </trkpt>
      <trkpt lat="48.59585" lon="6.31354">
        <ele>246</ele>
        <time>2017-12-23T18:46:02Z</time>
      </trkpt>
      <trkpt lat="48.59587" lon="6.31369">
        <ele>247</ele>
        <time>2017-12-23T18:46:05Z</time>
      </trkpt>
      <trkpt lat="48.59588" lon="6.31384">
        <ele>247</ele>
        <time>2017-12-23T18:46:08Z</time>
      </trkpt>
      <trkpt lat="48.59588" lon="6.31399">
        <ele>247</ele>
        <time>2017-12-23T18:46:11Z</time>
      </trkpt>
      <trkpt lat="48.5959" lon="6.3142">
        <ele>248</ele>
        <time>2017-12-23T18:46:15Z</time>
      </trkpt>
      <trkpt lat="48.59591" lon="6.31445">
        <ele>250</ele>
        <time>2017-12-23T18:46:20Z</time>
      </trkpt>
      <trkpt lat="48.59591" lon="6.31463">
        <ele>250</ele>
        <time>2017-12-23T18:46:24Z</time>
      </trkpt>
      <trkpt lat="48.59592" lon="6.31476">
        <ele>251</ele>
        <time>2017-12-23T18:46:27Z</time>
      </trkpt>
      <trkpt lat="48.59592" lon="6.31481">
        <ele>251</ele>
        <time>2017-12-23T18:46:28Z</time>
      </trkpt>
      <trkpt lat="48.59592" lon="6.31494">
        <ele>250</ele>
        <time>2017-12-23T18:46:31Z</time>
      </trkpt>
      <trkpt lat="48.59592" lon="6.31503">
        <ele>252</ele>
        <time>2017-12-23T18:46:33Z</time>
      </trkpt>
      <trkpt lat="48.59592" lon="6.31521">
        <ele>253</ele>
        <time>2017-12-23T18:46:37Z</time>
      </trkpt>
      <trkpt lat="48.59592" lon="6.31542">
        <ele>255</ele>
        <time>2017-12-23T18:46:42Z</time>
      </trkpt>
      <trkpt lat="48.59591" lon="6.31575">
        <ele>257</ele>
        <time>2017-12-23T18:46:50Z</time>
      </trkpt>
      <trkpt lat="48.5959" lon="6.31593">
        <ele>258</ele>
        <time>2017-12-23T18:46:54Z</time>
      </trkpt>
      <trkpt lat="48.5959" lon="6.31597">
        <ele>259</ele>
        <time>2017-12-23T18:46:55Z</time>
      </trkpt>
      <trkpt lat="48.5959" lon="6.3162">
        <ele>260</ele>
        <time>2017-12-23T18:47:00Z</time>
      </trkpt>
      <trkpt lat="48.59589" lon="6.3164">
        <ele>261</ele>
        <time>2017-12-23T18:47:05Z</time>
      </trkpt>
      <trkpt lat="48.59589" lon="6.31651">
        <ele>261</ele>
        <time>2017-12-23T18:47:08Z</time>
      </trkpt>
      <trkpt lat="48.59589" lon="6.31668">
        <ele>262</ele>
        <time>2017-12-23T18:47:13Z</time>
      </trkpt>
      <trkpt lat="48.59588" lon="6.31684">
        <ele>263</ele>
        <time>2017-12-23T18:47:18Z</time>
      </trkpt>
      <trkpt lat="48.59587" lon="6.31697">
        <ele>263</ele>
        <time>2017-12-23T18:47:22Z</time>
      </trkpt>
      <trkpt lat="48.59585" lon="6.31714">
        <ele>264</ele>
        <time>2017-12-23T18:47:27Z</time>
      </trkpt>
      <trkpt lat="48.59582" lon="6.31725">
        <ele>264</ele>
        <time>2017-12-23T18:47:31Z</time>
      </trkpt>
      <trkpt lat="48.5958" lon="6.3191">
        <ele>271</ele>
      </trkpt>
      <trkpt lat="48.59568" lon="6.31887">
        <ele>270</ele>
      </trkpt>
      <trkpt lat="48.59579" lon="6.3191">
        <ele>271</ele>
      </trkpt>
      <trkpt lat="48.59592" lon="6.31883">
        <ele>269</ele>
      </trkpt>
      <trkpt lat="48.5958" lon="6.31912">
        <ele>271</ele>
      </trkpt>
      <trkpt lat="48.59581" lon="6.31726">
        <ele>264</ele>
      </trkpt>
      <trkpt lat="48.59571" lon="6.31726">
        <ele>264</ele>
        <time>2017-12-23T18:47:37Z</time>
      </trkpt>
      <trkpt lat="48.59569" lon="6.31726">
        <ele>264</ele>
        <time>2017-12-23T18:47:38Z</time>
      </trkpt>
      <trkpt lat="48.59564" lon="6.31726">
        <ele>264</ele>
        <time>2017-12-23T18:47:40Z</time>
      </trkpt>
      <trkpt lat="48.59562" lon="6.31727">
        <ele>264</ele>
        <time>2017-12-23T18:47:41Z</time>
      </trkpt>
      <trkpt lat="48.59552" lon="6.31727">
        <ele>265</ele>
        <time>2017-12-23T18:47:45Z</time>
      </trkpt>
      <trkpt lat="48.59498" lon="6.31739">
        <ele>266</ele>
        <time>2017-12-23T18:48:00Z</time>
      </trkpt>
      <trkpt lat="48.5949" lon="6.31741">
        <ele>266</ele>
        <time>2017-12-23T18:48:02Z</time>
      </trkpt>
      <trkpt lat="48.59478" lon="6.31743">
        <ele>266</ele>
        <time>2017-12-23T18:48:05Z</time>
      </trkpt>
      <trkpt lat="48.59458" lon="6.31746">
        <ele>266</ele>
        <time>2017-12-23T18:48:10Z</time>
      </trkpt>
      <trkpt lat="48.59429" lon="6.31746">
        <ele>266</ele>
        <time>2017-12-23T18:48:17Z</time>
      </trkpt>
      <trkpt lat="48.59403" lon="6.31745">
        <ele>267</ele>
        <time>2017-12-23T18:48:23Z</time>
      </trkpt>
      <trkpt lat="48.5938" lon="6.31744">
        <ele>267</ele>
        <time>2017-12-23T18:48:28Z</time>
      </trkpt>
      <trkpt lat="48.59367" lon="6.31742">
        <ele>267</ele>
        <time>2017-12-23T18:48:31Z</time>
      </trkpt>
      <trkpt lat="48.59344" lon="6.31745">
        <ele>267</ele>
        <time>2017-12-23T18:48:36Z</time>
      </trkpt>
      <trkpt lat="48.59331" lon="6.31748">
        <ele>268</ele>
        <time>2017-12-23T18:48:39Z</time>
      </trkpt>
      <trkpt lat="48.59318" lon="6.31754">
        <ele>268</ele>
        <time>2017-12-23T18:48:42Z</time>
      </trkpt>
      <trkpt lat="48.59299" lon="6.31767">
        <ele>268</ele>
        <time>2017-12-23T18:48:47Z</time>
      </trkpt>
      <trkpt lat="48.59273" lon="6.3178">
        <ele>268</ele>
        <time>2017-12-23T18:48:53Z</time>
      </trkpt>
      <trkpt lat="48.59265" lon="6.31787">
        <ele>268</ele>
        <time>2017-12-23T18:48:55Z</time>
      </trkpt>
      <trkpt lat="48.59234" lon="6.31805">
        <ele>266</ele>
        <time>2017-12-23T18:49:03Z</time>
      </trkpt>
      <trkpt lat="48.59181" lon="6.31842">
        <ele>266</ele>
        <time>2017-12-23T18:49:16Z</time>
      </trkpt>
      <trkpt lat="48.59168" lon="6.31851">
        <ele>266</ele>
        <time>2017-12-23T18:49:18Z</time>
      </trkpt>
      <trkpt lat="48.59156" lon="6.31862">
        <ele>264</ele>
        <time>2017-12-23T18:49:20Z</time>
      </trkpt>
      <trkpt lat="48.59127" lon="6.3189">
        <ele>264</ele>
        <time>2017-12-23T18:49:25Z</time>
      </trkpt>
      <trkpt lat="48.59122" lon="6.31895">
        <ele>264</ele>
        <time>2017-12-23T18:49:26Z</time>
      </trkpt>
      <trkpt lat="48.5909" lon="6.31917">
        <ele>266</ele>
        <time>2017-12-23T18:49:33Z</time>
      </trkpt>
      <trkpt lat="48.59086" lon="6.3192">
        <ele>266</ele>
        <time>2017-12-23T18:49:34Z</time>
      </trkpt>
      <trkpt lat="48.59067" lon="6.3193">
        <ele>267</ele>
        <time>2017-12-23T18:49:41Z</time>
      </trkpt>
      <trkpt lat="48.59067" lon="6.31934">
        <ele>267</ele>
        <time>2017-12-23T18:49:43Z</time>
      </trkpt>
      <trkpt lat="48.59084" lon="6.31966">
        <ele>269</ele>
        <time>2017-12-23T18:49:51Z</time>
      </trkpt>
      <trkpt lat="48.59093" lon="6.3199">
        <ele>270</ele>
        <time>2017-12-23T18:49:56Z</time>
      </trkpt>
      <trkpt lat="48.59096" lon="6.32003">
        <ele>272</ele>
        <time>2017-12-23T18:49:59Z</time>
      </trkpt>
      <trkpt lat="48.591" lon="6.32012">
        <ele>272</ele>
        <time>2017-12-23T18:50:01Z</time>
      </trkpt>
      <trkpt lat="48.59101" lon="6.32017">
        <ele>272</ele>
        <time>2017-12-23T18:50:02Z</time>
      </trkpt>
      <trkpt lat="48.59107" lon="6.32041">
        <ele>272</ele>
        <time>2017-12-23T18:50:07Z</time>
      </trkpt>
      <trkpt lat="48.59113" lon="6.32064">
        <ele>273</ele>
        <time>2017-12-23T18:50:12Z</time>
      </trkpt>
      <trkpt lat="48.59121" lon="6.32094">
        <ele>274</ele>
        <time>2017-12-23T18:50:18Z</time>
      </trkpt>
      <trkpt lat="48.59125" lon="6.3211">
        <ele>274</ele>
        <time>2017-12-23T18:50:21Z</time>
      </trkpt>
      <trkpt lat="48.59145" lon="6.32189">
        <ele>275</ele>
        <time>2017-12-23T18:50:35Z</time>
      </trkpt>
      <trkpt lat="48.59146" lon="6.32201">
        <ele>275</ele>
        <time>2017-12-23T18:50:37Z</time>
      </trkpt>
      <trkpt lat="48.5915" lon="6.32219">
        <ele>275</ele>
        <time>2017-12-23T18:50:40Z</time>
      </trkpt>
      <trkpt lat="48.59154" lon="6.32236">
        <ele>275</ele>
        <time>2017-12-23T18:50:43Z</time>
      </trkpt>
      <trkpt lat="48.59158" lon="6.32254">
        <ele>275</ele>
        <time>2017-12-23T18:50:46Z</time>
      </trkpt>
      <trkpt lat="48.59178" lon="6.32323">
        <ele>274</ele>
        <time>2017-12-23T18:50:59Z</time>
      </trkpt>
      <trkpt lat="48.59205" lon="6.32372">
        <ele>272</ele>
        <time>2017-12-23T18:51:08Z</time>
      </trkpt>
      <trkpt lat="48.5922" lon="6.32393">
        <ele>271</ele>
        <time>2017-12-23T18:51:12Z</time>
      </trkpt>
      <trkpt lat="48.59226" lon="6.32407">
        <ele>271</ele>
        <time>2017-12-23T18:51:14Z</time>
      </trkpt>
      <trkpt lat="48.59233" lon="6.3243">
        <ele>269</ele>
        <time>2017-12-23T18:51:17Z</time>
      </trkpt>
      <trkpt lat="48.59241" lon="6.32452">
        <ele>268</ele>
        <time>2017-12-23T18:51:20Z</time>
      </trkpt>
      <trkpt lat="48.59252" lon="6.32469">
        <ele>269</ele>
        <time>2017-12-23T18:51:23Z</time>
      </trkpt>
      <trkpt lat="48.59261" lon="6.32475">
        <ele>269</ele>
        <time>2017-12-23T18:51:25Z</time>
      </trkpt>
      <trkpt lat="48.59269" lon="6.32479">
        <ele>269</ele>
        <time>2017-12-23T18:51:27Z</time>
      </trkpt>
      <trkpt lat="48.59284" lon="6.32481">
        <ele>269</ele>
        <time>2017-12-23T18:51:30Z</time>
      </trkpt>
      <trkpt lat="48.59295" lon="6.32479">
        <ele>270</ele>
        <time>2017-12-23T18:51:32Z</time>
      </trkpt>
      <trkpt lat="48.59301" lon="6.32479">
        <ele>270</ele>
        <time>2017-12-23T18:51:33Z</time>
      </trkpt>
      <trkpt lat="48.59312" lon="6.32483">
        <ele>270</ele>
        <time>2017-12-23T18:51:35Z</time>
      </trkpt>
      <trkpt lat="48.59321" lon="6.32493">
        <ele>270</ele>
        <time>2017-12-23T18:51:37Z</time>
      </trkpt>
      <trkpt lat="48.5933" lon="6.32515">
        <ele>268</ele>
        <time>2017-12-23T18:51:41Z</time>
      </trkpt>
      <trkpt lat="48.59347" lon="6.32512">
        <ele>269</ele>
        <time>2017-12-23T18:51:53Z</time>
      </trkpt>
      <trkpt lat="48.59386" lon="6.32502">
        <ele>269</ele>
        <time>2017-12-23T18:52:03Z</time>
      </trkpt>
      <trkpt lat="48.59399" lon="6.32497">
        <ele>271</ele>
        <time>2017-12-23T18:52:06Z</time>
      </trkpt>
      <trkpt lat="48.59408" lon="6.32494">
        <ele>271</ele>
        <time>2017-12-23T18:52:08Z</time>
      </trkpt>
      <trkpt lat="48.59417" lon="6.32491">
        <ele>271</ele>
        <time>2017-12-23T18:52:10Z</time>
      </trkpt>
      <trkpt lat="48.59445" lon="6.32476">
        <ele>273</ele>
        <time>2017-12-23T18:52:17Z</time>
      </trkpt>
      <trkpt lat="48.59457" lon="6.32469">
        <ele>273</ele>
        <time>2017-12-23T18:52:20Z</time>
      </trkpt>
      <trkpt lat="48.59468" lon="6.32462">
        <ele>273</ele>
        <time>2017-12-23T18:52:23Z</time>
      </trkpt>
      <trkpt lat="48.59491" lon="6.32454">
        <ele>274</ele>
        <time>2017-12-23T18:52:29Z</time>
      </trkpt>
      <trkpt lat="48.59523" lon="6.32441">
        <ele>274</ele>
        <time>2017-12-23T18:52:38Z</time>
      </trkpt>
      <trkpt lat="48.59557" lon="6.32418">
        <ele>274</ele>
        <time>2017-12-23T18:52:46Z</time>
      </trkpt>
      <trkpt lat="48.59601" lon="6.32377">
        <ele>274</ele>
        <time>2017-12-23T18:52:57Z</time>
      </trkpt>
      <trkpt lat="48.59613" lon="6.32366">
        <ele>274</ele>
        <time>2017-12-23T18:53:02Z</time>
      </trkpt>
      <trkpt lat="48.59615" lon="6.32366">
        <ele>274</ele>
        <time>2017-12-23T18:53:30Z</time>
      </trkpt>
      <trkpt lat="48.59622" lon="6.32372">
        <ele>274</ele>
        <time>2017-12-23T18:53:33Z</time>
      </trkpt>
      <trkpt lat="48.59644" lon="6.32385">
        <ele>273</ele>
        <time>2017-12-23T18:53:39Z</time>
      </trkpt>
      <trkpt lat="48.59648" lon="6.32387">
        <ele>273</ele>
        <time>2017-12-23T18:53:40Z</time>
      </trkpt>
      <trkpt lat="48.59672" lon="6.32401">
        <ele>273</ele>
        <time>2017-12-23T18:53:46Z</time>
      </trkpt>
      <trkpt lat="48.5968" lon="6.32409">
        <ele>273</ele>
        <time>2017-12-23T18:53:48Z</time>
      </trkpt>
      <trkpt lat="48.59692" lon="6.32421">
        <ele>272</ele>
        <time>2017-12-23T18:53:51Z</time>
      </trkpt>
      <trkpt lat="48.59707" lon="6.32432">
        <ele>272</ele>
        <time>2017-12-23T18:53:55Z</time>
      </trkpt>
      <trkpt lat="48.59714" lon="6.32433">
        <ele>272</ele>
        <time>2017-12-23T18:53:57Z</time>
      </trkpt>
      <trkpt lat="48.59727" lon="6.32423">
        <ele>273</ele>
        <time>2017-12-23T18:54:00Z</time>
      </trkpt>
      <trkpt lat="48.59755" lon="6.32406">
        <ele>273</ele>
        <time>2017-12-23T18:54:07Z</time>
      </trkpt>
      <trkpt lat="48.59782" lon="6.32387">
        <ele>272</ele>
        <time>2017-12-23T18:54:14Z</time>
      </trkpt>
      <trkpt lat="48.59803" lon="6.32373">
        <ele>272</ele>
        <time>2017-12-23T18:54:18Z</time>
      </trkpt>
      <trkpt lat="48.59814" lon="6.32366">
        <ele>272</ele>
        <time>2017-12-23T18:54:20Z</time>
      </trkpt>
      <trkpt lat="48.59831" lon="6.32352">
        <ele>272</ele>
        <time>2017-12-23T18:54:23Z</time>
      </trkpt>
      <trkpt lat="48.59849" lon="6.3233">
        <ele>270</ele>
        <time>2017-12-23T18:54:26Z</time>
      </trkpt>
      <trkpt lat="48.59855" lon="6.32324">
        <ele>269</ele>
        <time>2017-12-23T18:54:27Z</time>
      </trkpt>
      <trkpt lat="48.59867" lon="6.32312">
        <ele>269</ele>
        <time>2017-12-23T18:54:29Z</time>
      </trkpt>
      <trkpt lat="48.59882" lon="6.32293">
        <ele>268</ele>
        <time>2017-12-23T18:54:33Z</time>
      </trkpt>
      <trkpt lat="48.59887" lon="6.3229">
        <ele>268</ele>
        <time>2017-12-23T18:54:34Z</time>
      </trkpt>
      <trkpt lat="48.59891" lon="6.32287">
        <ele>268</ele>
        <time>2017-12-23T18:54:35Z</time>
      </trkpt>
      <trkpt lat="48.59897" lon="6.32269">
        <ele>268</ele>
        <time>2017-12-23T18:54:38Z</time>
      </trkpt>
      <trkpt lat="48.59916" lon="6.32234">
        <ele>268</ele>
        <time>2017-12-23T18:54:44Z</time>
      </trkpt>
      <trkpt lat="48.59957" lon="6.32177">
        <ele>269</ele>
        <time>2017-12-23T18:54:55Z</time>
      </trkpt>
      <trkpt lat="48.5996" lon="6.32173">
        <ele>269</ele>
        <time>2017-12-23T18:54:56Z</time>
      </trkpt>
      <trkpt lat="48.59971" lon="6.3216">
        <ele>271</ele>
        <time>2017-12-23T18:54:59Z</time>
      </trkpt>
      <trkpt lat="48.59993" lon="6.32144">
        <ele>271</ele>
        <time>2017-12-23T18:55:05Z</time>
      </trkpt>
      <trkpt lat="48.60006" lon="6.32137">
        <ele>272</ele>
        <time>2017-12-23T18:55:08Z</time>
      </trkpt>
      <trkpt lat="48.60017" lon="6.32129">
        <ele>272</ele>
        <time>2017-12-23T18:55:11Z</time>
      </trkpt>
      <trkpt lat="48.60027" lon="6.32122">
        <ele>272</ele>
        <time>2017-12-23T18:55:14Z</time>
      </trkpt>
      <trkpt lat="48.60036" lon="6.32114">
        <ele>273</ele>
        <time>2017-12-23T18:55:17Z</time>
      </trkpt>
      <trkpt lat="48.60045" lon="6.32103">
        <ele>273</ele>
        <time>2017-12-23T18:55:21Z</time>
      </trkpt>
      <trkpt lat="48.60057" lon="6.3209">
        <ele>273</ele>
        <time>2017-12-23T18:55:25Z</time>
      </trkpt>
      <trkpt lat="48.60086" lon="6.32057">
        <ele>277</ele>
        <time>2017-12-23T18:55:35Z</time>
      </trkpt>
      <trkpt lat="48.60136" lon="6.32021">
        <ele>278</ele>
        <time>2017-12-23T18:55:48Z</time>
      </trkpt>
      <trkpt lat="48.6015" lon="6.32012">
        <ele>279</ele>
        <time>2017-12-23T18:55:52Z</time>
      </trkpt>
      <trkpt lat="48.6017" lon="6.31992">
        <ele>282</ele>
        <time>2017-12-23T18:55:58Z</time>
      </trkpt>
      <trkpt lat="48.60188" lon="6.31976">
        <ele>284</ele>
        <time>2017-12-23T18:56:04Z</time>
      </trkpt>
      <trkpt lat="48.602" lon="6.31969">
        <ele>285</ele>
        <time>2017-12-23T18:56:09Z</time>
      </trkpt>
      <trkpt lat="48.60213" lon="6.31969">
        <ele>285</ele>
        <time>2017-12-23T18:56:13Z</time>
      </trkpt>
      <trkpt lat="48.60227" lon="6.31966">
        <ele>286</ele>
        <time>2017-12-23T18:56:18Z</time>
      </trkpt>
      <trkpt lat="48.60238" lon="6.31965">
        <ele>286</ele>
        <time>2017-12-23T18:56:22Z</time>
      </trkpt>
      <trkpt lat="48.60251" lon="6.31969">
        <ele>290</ele>
        <time>2017-12-23T18:56:28Z</time>
      </trkpt>
      <trkpt lat="48.60257" lon="6.31972">
        <ele>290</ele>
        <time>2017-12-23T18:56:31Z</time>
      </trkpt>
      <trkpt lat="48.60267" lon="6.31976">
        <ele>290</ele>
        <time>2017-12-23T18:56:35Z</time>
      </trkpt>
      <trkpt lat="48.60277" lon="6.31982">
        <ele>290</ele>
        <time>2017-12-23T18:56:41Z</time>
      </trkpt>
      <trkpt lat="48.60285" lon="6.31991">
        <ele>291</ele>
        <time>2017-12-23T18:56:45Z</time>
      </trkpt>
      <trkpt lat="48.60291" lon="6.31997">
        <ele>291</ele>
        <time>2017-12-23T18:56:48Z</time>
      </trkpt>
      <trkpt lat="48.6031" lon="6.32014">
        <ele>289</ele>
        <time>2017-12-23T18:56:56Z</time>
      </trkpt>
      <trkpt lat="48.60316" lon="6.32017">
        <ele>289</ele>
        <time>2017-12-23T18:56:58Z</time>
      </trkpt>
      <trkpt lat="48.60334" lon="6.32028">
        <ele>295</ele>
        <time>2017-12-23T18:57:04Z</time>
      </trkpt>
      <trkpt lat="48.60341" lon="6.32033">
        <ele>295</ele>
        <time>2017-12-23T18:57:07Z</time>
      </trkpt>
      <trkpt lat="48.6035" lon="6.32044">
        <ele>295</ele>
        <time>2017-12-23T18:57:12Z</time>
      </trkpt>
      <trkpt lat="48.60352" lon="6.32046">
        <ele>295</ele>
        <time>2017-12-23T18:57:13Z</time>
      </trkpt>
      <trkpt lat="48.60355" lon="6.32047">
        <ele>295</ele>
        <time>2017-12-23T18:57:14Z</time>
      </trkpt>
      <trkpt lat="48.6037" lon="6.32062">
        <ele>295</ele>
        <time>2017-12-23T18:57:21Z</time>
      </trkpt>
      <trkpt lat="48.60376" lon="6.32066">
        <ele>295</ele>
        <time>2017-12-23T18:57:23Z</time>
      </trkpt>
      <trkpt lat="48.60378" lon="6.32068">
        <ele>296</ele>
        <time>2017-12-23T18:57:24Z</time>
      </trkpt>
      <trkpt lat="48.60396" lon="6.32082">
        <ele>297</ele>
        <time>2017-12-23T18:57:30Z</time>
      </trkpt>
      <trkpt lat="48.60404" lon="6.32088">
        <ele>295</ele>
        <time>2017-12-23T18:57:33Z</time>
      </trkpt>
      <trkpt lat="48.60412" lon="6.32096">
        <ele>296</ele>
        <time>2017-12-23T18:57:36Z</time>
      </trkpt>
      <trkpt lat="48.60425" lon="6.32113">
        <ele>298</ele>
        <time>2017-12-23T18:57:41Z</time>
      </trkpt>
      <trkpt lat="48.60428" lon="6.32117">
        <ele>298</ele>
        <time>2017-12-23T18:57:43Z</time>
      </trkpt>
      <trkpt lat="48.60432" lon="6.32116">
        <ele>298</ele>
        <time>2017-12-23T18:57:45Z</time>
      </trkpt>
      <trkpt lat="48.60435" lon="6.32115">
        <ele>298</ele>
        <time>2017-12-23T18:57:46Z</time>
      </trkpt>
      <trkpt lat="48.60439" lon="6.32109">
        <ele>298</ele>
        <time>2017-12-23T18:57:48Z</time>
      </trkpt>
      <trkpt lat="48.60444" lon="6.32102">
        <ele>299</ele>
        <time>2017-12-23T18:57:51Z</time>
      </trkpt>
      <trkpt lat="48.60453" lon="6.3209">
        <ele>299</ele>
        <time>2017-12-23T18:57:55Z</time>
      </trkpt>
      <trkpt lat="48.60455" lon="6.32087">
        <ele>299</ele>
        <time>2017-12-23T18:57:56Z</time>
      </trkpt>
      <trkpt lat="48.60463" lon="6.32073">
        <ele>301</ele>
        <time>2017-12-23T18:58:00Z</time>
      </trkpt>
      <trkpt lat="48.60471" lon="6.32062">
        <ele>301</ele>
        <time>2017-12-23T18:58:03Z</time>
      </trkpt>
      <trkpt lat="48.60485" lon="6.32023">
        <ele>301</ele>
        <time>2017-12-23T18:58:13Z</time>
      </trkpt>
      <trkpt lat="48.60487" lon="6.32014">
        <ele>302</ele>
        <time>2017-12-23T18:58:15Z</time>
      </trkpt>
      <trkpt lat="48.60489" lon="6.3201">
        <ele>302</ele>
        <time>2017-12-23T18:58:16Z</time>
      </trkpt>
      <trkpt lat="48.6049" lon="6.32005">
        <ele>302</ele>
        <time>2017-12-23T18:58:17Z</time>
      </trkpt>
      <trkpt lat="48.60492" lon="6.31996">
        <ele>302</ele>
        <time>2017-12-23T18:58:19Z</time>
      </trkpt>
      <trkpt lat="48.6052" lon="6.32043">
        <ele>301</ele>
        <time>2017-12-23T19:05:03Z</time>
      </trkpt>
      <trkpt lat="48.60527" lon="6.3206">
        <ele>300</ele>
        <time>2017-12-23T19:05:07Z</time>
      </trkpt>
      <trkpt lat="48.60545" lon="6.32138">
        <ele>301</ele>
        <time>2017-12-23T19:05:22Z</time>
      </trkpt>
      <trkpt lat="48.60549" lon="6.32149">
        <ele>302</ele>
        <time>2017-12-23T19:05:24Z</time>
      </trkpt>
      <trkpt lat="48.60555" lon="6.32166">
        <ele>302</ele>
        <time>2017-12-23T19:05:27Z</time>
      </trkpt>
      <trkpt lat="48.60562" lon="6.322">
        <ele>302</ele>
        <time>2017-12-23T19:05:33Z</time>
      </trkpt>
      <trkpt lat="48.60569" lon="6.3222">
        <ele>302</ele>
        <time>2017-12-23T19:05:37Z</time>
      </trkpt>
      <trkpt lat="48.60572" lon="6.32231">
        <ele>302</ele>
        <time>2017-12-23T19:05:39Z</time>
      </trkpt>
      <trkpt lat="48.60577" lon="6.32244">
        <ele>302</ele>
        <time>2017-12-23T19:05:41Z</time>
      </trkpt>
      <trkpt lat="48.60588" lon="6.32275">
        <ele>299</ele>
        <time>2017-12-23T19:05:46Z</time>
      </trkpt>
      <trkpt lat="48.60589" lon="6.3229">
        <ele>298</ele>
        <time>2017-12-23T19:05:48Z</time>
      </trkpt>
      <trkpt lat="48.6059" lon="6.32309">
        <ele>298</ele>
        <time>2017-12-23T19:05:51Z</time>
      </trkpt>
      <trkpt lat="48.60594" lon="6.32316">
        <ele>298</ele>
        <time>2017-12-23T19:05:53Z</time>
      </trkpt>
      <trkpt lat="48.60595" lon="6.32319">
        <ele>298</ele>
        <time>2017-12-23T19:05:54Z</time>
      </trkpt>
      <trkpt lat="48.60614" lon="6.32357">
        <ele>294</ele>
        <time>2017-12-23T19:06:15Z</time>
      </trkpt>
      <trkpt lat="48.60623" lon="6.32375">
        <ele>293</ele>
        <time>2017-12-23T19:06:25Z</time>
      </trkpt>
      <trkpt lat="48.60632" lon="6.32395">
        <ele>292</ele>
        <time>2017-12-23T19:06:41Z</time>
      </trkpt>
      <trkpt lat="48.60635" lon="6.32406">
        <ele>292</ele>
        <time>2017-12-23T19:06:45Z</time>
      </trkpt>
      <trkpt lat="48.6064" lon="6.32415">
        <ele>291</ele>
        <time>2017-12-23T19:06:49Z</time>
      </trkpt>
      <trkpt lat="48.60644" lon="6.32426">
        <ele>289</ele>
        <time>2017-12-23T19:06:53Z</time>
      </trkpt>
      <trkpt lat="48.60648" lon="6.32443">
        <ele>289</ele>
        <time>2017-12-23T19:06:59Z</time>
      </trkpt>
      <trkpt lat="48.60651" lon="6.32449">
        <ele>289</ele>
        <time>2017-12-23T19:07:02Z</time>
      </trkpt>
      <trkpt lat="48.60653" lon="6.32453">
        <ele>289</ele>
        <time>2017-12-23T19:07:04Z</time>
      </trkpt>
      <trkpt lat="48.60658" lon="6.32464">
        <ele>289</ele>
        <time>2017-12-23T19:07:14Z</time>
      </trkpt>
      <trkpt lat="48.6066" lon="6.32467">
        <ele>288</ele>
        <time>2017-12-23T19:07:24Z</time>
      </trkpt>
      <trkpt lat="48.60663" lon="6.3247">
        <ele>288</ele>
        <time>2017-12-23T19:07:26Z</time>
      </trkpt>
      <trkpt lat="48.60667" lon="6.32477">
        <ele>288</ele>
        <time>2017-12-23T19:07:30Z</time>
      </trkpt>
      <trkpt lat="48.60669" lon="6.32483">
        <ele>284</ele>
        <time>2017-12-23T19:07:33Z</time>
      </trkpt>
      <trkpt lat="48.60669" lon="6.32488">
        <ele>284</ele>
        <time>2017-12-23T19:07:35Z</time>
      </trkpt>
      <trkpt lat="48.60671" lon="6.32493">
        <ele>285</ele>
        <time>2017-12-23T19:07:38Z</time>
      </trkpt>
      <trkpt lat="48.60673" lon="6.32498">
        <ele>285</ele>
        <time>2017-12-23T19:07:41Z</time>
      </trkpt>
      <trkpt lat="48.60674" lon="6.325">
        <ele>285</ele>
        <time>2017-12-23T19:07:42Z</time>
      </trkpt>
      <trkpt lat="48.60677" lon="6.32512">
        <ele>283</ele>
        <time>2017-12-23T19:07:49Z</time>
      </trkpt>
      <trkpt lat="48.60677" lon="6.32516">
        <ele>282</ele>
        <time>2017-12-23T19:07:52Z</time>
      </trkpt>
      <trkpt lat="48.60679" lon="6.32524">
        <ele>281</ele>
        <time>2017-12-23T19:07:55Z</time>
      </trkpt>
      <trkpt lat="48.60681" lon="6.32529">
        <ele>281</ele>
        <time>2017-12-23T19:07:58Z</time>
      </trkpt>
      <trkpt lat="48.60684" lon="6.32543">
        <ele>280</ele>
        <time>2017-12-23T19:08:05Z</time>
      </trkpt>
      <trkpt lat="48.60684" lon="6.32546">
        <ele>280</ele>
        <time>2017-12-23T19:08:11Z</time>
      </trkpt>
      <trkpt lat="48.60687" lon="6.32553">
        <ele>279</ele>
        <time>2017-12-23T19:08:14Z</time>
      </trkpt>
      <trkpt lat="48.60691" lon="6.3256">
        <ele>279</ele>
        <time>2017-12-23T19:08:17Z</time>
      </trkpt>
      <trkpt lat="48.60696" lon="6.32579">
        <ele>279</ele>
        <time>2017-12-23T19:08:23Z</time>
      </trkpt>
      <trkpt lat="48.60701" lon="6.3259">
        <ele>277</ele>
        <time>2017-12-23T19:08:26Z</time>
      </trkpt>
      <trkpt lat="48.60707" lon="6.32606">
        <ele>276</ele>
        <time>2017-12-23T19:08:30Z</time>
      </trkpt>
      <trkpt lat="48.60717" lon="6.32642">
        <ele>275</ele>
        <time>2017-12-23T19:08:36Z</time>
      </trkpt>
      <trkpt lat="48.6072" lon="6.32652">
        <ele>274</ele>
        <time>2017-12-23T19:08:38Z</time>
      </trkpt>
      <trkpt lat="48.60734" lon="6.32693">
        <ele>272</ele>
        <time>2017-12-23T19:08:45Z</time>
      </trkpt>
      <trkpt lat="48.60737" lon="6.32699">
        <ele>272</ele>
        <time>2017-12-23T19:08:46Z</time>
      </trkpt>
      <trkpt lat="48.60742" lon="6.32711">
        <ele>272</ele>
        <time>2017-12-23T19:08:48Z</time>
      </trkpt>
      <trkpt lat="48.60749" lon="6.32722">
        <ele>271</ele>
        <time>2017-12-23T19:08:50Z</time>
      </trkpt>
      <trkpt lat="48.60759" lon="6.32736">
        <ele>267</ele>
        <time>2017-12-23T19:08:53Z</time>
      </trkpt>
      <trkpt lat="48.60771" lon="6.32749">
        <ele>267</ele>
        <time>2017-12-23T19:08:57Z</time>
      </trkpt>
      <trkpt lat="48.6078" lon="6.32759">
        <ele>266</ele>
        <time>2017-12-23T19:09:00Z</time>
      </trkpt>
      <trkpt lat="48.60789" lon="6.32773">
        <ele>266</ele>
        <time>2017-12-23T19:09:04Z</time>
      </trkpt>
      <trkpt lat="48.60795" lon="6.32796">
        <ele>265</ele>
        <time>2017-12-23T19:09:10Z</time>
      </trkpt>
      <trkpt lat="48.6081" lon="6.32829">
        <ele>264</ele>
        <time>2017-12-23T19:09:19Z</time>
      </trkpt>
      <trkpt lat="48.60818" lon="6.32844">
        <ele>263</ele>
        <time>2017-12-23T19:09:23Z</time>
      </trkpt>
      <trkpt lat="48.60826" lon="6.32858">
        <ele>263</ele>
        <time>2017-12-23T19:09:27Z</time>
      </trkpt>
      <trkpt lat="48.60832" lon="6.32863">
        <ele>263</ele>
        <time>2017-12-23T19:09:29Z</time>
      </trkpt>
      <trkpt lat="48.60839" lon="6.32867">
        <ele>259</ele>
        <time>2017-12-23T19:09:31Z</time>
      </trkpt>
      <trkpt lat="48.60858" lon="6.32875">
        <ele>258</ele>
        <time>2017-12-23T19:09:37Z</time>
      </trkpt>
      <trkpt lat="48.60876" lon="6.32876">
        <ele>257</ele>
        <time>2017-12-23T19:09:44Z</time>
      </trkpt>
      <trkpt lat="48.60888" lon="6.32881">
        <ele>257</ele>
        <time>2017-12-23T19:09:50Z</time>
      </trkpt>
      <trkpt lat="48.60897" lon="6.32883">
        <ele>256</ele>
        <time>2017-12-23T19:09:53Z</time>
      </trkpt>
      <trkpt lat="48.60902" lon="6.32882">
        <ele>256</ele>
        <time>2017-12-23T19:09:57Z</time>
      </trkpt>
      <trkpt lat="48.60905" lon="6.32884">
        <ele>256</ele>
        <time>2017-12-23T19:10:03Z</time>
      </trkpt>
      <trkpt lat="48.60913" lon="6.32886">
        <ele>255</ele>
        <time>2017-12-23T19:10:06Z</time>
      </trkpt>
      <trkpt lat="48.60928" lon="6.32889">
        <ele>251</ele>
        <time>2017-12-23T19:10:11Z</time>
      </trkpt>
      <trkpt lat="48.60943" lon="6.3289">
        <ele>250</ele>
        <time>2017-12-23T19:10:17Z</time>
      </trkpt>
      <trkpt lat="48.60957" lon="6.32891">
        <ele>249</ele>
        <time>2017-12-23T19:10:23Z</time>
      </trkpt>
      <trkpt lat="48.60973" lon="6.32891">
        <ele>249</ele>
        <time>2017-12-23T19:10:28Z</time>
      </trkpt>
      <trkpt lat="48.60991" lon="6.32888">
        <ele>248</ele>
        <time>2017-12-23T19:10:34Z</time>
      </trkpt>
      <trkpt lat="48.61001" lon="6.32884">
        <ele>245</ele>
        <time>2017-12-23T19:10:38Z</time>
      </trkpt>
      <trkpt lat="48.61024" lon="6.32875">
        <ele>244</ele>
        <time>2017-12-23T19:10:47Z</time>
      </trkpt>
      <trkpt lat="48.61039" lon="6.32871">
        <ele>244</ele>
        <time>2017-12-23T19:10:52Z</time>
      </trkpt>
      <trkpt lat="48.61043" lon="6.32874">
        <ele>244</ele>
        <time>2017-12-23T19:10:54Z</time>
      </trkpt>
      <trkpt lat="48.61047" lon="6.32881">
        <ele>244</ele>
        <time>2017-12-23T19:10:56Z</time>
      </trkpt>
      <trkpt lat="48.6105" lon="6.32891">
        <ele>244</ele>
        <time>2017-12-23T19:10:59Z</time>
      </trkpt>
      <trkpt lat="48.61056" lon="6.32913">
        <ele>243</ele>
        <time>2017-12-23T19:11:03Z</time>
      </trkpt>
      <trkpt lat="48.61059" lon="6.32924">
        <ele>242</ele>
        <time>2017-12-23T19:11:05Z</time>
      </trkpt>
      <trkpt lat="48.61065" lon="6.32939">
        <ele>242</ele>
        <time>2017-12-23T19:11:08Z</time>
      </trkpt>
      <trkpt lat="48.61074" lon="6.32958">
        <ele>241</ele>
        <time>2017-12-23T19:11:12Z</time>
      </trkpt>
      <trkpt lat="48.61086" lon="6.32973">
        <ele>236</ele>
        <time>2017-12-23T19:11:17Z</time>
      </trkpt>
      <trkpt lat="48.61096" lon="6.32987">
        <ele>236</ele>
        <time>2017-12-23T19:11:21Z</time>
      </trkpt>
      <trkpt lat="48.61101" lon="6.32993">
        <ele>236</ele>
        <time>2017-12-23T19:11:23Z</time>
      </trkpt>
      <trkpt lat="48.61104" lon="6.32994">
        <ele>236</ele>
        <time>2017-12-23T19:11:24Z</time>
      </trkpt>
      <trkpt lat="48.61111" lon="6.32993">
        <ele>236</ele>
        <time>2017-12-23T19:11:26Z</time>
      </trkpt>
      <trkpt lat="48.61122" lon="6.32983">
        <ele>235</ele>
        <time>2017-12-23T19:11:29Z</time>
      </trkpt>
      <trkpt lat="48.61125" lon="6.32979">
        <ele>235</ele>
        <time>2017-12-23T19:11:30Z</time>
      </trkpt>
      <trkpt lat="48.6113" lon="6.3297">
        <ele>235</ele>
        <time>2017-12-23T19:11:32Z</time>
      </trkpt>
      <trkpt lat="48.61136" lon="6.3296">
        <ele>235</ele>
        <time>2017-12-23T19:11:34Z</time>
      </trkpt>
      <trkpt lat="48.61144" lon="6.32954">
        <ele>235</ele>
        <time>2017-12-23T19:11:36Z</time>
      </trkpt>
      <trkpt lat="48.61161" lon="6.32957">
        <ele>234</ele>
        <time>2017-12-23T19:11:39Z</time>
      </trkpt>
      <trkpt lat="48.6117" lon="6.32958">
        <ele>230</ele>
        <time>2017-12-23T19:11:41Z</time>
      </trkpt>
      <trkpt lat="48.61187" lon="6.32984">
        <ele>229</ele>
        <time>2017-12-23T19:11:47Z</time>
      </trkpt>
      <trkpt lat="48.61203" lon="6.32986">
        <ele>228</ele>
        <time>2017-12-23T19:11:49Z</time>
      </trkpt>
      <trkpt lat="48.61218" lon="6.32989">
        <ele>226</ele>
        <time>2017-12-23T19:11:52Z</time>
      </trkpt>
      <trkpt lat="48.61223" lon="6.3299">
        <ele>226</ele>
        <time>2017-12-23T19:11:53Z</time>
      </trkpt>
      <trkpt lat="48.61258" lon="6.32995">
        <ele>221</ele>
        <time>2017-12-23T19:11:59Z</time>
      </trkpt>
      <trkpt lat="48.61265" lon="6.32998">
        <ele>221</ele>
        <time>2017-12-23T19:12:00Z</time>
      </trkpt>
      <trkpt lat="48.61271" lon="6.33002">
        <ele>219</ele>
        <time>2017-12-23T19:12:01Z</time>
      </trkpt>
      <trkpt lat="48.61277" lon="6.33006">
        <ele>219</ele>
        <time>2017-12-23T19:12:02Z</time>
      </trkpt>
      <trkpt lat="48.61283" lon="6.33011">
        <ele>219</ele>
        <time>2017-12-23T19:12:03Z</time>
      </trkpt>
      <trkpt lat="48.61288" lon="6.33016">
        <ele>219</ele>
        <time>2017-12-23T19:12:04Z</time>
      </trkpt>
      <trkpt lat="48.61297" lon="6.33026">
        <ele>219</ele>
        <time>2017-12-23T19:12:06Z</time>
      </trkpt>
      <trkpt lat="48.61302" lon="6.33051">
        <ele>219</ele>
        <time>2017-12-23T19:12:11Z</time>
      </trkpt>
      <trkpt lat="48.6131" lon="6.33068">
        <ele>219</ele>
        <time>2017-12-23T19:12:21Z</time>
      </trkpt>
      <trkpt lat="48.61303" lon="6.33081">
        <ele>219</ele>
        <time>2017-12-23T19:12:27Z</time>
      </trkpt>
      <trkpt lat="48.61297" lon="6.33089">
        <ele>220</ele>
        <time>2017-12-23T19:12:29Z</time>
      </trkpt>
      <trkpt lat="48.61257" lon="6.33153">
        <ele>217</ele>
        <time>2017-12-23T19:12:42Z</time>
      </trkpt>
      <trkpt lat="48.61254" lon="6.33159">
        <ele>216</ele>
        <time>2017-12-23T19:12:43Z</time>
      </trkpt>
      <trkpt lat="48.61222" lon="6.33225">
        <ele>210</ele>
        <time>2017-12-23T19:12:54Z</time>
      </trkpt>
      <trkpt lat="48.61212" lon="6.3325">
        <ele>208</ele>
        <time>2017-12-23T19:12:58Z</time>
      </trkpt>
      <trkpt lat="48.61184" lon="6.33322">
        <ele>207</ele>
        <time>2017-12-23T19:13:09Z</time>
      </trkpt>
      <trkpt lat="48.61171" lon="6.33354">
        <ele>207</ele>
        <time>2017-12-23T19:13:14Z</time>
      </trkpt>
      <trkpt lat="48.61158" lon="6.33388">
        <ele>206</ele>
        <time>2017-12-23T19:13:19Z</time>
      </trkpt>
      <trkpt lat="48.61136" lon="6.33445">
        <ele>206</ele>
        <time>2017-12-23T19:13:28Z</time>
      </trkpt>
      <trkpt lat="48.61119" lon="6.33491">
        <ele>206</ele>
        <time>2017-12-23T19:13:35Z</time>
      </trkpt>
      <trkpt lat="48.61089" lon="6.33567">
        <ele>204</ele>
        <time>2017-12-23T19:13:47Z</time>
      </trkpt>
      <trkpt lat="48.61079" lon="6.33591">
        <ele>204</ele>
        <time>2017-12-23T19:13:51Z</time>
      </trkpt>
      <trkpt lat="48.61056" lon="6.33651">
        <ele>205</ele>
        <time>2017-12-23T19:14:02Z</time>
      </trkpt>
      <trkpt lat="48.61052" lon="6.3366">
        <ele>206</ele>
        <time>2017-12-23T19:14:11Z</time>
      </trkpt>
      <trkpt lat="48.61047" lon="6.33677">
        <ele>206</ele>
        <time>2017-12-23T19:14:33Z</time>
      </trkpt>
      <trkpt lat="48.61038" lon="6.33698">
        <ele>206</ele>
        <time>2017-12-23T19:14:37Z</time>
      </trkpt>
      <trkpt lat="48.61033" lon="6.3371">
        <ele>206</ele>
        <time>2017-12-23T19:14:39Z</time>
      </trkpt>
      <trkpt lat="48.61029" lon="6.33722">
        <ele>206</ele>
        <time>2017-12-23T19:14:41Z</time>
      </trkpt>
      <trkpt lat="48.61024" lon="6.33735">
        <ele>206</ele>
        <time>2017-12-23T19:14:43Z</time>
      </trkpt>
      <trkpt lat="48.61021" lon="6.33742">
        <ele>206</ele>
        <time>2017-12-23T19:14:44Z</time>
      </trkpt>
      <trkpt lat="48.61019" lon="6.33748">
        <ele>206</ele>
        <time>2017-12-23T19:14:45Z</time>
      </trkpt>
      <trkpt lat="48.61017" lon="6.33754">
        <ele>206</ele>
        <time>2017-12-23T19:14:46Z</time>
      </trkpt>
      <trkpt lat="48.61014" lon="6.3376">
        <ele>206</ele>
        <time>2017-12-23T19:14:47Z</time>
      </trkpt>
      <trkpt lat="48.61008" lon="6.3378">
        <ele>206</ele>
        <time>2017-12-23T19:14:50Z</time>
      </trkpt>
      <trkpt lat="48.61005" lon="6.33787">
        <ele>206</ele>
        <time>2017-12-23T19:14:51Z</time>
      </trkpt>
      <trkpt lat="48.60983" lon="6.33862">
        <ele>208</ele>
        <time>2017-12-23T19:15:02Z</time>
      </trkpt>
      <trkpt lat="48.60977" lon="6.33889">
        <ele>209</ele>
        <time>2017-12-23T19:15:06Z</time>
      </trkpt>
      <trkpt lat="48.60966" lon="6.33948">
        <ele>213</ele>
        <time>2017-12-23T19:15:17Z</time>
      </trkpt>
      <trkpt lat="48.60963" lon="6.33973">
        <ele>214</ele>
        <time>2017-12-23T19:15:26Z</time>
      </trkpt>
      <trkpt lat="48.60964" lon="6.33965">
        <ele>214</ele>
        <time>2017-12-23T19:15:34Z</time>
      </trkpt>
      <trkpt lat="48.60972" lon="6.33908">
        <ele>210</ele>
        <time>2017-12-23T19:15:46Z</time>
      </trkpt>
      <trkpt lat="48.60973" lon="6.33902">
        <ele>209</ele>
        <time>2017-12-23T19:15:47Z</time>
      </trkpt>
      <trkpt lat="48.60976" lon="6.3389">
        <ele>209</ele>
        <time>2017-12-23T19:15:49Z</time>
      </trkpt>
      <trkpt lat="48.60979" lon="6.33878">
        <ele>209</ele>
        <time>2017-12-23T19:15:51Z</time>
      </trkpt>
      <trkpt lat="48.60983" lon="6.33859">
        <ele>208</ele>
        <time>2017-12-23T19:15:54Z</time>
      </trkpt>
      <trkpt lat="48.61004" lon="6.33784">
        <ele>206</ele>
        <time>2017-12-23T19:16:07Z</time>
      </trkpt>
      <trkpt lat="48.61011" lon="6.33763">
        <ele>206</ele>
        <time>2017-12-23T19:16:11Z</time>
      </trkpt>
      <trkpt lat="48.61038" lon="6.33692">
        <ele>206</ele>
        <time>2017-12-23T19:16:27Z</time>
      </trkpt>
      <trkpt lat="48.61053" lon="6.33656">
        <ele>205</ele>
        <time>2017-12-23T19:16:44Z</time>
      </trkpt>
      <trkpt lat="48.61053" lon="6.33656">
        <ele>205</ele>
        <time>2017-12-23T19:16:46Z</time>
      </trkpt>
      <trkpt lat="48.61071" lon="6.3364">
        <ele>205</ele>
        <time>2017-12-23T19:17:34Z</time>
      </trkpt>
      <trkpt lat="48.61072" lon="6.33638">
        <ele>205</ele>
        <time>2017-12-23T19:17:39Z</time>
      </trkpt>
      <trkpt lat="48.61065" lon="6.33631">
        <ele>205</ele>
        <time>2017-12-23T19:17:43Z</time>
      </trkpt>
      <trkpt lat="48.61053" lon="6.33631">
        <ele>205</ele>
        <time>2017-12-23T19:17:46Z</time>
      </trkpt>
      <trkpt lat="48.61019" lon="6.33611">
        <ele>205</ele>
        <time>2017-12-23T19:17:57Z</time>
      </trkpt>
      <trkpt lat="48.61011" lon="6.33607">
        <ele>205</ele>
        <time>2017-12-23T19:17:59Z</time>
      </trkpt>
      <trkpt lat="48.61008" lon="6.33605">
        <ele>206</ele>
        <time>2017-12-23T19:18:00Z</time>
      </trkpt>
      <trkpt lat="48.61004" lon="6.33603">
        <ele>206</ele>
        <time>2017-12-23T19:18:01Z</time>
      </trkpt>
      <trkpt lat="48.61001" lon="6.33601">
        <ele>206</ele>
        <time>2017-12-23T19:18:02Z</time>
      </trkpt>
      <trkpt lat="48.60993" lon="6.33597">
        <ele>206</ele>
        <time>2017-12-23T19:18:04Z</time>
      </trkpt>
      <trkpt lat="48.6099" lon="6.33595">
        <ele>206</ele>
        <time>2017-12-23T19:18:05Z</time>
      </trkpt>
      <trkpt lat="48.60987" lon="6.33593">
        <ele>206</ele>
        <time>2017-12-23T19:18:06Z</time>
      </trkpt>
      <trkpt lat="48.60984" lon="6.33591">
        <ele>206</ele>
        <time>2017-12-23T19:18:07Z</time>
      </trkpt>
      <trkpt lat="48.60978" lon="6.33588">
        <ele>206</ele>
        <time>2017-12-23T19:18:09Z</time>
      </trkpt>
      <trkpt lat="48.60962" lon="6.33578">
        <ele>205</ele>
        <time>2017-12-23T19:18:14Z</time>
      </trkpt>
      <trkpt lat="48.60958" lon="6.33576">
        <ele>205</ele>
        <time>2017-12-23T19:18:15Z</time>
      </trkpt>
      <trkpt lat="48.60955" lon="6.33574">
        <ele>205</ele>
        <time>2017-12-23T19:18:16Z</time>
      </trkpt>
      <trkpt lat="48.60951" lon="6.33572">
        <ele>205</ele>
        <time>2017-12-23T19:18:17Z</time>
      </trkpt>
      <trkpt lat="48.60947" lon="6.33571">
        <ele>205</ele>
        <time>2017-12-23T19:18:18Z</time>
      </trkpt>
      <trkpt lat="48.60943" lon="6.33571">
        <ele>205</ele>
        <time>2017-12-23T19:18:19Z</time>
      </trkpt>
      <trkpt lat="48.60939" lon="6.33572">
        <ele>205</ele>
        <time>2017-12-23T19:18:20Z</time>
      </trkpt>
      <trkpt lat="48.60936" lon="6.33574">
        <ele>205</ele>
        <time>2017-12-23T19:18:21Z</time>
      </trkpt>
      <trkpt lat="48.60932" lon="6.33577">
        <ele>205</ele>
        <time>2017-12-23T19:18:22Z</time>
      </trkpt>
      <trkpt lat="48.60922" lon="6.33585">
        <ele>206</ele>
        <time>2017-12-23T19:18:25Z</time>
      </trkpt>
      <trkpt lat="48.60918" lon="6.33588">
        <ele>206</ele>
        <time>2017-12-23T19:18:26Z</time>
      </trkpt>
      <trkpt lat="48.60912" lon="6.33595">
        <ele>206</ele>
        <time>2017-12-23T19:18:28Z</time>
      </trkpt>
      <trkpt lat="48.60898" lon="6.33607">
        <ele>205</ele>
        <time>2017-12-23T19:18:32Z</time>
      </trkpt>
      <trkpt lat="48.60895" lon="6.33611">
        <ele>205</ele>
        <time>2017-12-23T19:18:33Z</time>
      </trkpt>
      <trkpt lat="48.60876" lon="6.33633">
        <ele>205</ele>
        <time>2017-12-23T19:18:40Z</time>
      </trkpt>
      <trkpt lat="48.60873" lon="6.33637">
        <ele>205</ele>
        <time>2017-12-23T19:18:41Z</time>
      </trkpt>
      <trkpt lat="48.6087" lon="6.33641">
        <ele>205</ele>
        <time>2017-12-23T19:18:42Z</time>
      </trkpt>
      <trkpt lat="48.60859" lon="6.33653">
        <ele>205</ele>
        <time>2017-12-23T19:18:45Z</time>
      </trkpt>
      <trkpt lat="48.60855" lon="6.33657">
        <ele>205</ele>
        <time>2017-12-23T19:18:46Z</time>
      </trkpt>
      <trkpt lat="48.60821" lon="6.33693">
        <ele>205</ele>
        <time>2017-12-23T19:18:56Z</time>
      </trkpt>
      <trkpt lat="48.60799" lon="6.33721">
        <ele>204</ele>
        <time>2017-12-23T19:19:03Z</time>
      </trkpt>
      <trkpt lat="48.60779" lon="6.33745">
        <ele>204</ele>
        <time>2017-12-23T19:19:10Z</time>
      </trkpt>
      <trkpt lat="48.6074" lon="6.33784">
        <ele>204</ele>
        <time>2017-12-23T19:19:22Z</time>
      </trkpt>
      <trkpt lat="48.60731" lon="6.33793">
        <ele>205</ele>
        <time>2017-12-23T19:19:25Z</time>
      </trkpt>
      <trkpt lat="48.60714" lon="6.33811">
        <ele>205</ele>
        <time>2017-12-23T19:19:31Z</time>
      </trkpt>
      <trkpt lat="48.60683" lon="6.33845">
        <ele>206</ele>
        <time>2017-12-23T19:19:42Z</time>
      </trkpt>
      <trkpt lat="48.60676" lon="6.33852">
        <ele>206</ele>
        <time>2017-12-23T19:19:44Z</time>
      </trkpt>
      <trkpt lat="48.60653" lon="6.3387">
        <ele>208</ele>
        <time>2017-12-23T19:19:51Z</time>
      </trkpt>
      <trkpt lat="48.6062" lon="6.3389">
        <ele>209</ele>
        <time>2017-12-23T19:20:01Z</time>
      </trkpt>
      <trkpt lat="48.60613" lon="6.33898">
        <ele>209</ele>
        <time>2017-12-23T19:20:03Z</time>
      </trkpt>
      <trkpt lat="48.60591" lon="6.33918">
        <ele>212</ele>
        <time>2017-12-23T19:20:10Z</time>
      </trkpt>
      <trkpt lat="48.60583" lon="6.33926">
        <ele>211</ele>
        <time>2017-12-23T19:20:12Z</time>
      </trkpt>
      <trkpt lat="48.60569" lon="6.33941">
        <ele>213</ele>
        <time>2017-12-23T19:20:16Z</time>
      </trkpt>
      <trkpt lat="48.60521" lon="6.33968">
        <ele>213</ele>
        <time>2017-12-23T19:20:30Z</time>
      </trkpt>
      <trkpt lat="48.60479" lon="6.34004">
        <ele>215</ele>
        <time>2017-12-23T19:20:42Z</time>
      </trkpt>
      <trkpt lat="48.60429" lon="6.34042">
        <ele>215</ele>
        <time>2017-12-23T19:20:58Z</time>
      </trkpt>
      <trkpt lat="48.6039" lon="6.3407">
        <ele>213</ele>
        <time>2017-12-23T19:21:13Z</time>
      </trkpt>
      <trkpt lat="48.60383" lon="6.34072">
        <ele>212</ele>
        <time>2017-12-23T19:21:15Z</time>
      </trkpt>
      <trkpt lat="48.60372" lon="6.34084">
        <ele>216</ele>
        <time>2017-12-23T19:21:19Z</time>
      </trkpt>
      <trkpt lat="48.60357" lon="6.34107">
        <ele>215</ele>
        <time>2017-12-23T19:21:25Z</time>
      </trkpt>
      <trkpt lat="48.60332" lon="6.34144">
        <ele>213</ele>
        <time>2017-12-23T19:21:35Z</time>
      </trkpt>
      <trkpt lat="48.60326" lon="6.34151">
        <ele>213</ele>
        <time>2017-12-23T19:21:37Z</time>
      </trkpt>
      <trkpt lat="48.60291" lon="6.34214">
        <ele>213</ele>
        <time>2017-12-23T19:21:51Z</time>
      </trkpt>
      <trkpt lat="48.60261" lon="6.34274">
        <ele>213</ele>
        <time>2017-12-23T19:22:04Z</time>
      </trkpt>
      <trkpt lat="48.60246" lon="6.34301">
        <ele>208</ele>
        <time>2017-12-23T19:22:12Z</time>
      </trkpt>
      <trkpt lat="48.60239" lon="6.3432">
        <ele>209</ele>
        <time>2017-12-23T19:22:16Z</time>
      </trkpt>
      <trkpt lat="48.60225" lon="6.34339">
        <ele>208</ele>
        <time>2017-12-23T19:22:21Z</time>
      </trkpt>
      <trkpt lat="48.60223" lon="6.34343">
        <ele>208</ele>
        <time>2017-12-23T19:22:22Z</time>
      </trkpt>
      <trkpt lat="48.60219" lon="6.34348">
        <ele>208</ele>
        <time>2017-12-23T19:22:24Z</time>
      </trkpt>
      <trkpt lat="48.60219" lon="6.34351">
        <ele>208</ele>
        <time>2017-12-23T19:22:25Z</time>
      </trkpt>
      <trkpt lat="48.60223" lon="6.3436">
        <ele>208</ele>
        <time>2017-12-23T19:22:27Z</time>
      </trkpt>
      <trkpt lat="48.6025" lon="6.34414">
        <ele>209</ele>
        <time>2017-12-23T19:22:37Z</time>
      </trkpt>
      <trkpt lat="48.60287" lon="6.34485">
        <ele>212</ele>
        <time>2017-12-23T19:22:47Z</time>
      </trkpt>
      <trkpt lat="48.60325" lon="6.34553">
        <ele>209</ele>
        <time>2017-12-23T19:22:56Z</time>
      </trkpt>
      <trkpt lat="48.60363" lon="6.34622">
        <ele>211</ele>
        <time>2017-12-23T19:23:05Z</time>
      </trkpt>
      <trkpt lat="48.60392" lon="6.34674">
        <ele>209</ele>
        <time>2017-12-23T19:23:12Z</time>
      </trkpt>
      <trkpt lat="48.60396" lon="6.34681">
        <ele>209</ele>
        <time>2017-12-23T19:23:13Z</time>
      </trkpt>
      <trkpt lat="48.6041" lon="6.34699">
        <ele>208</ele>
        <time>2017-12-23T19:23:16Z</time>
      </trkpt>
      <trkpt lat="48.60417" lon="6.34714">
        <ele>213</ele>
        <time>2017-12-23T19:23:18Z</time>
      </trkpt>
      <trkpt lat="48.6043" lon="6.34744">
        <ele>211</ele>
        <time>2017-12-23T19:23:22Z</time>
      </trkpt>
      <trkpt lat="48.60459" lon="6.34786">
        <ele>211</ele>
        <time>2017-12-23T19:23:31Z</time>
      </trkpt>
      <trkpt lat="48.60457" lon="6.34794">
        <ele>211</ele>
        <time>2017-12-23T19:23:35Z</time>
      </trkpt>
      <trkpt lat="48.60472" lon="6.3482">
        <ele>211</ele>
        <time>2017-12-23T19:23:40Z</time>
      </trkpt>
      <trkpt lat="48.60487" lon="6.34848">
        <ele>210</ele>
        <time>2017-12-23T19:23:45Z</time>
      </trkpt>
      <trkpt lat="48.60504" lon="6.34876">
        <ele>211</ele>
        <time>2017-12-23T19:23:50Z</time>
      </trkpt>
      <trkpt lat="48.60517" lon="6.34896">
        <ele>210</ele>
        <time>2017-12-23T19:23:54Z</time>
      </trkpt>
      <trkpt lat="48.60533" lon="6.34922">
        <ele>208</ele>
        <time>2017-12-23T19:23:59Z</time>
      </trkpt>
      <trkpt lat="48.60551" lon="6.34946">
        <ele>208</ele>
        <time>2017-12-23T19:24:04Z</time>
      </trkpt>
      <trkpt lat="48.60567" lon="6.3497">
        <ele>208</ele>
        <time>2017-12-23T19:24:09Z</time>
      </trkpt>
      <trkpt lat="48.60577" lon="6.34984">
        <ele>208</ele>
        <time>2017-12-23T19:24:12Z</time>
      </trkpt>
      <trkpt lat="48.60596" lon="6.35009">
        <ele>207</ele>
        <time>2017-12-23T19:24:18Z</time>
      </trkpt>
      <trkpt lat="48.60602" lon="6.35017">
        <ele>207</ele>
        <time>2017-12-23T19:24:20Z</time>
      </trkpt>
      <trkpt lat="48.60609" lon="6.3503">
        <ele>208</ele>
        <time>2017-12-23T19:24:24Z</time>
      </trkpt>
      <trkpt lat="48.60611" lon="6.3504">
        <ele>208</ele>
        <time>2017-12-23T19:24:26Z</time>
      </trkpt>
      <trkpt lat="48.60636" lon="6.35079">
        <ele>208</ele>
        <time>2017-12-23T19:24:33Z</time>
      </trkpt>
      <trkpt lat="48.60651" lon="6.35103">
        <ele>209</ele>
        <time>2017-12-23T19:24:37Z</time>
      </trkpt>
      <trkpt lat="48.6066" lon="6.35117">
        <ele>209</ele>
        <time>2017-12-23T19:24:39Z</time>
      </trkpt>
      <trkpt lat="48.60683" lon="6.35153">
        <ele>209</ele>
        <time>2017-12-23T19:24:44Z</time>
      </trkpt>
      <trkpt lat="48.60703" lon="6.35183">
        <ele>210</ele>
        <time>2017-12-23T19:24:48Z</time>
      </trkpt>
      <trkpt lat="48.60709" lon="6.3519">
        <ele>210</ele>
        <time>2017-12-23T19:24:49Z</time>
      </trkpt>
      <trkpt lat="48.6072" lon="6.35205">
        <ele>210</ele>
        <time>2017-12-23T19:24:51Z</time>
      </trkpt>
      <trkpt lat="48.60725" lon="6.35225">
        <ele>210</ele>
        <time>2017-12-23T19:24:53Z</time>
      </trkpt>
      <trkpt lat="48.60723" lon="6.35236">
        <ele>210</ele>
        <time>2017-12-23T19:24:54Z</time>
      </trkpt>
      <trkpt lat="48.6072" lon="6.35245">
        <ele>210</ele>
        <time>2017-12-23T19:24:55Z</time>
      </trkpt>
      <trkpt lat="48.60715" lon="6.35264">
        <ele>211</ele>
        <time>2017-12-23T19:24:57Z</time>
      </trkpt>
      <trkpt lat="48.60719" lon="6.35284">
        <ele>212</ele>
        <time>2017-12-23T19:24:59Z</time>
      </trkpt>
      <trkpt lat="48.60754" lon="6.35348">
        <ele>214</ele>
        <time>2017-12-23T19:25:07Z</time>
      </trkpt>
      <trkpt lat="48.60783" lon="6.35405">
        <ele>215</ele>
        <time>2017-12-23T19:25:14Z</time>
      </trkpt>
      <trkpt lat="48.60813" lon="6.35458">
        <ele>216</ele>
        <time>2017-12-23T19:25:21Z</time>
      </trkpt>
      <trkpt lat="48.60817" lon="6.35465">
        <ele>216</ele>
        <time>2017-12-23T19:25:22Z</time>
      </trkpt>
      <trkpt lat="48.6085" lon="6.35518">
        <ele>217</ele>
        <time>2017-12-23T19:25:31Z</time>
      </trkpt>
      <trkpt lat="48.60868" lon="6.3555">
        <ele>217</ele>
        <time>2017-12-23T19:25:48Z</time>
      </trkpt>
      <trkpt lat="48.60902" lon="6.35613">
        <ele>217</ele>
        <time>2017-12-23T19:25:58Z</time>
      </trkpt>
      <trkpt lat="48.60934" lon="6.3567">
        <ele>218</ele>
        <time>2017-12-23T19:26:06Z</time>
      </trkpt>
      <trkpt lat="48.60968" lon="6.35729">
        <ele>218</ele>
        <time>2017-12-23T19:26:14Z</time>
      </trkpt>
      <trkpt lat="48.60993" lon="6.35774">
        <ele>219</ele>
        <time>2017-12-23T19:26:20Z</time>
      </trkpt>
      <trkpt lat="48.61021" lon="6.35826">
        <ele>220</ele>
        <time>2017-12-23T19:26:27Z</time>
      </trkpt>
      <trkpt lat="48.61058" lon="6.35892">
        <ele>221</ele>
        <time>2017-12-23T19:26:36Z</time>
      </trkpt>
      <trkpt lat="48.6107" lon="6.35915">
        <ele>222</ele>
        <time>2017-12-23T19:26:39Z</time>
      </trkpt>
      <trkpt lat="48.61107" lon="6.35981">
        <ele>224</ele>
        <time>2017-12-23T19:26:48Z</time>
      </trkpt>
      <trkpt lat="48.61115" lon="6.35995">
        <ele>224</ele>
        <time>2017-12-23T19:26:50Z</time>
      </trkpt>
      <trkpt lat="48.61152" lon="6.3606">
        <ele>225</ele>
        <time>2017-12-23T19:26:59Z</time>
      </trkpt>
      <trkpt lat="48.61159" lon="6.36075">
        <ele>225</ele>
        <time>2017-12-23T19:27:01Z</time>
      </trkpt>
      <trkpt lat="48.61187" lon="6.36126">
        <ele>226</ele>
        <time>2017-12-23T19:27:08Z</time>
      </trkpt>
      <trkpt lat="48.6121" lon="6.36168">
        <ele>227</ele>
        <time>2017-12-23T19:27:14Z</time>
      </trkpt>
      <trkpt lat="48.61235" lon="6.36215">
        <ele>228</ele>
        <time>2017-12-23T19:27:21Z</time>
      </trkpt>
      <trkpt lat="48.61253" lon="6.36247">
        <ele>229</ele>
        <time>2017-12-23T19:27:26Z</time>
      </trkpt>
      <trkpt lat="48.61257" lon="6.36254">
        <ele>229</ele>
        <time>2017-12-23T19:27:27Z</time>
      </trkpt>
      <trkpt lat="48.61285" lon="6.36306">
        <ele>231</ele>
        <time>2017-12-23T19:27:35Z</time>
      </trkpt>
      <trkpt lat="48.61315" lon="6.36363">
        <ele>232</ele>
        <time>2017-12-23T19:27:44Z</time>
      </trkpt>
      <trkpt lat="48.61317" lon="6.3637">
        <ele>232</ele>
        <time>2017-12-23T19:27:45Z</time>
      </trkpt>
      <trkpt lat="48.61318" lon="6.36378">
        <ele>232</ele>
        <time>2017-12-23T19:27:46Z</time>
      </trkpt>
      <trkpt lat="48.6131" lon="6.36463">
        <ele>232</ele>
        <time>2017-12-23T19:27:56Z</time>
      </trkpt>
      <trkpt lat="48.61311" lon="6.36496">
        <ele>232</ele>
        <time>2017-12-23T19:28:00Z</time>
      </trkpt>
      <trkpt lat="48.61317" lon="6.36509">
        <ele>232</ele>
        <time>2017-12-23T19:28:02Z</time>
      </trkpt>
      <trkpt lat="48.61329" lon="6.36519">
        <ele>232</ele>
        <time>2017-12-23T19:28:04Z</time>
      </trkpt>
      <trkpt lat="48.61339" lon="6.36534">
        <ele>231</ele>
        <time>2017-12-23T19:28:06Z</time>
      </trkpt>
      <trkpt lat="48.6135" lon="6.36561">
        <ele>231</ele>
        <time>2017-12-23T19:28:09Z</time>
      </trkpt>
      <trkpt lat="48.6136" lon="6.36596">
        <ele>232</ele>
        <time>2017-12-23T19:28:13Z</time>
      </trkpt>
      <trkpt lat="48.61368" lon="6.36622">
        <ele>232</ele>
        <time>2017-12-23T19:28:16Z</time>
      </trkpt>
      <trkpt lat="48.61404" lon="6.36686">
        <ele>234</ele>
        <time>2017-12-23T19:28:25Z</time>
      </trkpt>
      <trkpt lat="48.61412" lon="6.36699">
        <ele>234</ele>
        <time>2017-12-23T19:28:27Z</time>
      </trkpt>
      <trkpt lat="48.61446" lon="6.36764">
        <ele>235</ele>
        <time>2017-12-23T19:28:36Z</time>
      </trkpt>
      <trkpt lat="48.61449" lon="6.36771">
        <ele>235</ele>
        <time>2017-12-23T19:28:37Z</time>
      </trkpt>
      <trkpt lat="48.61462" lon="6.368">
        <ele>235</ele>
        <time>2017-12-23T19:28:41Z</time>
      </trkpt>
      <trkpt lat="48.61469" lon="6.36823">
        <ele>236</ele>
        <time>2017-12-23T19:28:44Z</time>
      </trkpt>
      <trkpt lat="48.61483" lon="6.36866">
        <ele>237</ele>
        <time>2017-12-23T19:28:50Z</time>
      </trkpt>
      <trkpt lat="48.61492" lon="6.36893">
        <ele>238</ele>
        <time>2017-12-23T19:28:54Z</time>
      </trkpt>
      <trkpt lat="48.61506" lon="6.36934">
        <ele>240</ele>
        <time>2017-12-23T19:29:00Z</time>
      </trkpt>
      <trkpt lat="48.61509" lon="6.36947">
        <ele>240</ele>
        <time>2017-12-23T19:29:02Z</time>
      </trkpt>
      <trkpt lat="48.61515" lon="6.36965">
        <ele>241</ele>
        <time>2017-12-23T19:29:05Z</time>
      </trkpt>
      <trkpt lat="48.61519" lon="6.36979">
        <ele>241</ele>
        <time>2017-12-23T19:29:08Z</time>
      </trkpt>
      <trkpt lat="48.61537" lon="6.37022">
        <ele>242</ele>
        <time>2017-12-23T19:29:15Z</time>
      </trkpt>
      <trkpt lat="48.61539" lon="6.37028">
        <ele>242</ele>
        <time>2017-12-23T19:29:16Z</time>
      </trkpt>
      <trkpt lat="48.61562" lon="6.37087">
        <ele>243</ele>
        <time>2017-12-23T19:29:25Z</time>
      </trkpt>
      <trkpt lat="48.61576" lon="6.37124">
        <ele>244</ele>
        <time>2017-12-23T19:29:31Z</time>
      </trkpt>
      <trkpt lat="48.61585" lon="6.37147">
        <ele>246</ele>
        <time>2017-12-23T19:29:35Z</time>
      </trkpt>
      <trkpt lat="48.61596" lon="6.37161">
        <ele>246</ele>
        <time>2017-12-23T19:29:39Z</time>
      </trkpt>
      <trkpt lat="48.61599" lon="6.37158">
        <ele>246</ele>
        <time>2017-12-23T19:29:40Z</time>
      </trkpt>
      <trkpt lat="48.61611" lon="6.37147">
        <ele>246</ele>
        <time>2017-12-23T19:29:43Z</time>
      </trkpt>
      <trkpt lat="48.61624" lon="6.37135">
        <ele>246</ele>
        <time>2017-12-23T19:29:47Z</time>
      </trkpt>
      <trkpt lat="48.6163" lon="6.3713">
        <ele>246</ele>
        <time>2017-12-23T19:29:49Z</time>
      </trkpt>
      <trkpt lat="48.61637" lon="6.37123">
        <ele>246</ele>
        <time>2017-12-23T19:29:51Z</time>
      </trkpt>
      <trkpt lat="48.6164" lon="6.3712">
        <ele>246</ele>
        <time>2017-12-23T19:29:52Z</time>
      </trkpt>
      <trkpt lat="48.61648" lon="6.37115">
        <ele>246</ele>
        <time>2017-12-23T19:29:54Z</time>
      </trkpt>
      <trkpt lat="48.61652" lon="6.37115">
        <ele>246</ele>
        <time>2017-12-23T19:29:55Z</time>
      </trkpt>
      <trkpt lat="48.61659" lon="6.37121">
        <ele>247</ele>
        <time>2017-12-23T19:29:57Z</time>
      </trkpt>
      <trkpt lat="48.61665" lon="6.37132">
        <ele>247</ele>
        <time>2017-12-23T19:29:59Z</time>
      </trkpt>
      <trkpt lat="48.61673" lon="6.37149">
        <ele>249</ele>
        <time>2017-12-23T19:30:02Z</time>
      </trkpt>
      <trkpt lat="48.61679" lon="6.37156">
        <ele>250</ele>
        <time>2017-12-23T19:30:04Z</time>
      </trkpt>
      <trkpt lat="48.61686" lon="6.37162">
        <ele>250</ele>
        <time>2017-12-23T19:30:06Z</time>
      </trkpt>
      <trkpt lat="48.61701" lon="6.37172">
        <ele>252</ele>
        <time>2017-12-23T19:30:10Z</time>
      </trkpt>
      <trkpt lat="48.61714" lon="6.37176">
        <ele>252</ele>
        <time>2017-12-23T19:30:13Z</time>
      </trkpt>
      <trkpt lat="48.61733" lon="6.37179">
        <ele>252</ele>
      </trkpt>
      <trkpt lat="48.61753" lon="6.37174">
        <ele>253</ele>
      </trkpt>
      <trkpt lat="48.61795" lon="6.37151">
        <ele>250</ele>
      </trkpt>
      <trkpt lat="48.61835" lon="6.37134">
        <ele>249</ele>
      </trkpt>
      <trkpt lat="48.61897" lon="6.37121">
        <ele>248</ele>
        <time>2017-12-23T19:30:44Z</time>
      </trkpt>
      <trkpt lat="48.6194" lon="6.37102">
        <ele>248</ele>
        <time>2017-12-23T19:30:50Z</time>
      </trkpt>
      <trkpt lat="48.61995" lon="6.3709">
        <ele>248</ele>
      </trkpt>
    </trkseg>
  </trk>
</gpx>